Provisional Data: Catatonk Creek near Spencer, NY


Please select a monitoring station.
Please select start date.
Please select start date.

Toggle Unit: C/F Toggle Unit: C/F
Sample Time Temperature (C) Temperature (F) Specific Conductivity (mS/cm) pH   Turbidity (NTU+) DO (mg/L)
10/22/2021 12:00:00 AM 14.04 57.272 0.355 7.64 5.83 8.02
10/22/2021 12:15:00 AM 14.02 57.236 0.354 7.62 4.66 7.99
10/22/2021 12:30:00 AM 13.99 57.182 0.357 7.62 4.36 7.87
10/22/2021 12:45:00 AM 13.99 57.182 0.355 7.6 5.19 7.91
10/22/2021 1:00:00 AM 13.96 57.128 0.355 7.6 4.69 7.9
10/22/2021 1:15:00 AM 13.89 57.002 0.355 7.59 4.59 7.79
10/22/2021 1:30:00 AM 13.88 56.984 0.351 7.59 4.96 7.86
10/22/2021 1:45:00 AM 13.83 56.894 0.358 7.58 4.66 7.84
10/22/2021 2:00:00 AM 13.8 56.84 0.353 7.56 4.62 7.77
10/22/2021 2:15:00 AM 13.79 56.822 0.295 7.56 5.66 7.8
10/22/2021 2:30:00 AM 13.73 56.714 0.349 7.56 4.35 7.74
10/22/2021 2:45:00 AM 13.71 56.678 0.352 7.53 5.56 7.7
10/22/2021 3:00:00 AM 13.69 56.642 0.353 7.55 4.81 7.71
10/22/2021 3:15:00 AM 13.7 56.66 0.378 7.53 6.38 7.74
10/22/2021 3:30:00 AM 13.69 56.642 0.405 7.53 5.8 7.78
10/22/2021 3:45:00 AM 13.67 56.606 0.423 7.55 5.28 7.79
10/22/2021 4:00:00 AM 13.68 56.624 0.427 7.57 5.41 7.91
10/22/2021 4:15:00 AM 13.65 56.57 0.418 7.57 5.38 7.93
10/22/2021 4:30:00 AM 13.65 56.57 0.404 7.59 5.98 8
10/22/2021 4:45:00 AM 13.58 56.444 0.393 7.57 5.64 7.94
10/22/2021 5:00:00 AM 13.58 56.444 0.37 7.59 8.32 8.15
10/22/2021 5:15:00 AM 13.54 56.372 0.351 7.6 7.6 8.24
10/22/2021 5:30:00 AM 13.48 56.264 0.333 7.56 9.08 8.27
10/22/2021 5:45:00 AM 13.41 56.138 0.31 7.58 9.93 8.32
10/22/2021 6:00:00 AM 13.32 55.976 0.284 7.53 12.66 8.29
10/22/2021 6:15:00 AM 13.27 55.886 0.268 7.53 62.84 8.4
10/22/2021 6:30:00 AM 13.22 55.796 0.25 7.52 15.41 8.42
10/22/2021 6:45:00 AM 13.16 55.688 0.25 7.49 13.09 8.43
10/22/2021 7:00:00 AM 13.1 55.58 0.23 7.46 16.7 8.44
10/22/2021 7:15:00 AM 13.06 55.508 0.225 7.44 16.86 8.48
10/22/2021 7:30:00 AM 13.04 55.472 0.218 7.43 16.05 8.5
10/22/2021 7:45:00 AM 13.02 55.436 0.224 7.42 16.22 8.51
10/22/2021 8:00:00 AM 13.01 55.418 0.214 7.41 17.69 8.53
10/22/2021 8:15:00 AM 12.99 55.382 0.219 7.42 16.38 8.53
10/22/2021 8:30:00 AM 12.97 55.346 0.212 7.4 16.75 8.55
10/22/2021 8:45:00 AM 12.94 55.292 0.211 7.42 13.72 8.55
10/22/2021 9:00:00 AM 12.92 55.256 0.214 7.39 17.28 8.56
10/22/2021 9:15:00 AM 12.89 55.202 0.213 7.41 14.37 8.57
10/22/2021 9:30:00 AM 12.88 55.184 0.212 7.41 15.56 8.59
10/22/2021 9:45:00 AM 12.87 55.166 0.211 7.42 14.85 8.62
10/22/2021 10:00:00 AM 12.86 55.148 0.216 7.39 15.06 8.64
10/22/2021 10:15:00 AM 12.84 55.112 0.217 7.42 13.44 8.66
10/22/2021 10:30:00 AM 12.83 55.094 0.214 7.44 12.18 8.7
10/22/2021 10:45:00 AM 12.81 55.058 0.217 7.43 12.54 8.73
10/22/2021 11:00:00 AM 12.78 55.004 0.217 7.43 12.7 8.76
10/22/2021 11:15:00 AM 12.75 54.95 0.219 7.4 11.82 8.77
10/22/2021 11:30:00 AM 12.73 54.914 0.215 7.44 10.58 8.81
10/22/2021 11:45:00 AM 12.74 54.932 0.213 7.45 10.64 8.88
10/22/2021 12:00:00 PM 12.72 54.896 0.214 7.45 10.14 8.89
10/22/2021 12:15:00 PM 12.71 54.878 0.215 7.44 10.63 8.92
10/22/2021 12:30:00 PM 12.73 54.914 0.214 7.44 9.25 9.01
10/22/2021 12:45:00 PM 12.74 54.932 0.216 7.45 9.99 9.03
10/22/2021 1:00:00 PM 12.76 54.968 0.213 7.46 9.05 9.1
10/22/2021 1:15:00 PM 12.78 55.004 0.211 7.47 8.84 9.15
10/22/2021 1:30:00 PM 12.81 55.058 0.21 7.48 9.25 9.23
10/22/2021 1:45:00 PM 12.83 55.094 0.22 7.48 8.66 9.3
10/22/2021 2:00:00 PM 12.89 55.202 0.21 7.49 8.57 9.38
10/22/2021 2:15:00 PM 12.93 55.274 0.21 7.5 8.49 9.43
10/22/2021 2:30:00 PM 12.96 55.328 0.209 7.51 8.25 9.5
10/22/2021 2:45:00 PM 13.01 55.418 0.211 7.53 7.72 9.56
10/22/2021 3:00:00 PM 13.05 55.49 0.217 7.51 8.38 9.6
10/22/2021 3:15:00 PM 13.07 55.526 0.204 7.53 7.77 9.62
10/22/2021 3:30:00 PM 13.14 55.652 0.219 7.54 8.21 9.7
10/22/2021 3:45:00 PM 13.16 55.688 0.211 7.56 7.49 9.72
10/22/2021 4:00:00 PM 13.16 55.688 0.218 7.53 8.12 9.66
10/22/2021 4:15:00 PM 13.19 55.742 0.214 7.56 8.49 9.7
10/22/2021 4:30:00 PM 13.21 55.778 0.194 7.57 7.37 9.72
10/22/2021 4:45:00 PM 13.21 55.778 0.213 7.57 7.42 9.7
10/22/2021 5:00:00 PM 13.2 55.76 0.213 7.55 7.46 9.66
10/22/2021 5:15:00 PM 13.2 55.76 0.214 7.55 8.96 9.61
10/22/2021 5:30:00 PM 13.18 55.724 0.215 7.56 7.19 9.57
10/22/2021 5:45:00 PM 13.16 55.688 0.216 7.55 7.2 9.54
10/22/2021 6:00:00 PM 13.13 55.634 0.214 7.54 7.41 9.49
10/22/2021 6:15:00 PM 13.09 55.562 0.216 7.52 8.28 9.45
10/22/2021 6:30:00 PM 13.04 55.472 0.219 7.56 7.58 9.39
10/22/2021 6:45:00 PM 12.99 55.382 0.217 7.54 7.3 9.34
10/22/2021 7:00:00 PM 12.94 55.292 0.224 7.52 8.2 9.28
10/22/2021 7:15:00 PM 12.89 55.202 0.207 7.5 8.54 9.22
10/22/2021 7:30:00 PM 12.83 55.094 0.228 7.52 7.29 9.17
10/22/2021 7:45:00 PM 12.78 55.004 0.23 7.51 8.44 9.13
10/22/2021 8:00:00 PM 12.71 54.878 0.232 7.52 7.31 9.06
10/22/2021 8:15:00 PM 12.65 54.77 0.233 7.51 7.18 9.05
10/22/2021 8:30:00 PM 12.59 54.662 0.231 7.5 6.8 9.01
10/22/2021 8:45:00 PM 12.52 54.536 0.236 7.5 6.88 8.97
10/22/2021 9:00:00 PM 12.45 54.41 0.234 7.5 7.08 8.95
10/22/2021 9:15:00 PM 12.39 54.302 0.233 7.51 6.7 8.95
10/22/2021 9:30:00 PM 12.31 54.158 0.239 7.49 7.06 8.9
10/22/2021 9:45:00 PM 12.25 54.05 0.238 7.49 7.37 8.88
10/22/2021 10:00:00 PM 12.19 53.942 0.238 7.49 6.45 8.87
10/22/2021 10:15:00 PM 12.14 53.852 0.239 7.48 6.81 8.86
10/22/2021 10:30:00 PM 12.07 53.726 0.241 7.49 6.51 8.85
10/22/2021 10:45:00 PM 12.01 53.618 0.233 7.46 6.83 8.84
10/22/2021 11:00:00 PM 11.96 53.528 0.247 7.46 6.63 8.83
10/22/2021 11:15:00 PM 11.9 53.42 0.248 7.49 6.37 8.83
10/22/2021 11:30:00 PM 11.84 53.312 0.248 7.49 6.45 8.83
10/22/2021 11:45:00 PM 11.78 53.204 0.262 7.49 6.47 8.83
10/23/2021 12:00:00 AM 11.71 53.078 0.252 7.49 5.84 8.85
10/23/2021 12:15:00 AM 11.66 52.988 0.251 7.5 5.93 8.84
10/23/2021 12:30:00 AM 11.6 52.88 0.254 7.5 6.1 8.86
10/23/2021 12:45:00 AM 11.55 52.79 0.257 7.49 5.86 8.86
10/23/2021 1:00:00 AM 11.51 52.718 0.236 7.46 6.11 8.88
10/23/2021 1:15:00 AM 11.46 52.628 0.261 7.48 6.09 8.86
10/23/2021 1:30:00 AM 11.42 52.556 0.263 7.46 6.47 8.88
10/23/2021 1:45:00 AM 11.37 52.466 0.262 7.49 5.46 8.89
10/23/2021 2:00:00 AM 11.32 52.376 0.264 7.49 5.7 8.9
10/23/2021 2:15:00 AM 11.27 52.286 0.259 7.49 5.28 8.89
10/23/2021 2:30:00 AM 11.22 52.196 0.263 7.49 5.69 8.92
10/23/2021 2:45:00 AM 11.17 52.106 0.259 7.47 5.37 8.93
10/23/2021 3:00:00 AM 11.12 52.016 0.274 7.46 5.59 8.95
10/23/2021 3:15:00 AM 11.07 51.926 0.266 7.45 5.56 8.94
10/23/2021 3:30:00 AM 11.02 51.836 0.262 7.46 5.5 8.96
10/23/2021 3:45:00 AM 10.98 51.764 0.265 7.46 5.47 8.96
10/23/2021 4:00:00 AM 10.93 51.674 0.264 7.47 5.77 8.98
10/23/2021 4:15:00 AM 10.89 51.602 0.266 7.46 5.44 9.01
10/23/2021 4:30:00 AM 10.85 51.53 0.271 7.45 6.75 9.02
10/23/2021 4:45:00 AM 10.81 51.458 0.27 7.47 6.19 9.05
10/23/2021 5:00:00 AM 10.78 51.404 0.266 7.48 5.74 9.04
10/23/2021 5:15:00 AM 10.75 51.35 0.264 7.48 5.69 9.05
10/23/2021 5:30:00 AM 10.72 51.296 0.266 7.48 5.82 9.06
10/23/2021 5:45:00 AM 10.69 51.242 0.267 7.46 6.02 9.07
10/23/2021 6:00:00 AM 10.66 51.188 0.267 7.47 5.71 9.08
10/23/2021 6:15:00 AM 10.63 51.134 0.163 7.47 6.74 9.08
10/23/2021 6:30:00 AM 10.6 51.08 0.268 7.48 6.13 9.08
10/23/2021 6:45:00 AM 10.57 51.026 0.27 7.47 7.31 9.1
10/23/2021 7:00:00 AM 10.55 50.99 0.273 7.48 5.69 9.1
10/23/2021 7:15:00 AM 10.52 50.936 0.27 7.48 6.45 9.1
10/23/2021 7:30:00 AM 10.49 50.882 0.269 7.47 5.77 9.11
10/23/2021 7:45:00 AM 10.47 50.846 0.272 7.48 5.68 9.11
10/23/2021 8:00:00 AM 10.45 50.81 0.269 7.49 4.99 9.13
10/23/2021 8:15:00 AM 10.44 50.792 0.276 7.5 5.27 9.15
10/23/2021 8:30:00 AM 10.43 50.774 0.275 7.5 5.2 9.17
10/23/2021 8:45:00 AM 10.43 50.774 0.274 7.49 4.76 9.19
10/23/2021 9:00:00 AM 10.43 50.774 0.273 7.51 4.77 9.27
10/23/2021 9:15:00 AM 10.43 50.774 0.285 7.52 4.62 9.32
10/23/2021 9:30:00 AM 10.43 50.774 0.278 7.52 4.56 9.36
10/23/2021 9:45:00 AM 10.43 50.774 0.279 7.53 4.85 9.41
10/23/2021 10:00:00 AM 10.44 50.792 0.274 7.55 4.39 9.46
10/23/2021 10:15:00 AM 10.46 50.828 0.284 7.56 4.34 9.55
10/23/2021 10:30:00 AM 10.49 50.882 0.282 7.57 4.07 9.69
10/23/2021 10:45:00 AM 10.52 50.936 0.276 7.58 4.03 9.75
10/23/2021 11:00:00 AM 10.56 51.008 0.281 7.58 4.04 9.83
10/23/2021 11:15:00 AM 10.6 51.08 0.278 7.6 3.96 9.93
10/23/2021 11:30:00 AM 10.64 51.152 0.278 7.61 3.79 10.04
10/23/2021 11:45:00 AM 10.69 51.242 0.277 7.63 3.78 10.17
10/23/2021 12:00:00 PM 10.74 51.332 0.293 7.66 3.71 10.29
10/23/2021 12:15:00 PM 10.78 51.404 0.281 7.67 3.9 10.37
10/23/2021 12:30:00 PM 10.82 51.476 0.281 7.68 3.73 10.43
10/23/2021 12:45:00 PM 10.84 51.512 0.286 7.67 4.38 10.47
10/23/2021 1:00:00 PM 10.87 51.566 0.287 7.69 3.9 10.52
10/23/2021 1:15:00 PM 10.9 51.62 0.286 7.72 3.48 10.57
10/23/2021 1:30:00 PM 10.93 51.674 0.291 7.72 3.5 10.59
10/23/2021 1:45:00 PM 10.96 51.728 0.287 7.73 3.43 10.66
10/23/2021 2:00:00 PM 11.01 51.818 0.287 7.75 3.45 10.73
10/23/2021 2:15:00 PM 11.08 51.944 0.284 7.77 3.31 10.8
10/23/2021 2:30:00 PM 11.1 51.98 0.292 7.75 5.01 10.78
10/23/2021 2:45:00 PM 11.12 52.016 0.3 7.74 3.98 10.73
10/23/2021 3:00:00 PM 11.15 52.07 0.291 7.78 3.14 10.72
10/23/2021 3:15:00 PM 11.19 52.142 0.292 7.78 3.24 10.75
10/23/2021 3:30:00 PM 11.22 52.196 0.29 7.79 3.11 10.71
10/23/2021 3:45:00 PM 11.23 52.214 0.297 7.78 3.17 10.63
10/23/2021 4:00:00 PM 11.24 52.232 0.294 7.77 3.8 10.57
10/23/2021 4:15:00 PM 11.25 52.25 0.296 7.77 3.23 10.55
10/23/2021 4:30:00 PM 11.27 52.286 0.294 7.78 3.62 10.57
10/23/2021 4:45:00 PM 11.27 52.286 0.295 7.77 3.03 10.5
10/23/2021 5:00:00 PM 11.27 52.286 0.293 7.77 3.73 10.43
10/23/2021 5:15:00 PM 11.29 52.322 0.293 7.76 3.79 10.41
10/23/2021 5:30:00 PM 11.3 52.34 0.295 7.76 3.71 10.39
10/23/2021 5:45:00 PM 11.29 52.322 0.295 7.77 3.7 10.33
10/23/2021 6:00:00 PM 11.28 52.304 0.296 7.77 2.93 10.24
10/23/2021 6:15:00 PM 11.27 52.286 0.293 7.75 3.01 10.12
10/23/2021 6:30:00 PM 11.25 52.25 0.294 7.73 3.99 10.06
10/23/2021 6:45:00 PM 11.23 52.214 0.295 7.73 3.22 9.98
10/23/2021 7:00:00 PM 11.2 52.16 0.304 7.72 3.15 9.91
10/23/2021 7:15:00 PM 11.16 52.088 0.297 7.71 3.05 9.84
10/23/2021 7:30:00 PM 11.13 52.034 0.298 7.7 3.31 9.75
10/23/2021 7:45:00 PM 11.1 51.98 0.301 7.65 6.23 9.68
10/23/2021 8:00:00 PM 11.08 51.944 0.295 7.69 3.25 9.64
10/23/2021 8:15:00 PM 11.06 51.908 0.297 7.67 3.24 9.58
10/23/2021 8:30:00 PM 11.05 51.89 0.299 7.67 3.39 9.54
10/23/2021 8:45:00 PM 11.04 51.872 0.302 7.65 4.5 9.5
10/23/2021 9:00:00 PM 11.03 51.854 0.297 7.66 3.32 9.47
10/23/2021 9:15:00 PM 11.02 51.836 0.3 7.65 3.34 9.42
10/23/2021 9:30:00 PM 11.01 51.818 0.304 7.64 5.74 9.38
10/23/2021 9:45:00 PM 11 51.8 0.301 7.64 3.62 9.33
10/23/2021 10:00:00 PM 10.97 51.746 0.313 7.64 3.73 9.32
10/23/2021 10:15:00 PM 10.95 51.71 0.303 7.63 3.39 9.28
10/23/2021 10:30:00 PM 10.91 51.638 0.304 7.63 3.61 9.24
10/23/2021 10:45:00 PM 10.88 51.584 0.172 7.62 4.05 9.23
10/23/2021 11:00:00 PM 10.85 51.53 0.309 7.6 3.87 9.21
10/23/2021 11:15:00 PM 10.82 51.476 0.304 7.61 4.14 9.2
10/23/2021 11:30:00 PM 10.79 51.422 0.306 7.61 3.57 9.18
10/23/2021 11:45:00 PM 10.76 51.368 0.293 7.6 4.37 9.18
10/24/2021 12:00:00 AM 10.74 51.332 0.303 7.61 3.41 9.16
10/24/2021 12:15:00 AM 10.71 51.278 0.304 7.6 3.25 9.16
10/24/2021 12:30:00 AM 10.68 51.224 0.305 7.62 3.3 9.16
10/24/2021 12:45:00 AM 10.66 51.188 0.305 7.6 3.49 9.15
10/24/2021 1:00:00 AM 10.63 51.134 0.305 7.6 3.16 9.15
10/24/2021 1:15:00 AM 10.61 51.098 0.313 7.59 3.17 9.16
10/24/2021 1:30:00 AM 10.58 51.044 0.304 7.59 3.23 9.16
10/24/2021 1:45:00 AM 10.56 51.008 0.306 7.59 3.18 9.15
10/24/2021 2:00:00 AM 10.53 50.954 0.304 7.59 3.39 9.14
10/24/2021 2:15:00 AM 10.49 50.882 0.302 7.59 3.65 9.15
10/24/2021 2:30:00 AM 10.46 50.828 0.302 7.59 3.29 9.15
10/24/2021 2:45:00 AM 10.43 50.774 0.302 7.58 3.37 9.17
10/24/2021 3:00:00 AM 10.41 50.738 0.302 7.58 3.88 9.16
10/24/2021 3:15:00 AM 10.38 50.684 0.302 7.58 3.58 9.17
10/24/2021 3:30:00 AM 10.36 50.648 0.31 7.58 3.35 9.17
10/24/2021 3:45:00 AM 10.33 50.594 0.302 7.57 3.45 9.17
10/24/2021 4:00:00 AM 10.31 50.558 0.309 7.57 3.55 9.18
10/24/2021 4:15:00 AM 10.29 50.522 0.3 7.57 4.06 9.18
10/24/2021 4:30:00 AM 10.26 50.468 0.302 7.57 3.94 9.18
10/24/2021 4:45:00 AM 10.24 50.432 0.296 7.57 3.54 9.2
10/24/2021 5:00:00 AM 10.22 50.396 0.305 7.56 3.57 9.19
10/24/2021 5:15:00 AM 10.19 50.342 0.3 7.56 3.62 9.2
10/24/2021 5:30:00 AM 10.17 50.306 0.301 7.56 3.33 9.21
10/24/2021 5:45:00 AM 10.16 50.288 0.301 7.56 3.54 9.21
10/24/2021 6:00:00 AM 10.14 50.252 0.303 7.56 3.63 9.21
10/24/2021 6:15:00 AM 10.12 50.216 0.302 7.56 3.83 9.21
10/24/2021 6:30:00 AM 10.11 50.198 0.314 7.55 3.86 9.22
10/24/2021 6:45:00 AM 10.09 50.162 0.303 7.56 3.72 9.21
10/24/2021 7:00:00 AM 10.07 50.126 0.303 7.56 3.51 9.22
10/24/2021 7:15:00 AM 10.06 50.108 0.301 7.56 3.6 9.22
10/24/2021 7:30:00 AM 10.05 50.09 0.306 7.56 3.24 9.21
10/24/2021 7:45:00 AM 10.04 50.072 0.306 7.55 4 9.23
10/24/2021 8:00:00 AM 10.03 50.054 0.298 7.56 3.05 9.24
10/24/2021 8:15:00 AM 10.02 50.036 0.309 7.57 3.06 9.26
10/24/2021 8:30:00 AM 10.02 50.036 0.307 7.56 2.85 9.28
10/24/2021 8:45:00 AM 10.03 50.054 0.304 7.56 2.94 9.33
10/24/2021 9:00:00 AM 10.04 50.072 0.312 7.55 3.19 9.37
10/24/2021 9:15:00 AM 10.05 50.09 0.31 7.57 3.5 9.43
10/24/2021 9:30:00 AM 10.07 50.126 0.312 7.59 3.5 9.53
10/24/2021 9:45:00 AM 10.12 50.216 0.311 7.6 2.99 9.63
10/24/2021 10:00:00 AM 10.17 50.306 0.308 7.6 2.81 9.72
10/24/2021 10:15:00 AM 10.24 50.432 0.31 7.62 2.8 9.86
10/24/2021 10:30:00 AM 10.31 50.558 0.312 7.63 2.75 9.99
10/24/2021 10:45:00 AM 10.37 50.666 0.311 7.65 2.74 10.13
10/24/2021 11:00:00 AM 10.41 50.738 0.311 7.67 3.12 10.22
10/24/2021 11:15:00 AM 10.46 50.828 0.315 7.66 3.35 10.34
10/24/2021 11:30:00 AM 10.52 50.936 0.309 7.7 2.73 10.44
10/24/2021 11:45:00 AM 10.59 51.062 0.313 7.7 2.66 10.53
10/24/2021 12:00:00 PM 10.67 51.206 0.312 7.72 2.56 10.62
10/24/2021 12:15:00 PM 10.73 51.314 0.313 7.73 2.77 10.72
10/24/2021 12:30:00 PM 10.78 51.404 0.312 7.75 2.69 10.76
10/24/2021 12:45:00 PM 10.84 51.512 0.321 7.76 2.53 10.85
10/24/2021 1:00:00 PM 10.94 51.692 0.314 7.77 2.62 10.95
10/24/2021 1:15:00 PM 10.99 51.782 0.316 7.8 2.61 11.02
10/24/2021 1:30:00 PM 11.03 51.854 0.315 7.81 2.65 11.06
10/24/2021 1:45:00 PM 11.08 51.944 0.314 7.81 2.49 11.11
10/24/2021 2:00:00 PM 11.11 51.998 0.313 7.83 2.54 11.13
10/24/2021 2:15:00 PM 11.13 52.034 0.316 7.83 2.43 11.14
10/24/2021 2:30:00 PM 11.12 52.016 0.31 7.84 2.44 11.09
10/24/2021 2:45:00 PM 11.13 52.034 0.317 7.84 2.4 11.05
10/24/2021 3:00:00 PM 11.13 52.034 0.314 7.85 2.37 11.01
10/24/2021 3:15:00 PM 11.14 52.052 0.324 7.85 2.39 10.99
10/24/2021 3:30:00 PM 11.16 52.088 0.316 7.85 2.37 10.99
10/24/2021 3:45:00 PM 11.16 52.088 0.317 7.84 2.31 10.89
10/24/2021 4:00:00 PM 11.17 52.106 0.315 7.83 2.36 10.79
10/24/2021 4:15:00 PM 11.18 52.124 0.316 7.83 2.35 10.7
10/24/2021 4:30:00 PM 11.19 52.142 0.318 7.81 2.69 10.66
10/24/2021 4:45:00 PM 11.2 52.16 0.318 7.82 3.8 10.62
10/24/2021 5:00:00 PM 11.21 52.178 0.314 7.82 2.7 10.54
10/24/2021 5:15:00 PM 11.22 52.196 0.316 7.81 2.4 10.47
10/24/2021 5:30:00 PM 11.22 52.196 0.326 7.81 2.48 10.36
10/24/2021 5:45:00 PM 11.23 52.214 0.326 7.79 3.65 10.27
10/24/2021 6:00:00 PM 11.23 52.214 0.315 7.79 2.53 10.18
10/24/2021 6:15:00 PM 11.24 52.232 0.322 7.78 2.48 10.09
10/24/2021 6:30:00 PM 11.24 52.232 0.326 7.77 2.54 10
10/24/2021 6:45:00 PM 11.24 52.232 0.315 7.76 2.58 9.88
10/24/2021 7:00:00 PM 11.24 52.232 0.32 7.74 2.58 9.79
10/24/2021 7:15:00 PM 11.24 52.232 0.319 7.73 2.75 9.71
10/24/2021 7:30:00 PM 11.23 52.214 0.315 7.73 2.55 9.63
10/24/2021 7:45:00 PM 11.23 52.214 0.317 7.71 2.75 9.56
10/24/2021 8:00:00 PM 11.22 52.196 0.321 7.69 3.18 9.49
10/24/2021 8:15:00 PM 11.22 52.196 0.314 7.7 2.97 9.42
10/24/2021 8:30:00 PM 11.22 52.196 0.326 7.69 2.73 9.39
10/24/2021 8:45:00 PM 11.23 52.214 0.318 7.68 2.8 9.33
10/24/2021 9:00:00 PM 11.23 52.214 0.32 7.67 2.71 9.28
10/24/2021 9:15:00 PM 11.24 52.232 0.316 7.64 3.43 9.24
10/24/2021 9:30:00 PM 11.25 52.25 0.317 7.66 2.92 9.21
10/24/2021 9:45:00 PM 11.26 52.268 0.316 7.65 2.87 9.16
10/24/2021 10:00:00 PM 11.26 52.268 0.318 7.65 3.4 9.15
10/24/2021 10:15:00 PM 11.26 52.268 0.316 7.65 2.86 9.1
10/24/2021 10:30:00 PM 11.27 52.286 0.329 7.63 3.08 9.09
10/24/2021 10:45:00 PM 11.27 52.286 0.322 7.64 3.59 9.06
10/24/2021 11:00:00 PM 11.26 52.268 0.318 7.63 2.88 9.04
10/24/2021 11:15:00 PM 11.26 52.268 0.335 7.63 3.07 9.02
10/24/2021 11:30:00 PM 11.27 52.286 0.322 7.62 2.87 8.98
10/24/2021 11:45:00 PM 11.27 52.286 0.318 7.63 3 8.99
10/25/2021 12:00:00 AM 11.27 52.286 0.321 7.61 3.85 8.97
10/25/2021 12:15:00 AM 11.27 52.286 0.322 7.59 4.5 8.95
10/25/2021 12:30:00 AM 11.26 52.268 0.319 7.61 3.17 8.96
10/25/2021 12:45:00 AM 11.26 52.268 0.172 7.59 3.23 8.96
10/25/2021 1:00:00 AM 11.26 52.268 0.317 7.61 3.42 8.95
10/25/2021 1:15:00 AM 11.25 52.25 0.314 7.61 3.49 8.96
10/25/2021 1:30:00 AM 11.25 52.25 0.325 7.6 4.45 8.94
10/25/2021 1:45:00 AM 11.24 52.232 0.316 7.6 3.62 8.91
10/25/2021 2:00:00 AM 11.23 52.214 0.257 7.58 3.33 8.92
10/25/2021 2:15:00 AM 11.22 52.196 0.308 7.58 3.33 8.91
10/25/2021 2:30:00 AM 11.21 52.178 0.314 7.59 3.23 8.9
10/25/2021 2:45:00 AM 11.2 52.16 0.316 7.57 5.05 8.89
10/25/2021 3:00:00 AM 11.18 52.124 0.316 7.56 3.72 8.91
10/25/2021 3:15:00 AM 11.17 52.106 0.32 7.57 3.71 8.92
10/25/2021 3:30:00 AM 11.15 52.07 0.32 7.56 3.68 8.92
10/25/2021 3:45:00 AM 11.14 52.052 0.324 7.55 3.55 8.92
10/25/2021 4:00:00 AM 11.12 52.016 0.328 7.57 4.54 8.93
10/25/2021 4:15:00 AM 11.11 51.998 0.334 7.55 4.54 8.94
10/25/2021 4:30:00 AM 11.1 51.98 0.331 7.54 3.88 8.96
10/25/2021 4:45:00 AM 11.09 51.962 0.335 7.55 4.61 8.96
10/25/2021 5:00:00 AM 11.09 51.962 0.289 7.54 4.89 8.99
10/25/2021 5:15:00 AM 11.08 51.944 0.339 7.53 4.68 8.99
10/25/2021 5:30:00 AM 11.08 51.944 0.338 7.54 3.93 8.99
10/25/2021 5:45:00 AM 11.08 51.944 0.333 7.54 4.46 9.01
10/25/2021 6:00:00 AM 11.07 51.926 0.333 7.54 5.73 9.02
10/25/2021 6:15:00 AM 11.06 51.908 0.328 7.54 5.65 9.02
10/25/2021 6:30:00 AM 11.05 51.89 0.328 7.53 5.01 9
10/25/2021 6:45:00 AM 11.03 51.854 0.32 7.52 7.51 9.01
10/25/2021 7:00:00 AM 11.01 51.818 0.308 7.52 6.02 9.02
10/25/2021 7:15:00 AM 10.98 51.764 0.307 7.48 7.88 9.04
10/25/2021 7:30:00 AM 10.96 51.728 0.293 7.51 6.51 9.04
10/25/2021 7:45:00 AM 10.94 51.692 0.275 7.5 7.62 9.06
10/25/2021 8:00:00 AM 10.92 51.656 0.27 7.48 7.86 9.07
10/25/2021 8:15:00 AM 10.91 51.638 0.262 7.49 7.46 9.09
10/25/2021 8:30:00 AM 10.91 51.638 0.256 7.48 11.53 9.17
10/25/2021 8:45:00 AM 10.91 51.638 0.247 7.48 7.77 9.22
10/25/2021 9:00:00 AM 10.92 51.656 0.241 7.48 8.13 9.25
10/25/2021 9:15:00 AM 10.93 51.674 0.235 7.48 7.94 9.28
10/25/2021 9:30:00 AM 10.96 51.728 0.238 7.46 8.67 9.38
10/25/2021 9:45:00 AM 10.99 51.782 0.234 7.47 8.91 9.39
10/25/2021 10:00:00 AM 11 51.8 0.234 7.46 8.2 9.43
10/25/2021 10:15:00 AM 11.03 51.854 0.226 7.47 8.56 9.53
10/25/2021 10:30:00 AM 11.08 51.944 0.217 7.47 9.2 9.59
10/25/2021 10:45:00 AM 11.12 52.016 0.226 7.45 8.31 9.65
10/25/2021 11:00:00 AM 11.18 52.124 0.22 7.47 8.56 9.7
10/25/2021 11:15:00 AM 11.26 52.268 0.21 7.5 7.48 9.78
10/25/2021 11:30:00 AM 11.36 52.448 0.21 7.49 8 9.88
10/25/2021 11:45:00 AM 11.46 52.628 0.216 7.51 7.52 9.93
10/25/2021 12:00:00 PM 11.57 52.826 0.215 7.52 7.57 9.99
10/25/2021 12:15:00 PM 11.68 53.024 0.214 7.54 7.96 10.05
10/25/2021 12:30:00 PM 11.8 53.24 0.211 7.55 8.25 10.14
10/25/2021 12:45:00 PM 11.93 53.474 0.21 7.57 7.94 10.2
10/25/2021 1:00:00 PM 12.06 53.708 0.214 7.56 6.71 10.21
10/25/2021 1:15:00 PM 12.2 53.96 0.197 7.57 7.17 10.3
10/25/2021 1:30:00 PM 12.33 54.194 0.209 7.59 7.01 10.35
10/25/2021 1:45:00 PM 12.45 54.41 0.208 7.6 6.65 10.38
10/25/2021 2:00:00 PM 12.56 54.608 0.202 7.62 6.28 10.41
10/25/2021 2:15:00 PM 12.67 54.806 0.211 7.62 6.47 10.42
10/25/2021 2:30:00 PM 12.77 54.986 0.206 7.62 6.71 10.43
10/25/2021 2:45:00 PM 12.87 55.166 0.206 7.62 6.51 10.43
10/25/2021 3:00:00 PM 12.96 55.328 0.202 7.63 6.21 10.41
10/25/2021 3:15:00 PM 13.02 55.436 0.207 7.63 5.77 10.4
10/25/2021 3:30:00 PM 13.1 55.58 0.203 7.64 5.94 10.43
10/25/2021 3:45:00 PM 13.15 55.67 0.206 7.65 5.83 10.39
10/25/2021 4:00:00 PM 13.18 55.724 0.207 7.62 7.08 10.29
10/25/2021 4:15:00 PM 13.22 55.796 0.175 7.64 5.95 10.27
10/25/2021 4:30:00 PM 13.27 55.886 0.207 7.63 5.66 10.26
10/25/2021 4:45:00 PM 13.31 55.958 0.204 7.63 5.64 10.19
10/25/2021 5:00:00 PM 13.34 56.012 0.204 7.63 6.06 10.11
10/25/2021 5:15:00 PM 13.37 56.066 0.206 7.62 5.92 10.05
10/25/2021 5:30:00 PM 13.4 56.12 0.207 7.61 5.44 9.95
10/25/2021 5:45:00 PM 13.42 56.156 0.209 7.59 5.52 9.85
10/25/2021 6:00:00 PM 13.42 56.156 0.209 7.59 5.31 9.76
10/25/2021 6:15:00 PM 13.42 56.156 0.207 7.57 5.48 9.66
10/25/2021 6:30:00 PM 13.42 56.156 0.212 7.49 6.41 9.6
10/25/2021 6:45:00 PM 13.41 56.138 0.208 7.56 6.65 9.52
10/25/2021 7:00:00 PM 13.39 56.102 0.211 7.53 6.27 9.42
10/25/2021 7:15:00 PM 13.37 56.066 0.212 7.54 5.66 9.34
10/25/2021 7:30:00 PM 13.36 56.048 0.213 7.53 5.48 9.29
10/25/2021 7:45:00 PM 13.33 55.994 0.213 7.52 5.29 9.19
10/25/2021 8:00:00 PM 13.32 55.976 0.214 7.51 5.25 9.15
10/25/2021 8:15:00 PM 13.3 55.94 0.216 7.51 5.53 9.08
10/25/2021 8:30:00 PM 13.28 55.904 0.228 7.49 6.38 9.02
10/25/2021 8:45:00 PM 13.27 55.886 0.22 7.49 5.51 8.98
10/25/2021 9:00:00 PM 13.25 55.85 0.224 7.48 7.56 8.92
10/25/2021 9:15:00 PM 13.23 55.814 0.227 7.49 5.8 8.86
10/25/2021 9:30:00 PM 13.23 55.814 0.228 7.47 5.62 8.83
10/25/2021 9:45:00 PM 13.21 55.778 0.228 7.47 5.36 8.78
10/25/2021 10:00:00 PM 13.21 55.778 0.232 7.47 5.33 8.76
10/25/2021 10:15:00 PM 13.2 55.76 0.233 7.48 5.14 8.74
10/25/2021 10:30:00 PM 13.19 55.742 0.234 7.45 6.55 8.74
10/25/2021 10:45:00 PM 13.17 55.706 0.232 7.46 5.97 8.72
10/25/2021 11:00:00 PM 13.15 55.67 0.235 7.46 5.98 8.69
10/25/2021 11:15:00 PM 13.13 55.634 0.237 7.45 6.68 8.69
10/25/2021 11:30:00 PM 13.11 55.598 0.238 7.46 6.23 8.67
10/25/2021 11:45:00 PM 13.09 55.562 0.244 7.44 5.95 8.65
10/26/2021 12:00:00 AM 13.07 55.526 0.236 7.47 5.83 8.63
10/26/2021 12:15:00 AM 13.05 55.49 0.24 7.46 6.11 8.63
10/26/2021 12:30:00 AM 13.03 55.454 0.139 7.44 6.19 8.61
10/26/2021 12:45:00 AM 13.01 55.418 0.245 7.43 5.78 8.59
10/26/2021 1:00:00 AM 12.99 55.382 0.244 7.46 5.54 8.62
10/26/2021 1:15:00 AM 12.97 55.346 0.244 7.46 6.14 8.61
10/26/2021 1:30:00 AM 12.95 55.31 0.242 7.46 6.11 8.6
10/26/2021 1:45:00 AM 12.92 55.256 0.242 7.46 5.23 8.59
10/26/2021 2:00:00 AM 12.91 55.238 0.246 7.42 6.3 8.6
10/26/2021 2:15:00 AM 12.88 55.184 0.248 7.45 6.6 8.58
10/26/2021 2:30:00 AM 12.86 55.148 0.149 7.42 6.51 8.58
10/26/2021 2:45:00 AM 12.85 55.13 0.249 7.42 5.63 8.56
10/26/2021 3:00:00 AM 12.83 55.094 0.14 7.43 6.79 8.54
10/26/2021 3:15:00 AM 12.82 55.076 0.246 7.43 6.33 8.55
10/26/2021 3:30:00 AM 12.81 55.058 0.242 7.43 5.35 8.53
10/26/2021 3:45:00 AM 12.8 55.04 0.243 7.43 5.85 8.53
10/26/2021 4:00:00 AM 12.79 55.022 0.248 7.43 7.38 8.54
10/26/2021 4:15:00 AM 12.78 55.004 0.249 7.43 6.66 8.52
10/26/2021 4:30:00 AM 12.77 54.986 0.25 7.42 5.6 8.5
10/26/2021 4:45:00 AM 12.76 54.968 0.25 7.43 6.48 8.52
10/26/2021 5:00:00 AM 12.76 54.968 0.244 7.44 5.71 8.55
10/26/2021 5:15:00 AM 12.76 54.968 0.256 7.44 5.74 8.52
10/26/2021 5:30:00 AM 12.76 54.968 0.253 7.42 6.31 8.55
10/26/2021 5:45:00 AM 12.75 54.95 0.246 7.43 6.19 8.54
10/26/2021 6:00:00 AM 12.75 54.95 0.243 7.44 7.08 8.56
10/26/2021 6:15:00 AM 12.75 54.95 0.241 7.43 9.09 8.56
10/26/2021 6:30:00 AM 12.75 54.95 0.223 7.43 7.77 8.58
10/26/2021 6:45:00 AM 12.75 54.95 0.241 7.43 6.5 8.6
10/26/2021 7:00:00 AM 12.74 54.932 0.24 7.43 6.28 8.61
10/26/2021 7:15:00 AM 12.74 54.932 0.241 7.42 8.92 8.61
10/26/2021 7:30:00 AM 12.73 54.914 0.237 7.43 6.7 8.62
10/26/2021 7:45:00 AM 12.72 54.896 0.244 7.42 7.68 8.59
10/26/2021 8:00:00 AM 12.72 54.896 0.242 7.4 10.95 8.6
10/26/2021 8:15:00 AM 12.71 54.878 0.241 7.4 7.46 8.61
10/26/2021 8:30:00 AM 12.7 54.86 0.247 7.4 7.97 8.6
10/26/2021 8:45:00 AM 12.71 54.878 0.257 7.4 8.03 8.65
10/26/2021 9:00:00 AM 12.71 54.878 0.266 7.4 10.9 8.74
10/26/2021 9:15:00 AM 12.71 54.878 0.261 7.41 14.34 8.82
10/26/2021 9:30:00 AM 12.71 54.878 0.24 7.41 19.46 8.96
10/26/2021 9:45:00 AM 12.7 54.86 0.217 7.4 58.41 9.03
10/26/2021 10:00:00 AM 12.68 54.824 0.188 7.39 38.86 9.08
10/26/2021 10:15:00 AM 12.64 54.752 0.158 7.33 70.06 9.09
10/26/2021 10:30:00 AM 12.63 54.734 0.132 7.28 11.81 9.25
10/26/2021 10:45:00 AM 12.61 54.698 0.118 7.22 111.5 9.24
10/26/2021 11:00:00 AM 12.59 54.662 0.11 7.18 124.52 9.26
10/26/2021 11:15:00 AM 12.57 54.626 0.104 7.14 131.98 9.28
10/26/2021 11:30:00 AM 12.56 54.608 0.095 7.07 129.93 9.3
10/26/2021 11:45:00 AM 12.54 54.572 0.093 7.08 135.45 9.3
10/26/2021 12:00:00 PM 12.52 54.536 0.101 6.98 290.97 9.25
10/26/2021 12:15:00 PM 12.5 54.5 0.091 7.09 142.89 9.29
10/26/2021 12:30:00 PM 12.49 54.482 0.087 7.05 126.82 9.33
10/26/2021 12:45:00 PM 12.48 54.464 0.093 7.03 90.79 9.34
10/26/2021 1:00:00 PM 12.48 54.464 0.091 7.02 98.35 9.33
10/26/2021 1:15:00 PM 12.47 54.446 0.089 7.04 91.54 9.33
10/26/2021 1:30:00 PM 12.45 54.41 0.087 7.02 74.45 9.31
10/26/2021 1:45:00 PM 12.44 54.392 0.086 6.99 107.75 9.31
10/26/2021 2:00:00 PM 12.42 54.356 0.084 7.03 265.03 9.3
10/26/2021 2:15:00 PM 12.4 54.32 0.087 7.01 101.89 9.3
10/26/2021 2:30:00 PM 12.38 54.284 0.085 7.01 112.5 9.3
10/26/2021 2:45:00 PM 12.36 54.248 0.085 6.98 83.79 9.3
10/26/2021 3:00:00 PM 12.34 54.212 0.084 7 75.95 9.29
10/26/2021 3:15:00 PM 12.31 54.158 0.084 6.96 62.72 9.28
10/26/2021 3:30:00 PM 12.29 54.122 0.086 6.93 122.4 9.29
10/26/2021 3:45:00 PM 12.26 54.068 0.083 6.94 69 9.29
10/26/2021 4:00:00 PM 12.23 54.014 0.084 6.93 61.24 9.29
10/26/2021 4:15:00 PM 12.2 53.96 0.08 6.97 57.21 9.28
10/26/2021 4:30:00 PM 12.17 53.906 0.077 6.9 245.43 9.29
10/26/2021 4:45:00 PM 12.13 53.834 0.078 6.9 66.84 9.29
10/26/2021 5:00:00 PM 12.1 53.78 0.078 6.9 81.51 9.28
10/26/2021 5:15:00 PM 12.06 53.708 0.076 6.9 88.56 9.29
10/26/2021 5:30:00 PM 12.03 53.654 0.074 6.89 77.38 9.29
10/26/2021 5:45:00 PM 11.99 53.582 0.073 6.85 85.17 9.29
10/26/2021 6:00:00 PM 11.96 53.528 0.075 6.84 116.8 9.31
10/26/2021 6:15:00 PM 11.93 53.474 0.068 6.81 115.7 9.3
10/26/2021 6:30:00 PM 11.89 53.402 0.07 6.67 126.13 9.31
10/26/2021 6:45:00 PM 11.86 53.348 0.069 6.8 132.33 9.32
10/26/2021 7:00:00 PM 11.83 53.294 0.07 6.77 122.02 9.3
10/26/2021 7:15:00 PM 11.8 53.24 0.067 6.75 120.49 9.29
10/26/2021 7:30:00 PM 11.77 53.186 0.067 6.76 123.75 9.27
10/26/2021 7:45:00 PM 11.74 53.132 0.07 6.66 120.19 9.26
10/26/2021 8:00:00 PM 11.72 53.096 0.066 6.69 119.19 9.25
10/26/2021 8:15:00 PM 11.71 53.078 0.064 6.75 125.17 9.26
10/26/2021 8:30:00 PM 11.69 53.042 0.064 6.71 180.51 9.26
10/26/2021 8:45:00 PM 11.67 53.006 0.068 6.76 121.56 9.27
10/26/2021 9:00:00 PM 11.66 52.988 0.07 6.75 114.96 9.27
10/26/2021 9:15:00 PM 11.66 52.988 0.067 6.76 156.2 9.25
10/26/2021 9:30:00 PM 11.65 52.97 0.068 6.78 109.74 9.25
10/26/2021 9:45:00 PM 11.65 52.97 0.069 6.79 113.1 9.24
10/26/2021 10:00:00 PM 11.64 52.952 0.069 6.78 117.01 9.22
10/26/2021 10:15:00 PM 11.64 52.952 0.07 6.81 127.05 9.21
10/26/2021 10:30:00 PM 11.64 52.952 0.071 6.8 166.66 9.2
10/26/2021 10:45:00 PM 11.64 52.952 0.072 6.82 147.17 9.19
10/26/2021 11:00:00 PM 11.64 52.952 0.073 6.81 115.75 9.18
10/26/2021 11:15:00 PM 11.63 52.934 0.07 6.81 95.42 9.17
10/26/2021 11:30:00 PM 11.63 52.934 0.073 6.81 140.29 9.16
10/26/2021 11:45:00 PM 11.63 52.934 0.074 6.83 115.05 9.16
10/27/2021 12:00:00 AM 11.63 52.934 0.073 6.83 144.59 9.15
10/27/2021 12:15:00 AM 11.62 52.916 0.075 6.85 101.25 9.14
10/27/2021 12:30:00 AM 11.62 52.916 0.077 6.85 122.32 9.13
10/27/2021 12:45:00 AM 11.62 52.916 0.077 6.86 111.18 9.13
10/27/2021 1:00:00 AM 11.62 52.916 0.079 6.8 126.01 9.11
10/27/2021 1:15:00 AM 11.61 52.898 0.079 6.89 85.18 9.1
10/27/2021 1:30:00 AM 11.61 52.898 0.081 6.85 102.05 9.09
10/27/2021 1:45:00 AM 11.6 52.88 0.082 6.78 73.42 9.08
10/27/2021 2:00:00 AM 11.6 52.88 0.078 6.89 57.16 9.08
10/27/2021 2:15:00 AM 11.6 52.88 0.082 6.89 94.13 9.09
10/27/2021 2:30:00 AM 11.6 52.88 0.077 6.88 98.28 9.09
10/27/2021 2:45:00 AM 11.59 52.862 0.083 6.92 134.32 9.09
10/27/2021 3:00:00 AM 11.59 52.862 0.085 6.92 79.92 9.1
10/27/2021 3:15:00 AM 11.58 52.844 0.084 6.92 129.39 9.11
10/27/2021 3:30:00 AM 11.58 52.844 0.077 6.91 12.47 9.1
10/27/2021 3:45:00 AM 11.58 52.844 0.08 6.92 32.31 9.11
10/27/2021 4:00:00 AM 11.57 52.826 0.085 6.93 66.66 9.12
10/27/2021 4:15:00 AM 11.57 52.826 0.086 6.93 62.96 9.11
10/27/2021 4:30:00 AM 11.56 52.808 0.089 6.89 96.97 9.11
10/27/2021 4:45:00 AM 11.56 52.808 0.088 6.94 58.92 9.1
10/27/2021 5:00:00 AM 11.55 52.79 0.089 6.95 53.82 9.12
10/27/2021 5:15:00 AM 11.54 52.772 0.089 6.96 65.43 9.12
10/27/2021 5:30:00 AM 11.53 52.754 0.09 6.93 59.13 9.12
10/27/2021 5:45:00 AM 11.52 52.736 0.094 6.95 50.35 9.13
10/27/2021 6:00:00 AM 11.51 52.718 0.093 6.95 39.7 9.14
10/27/2021 6:15:00 AM 11.5 52.7 0.099 6.94 41.14 9.14
10/27/2021 6:30:00 AM 11.49 52.682 0.095 6.97 40.9 9.14
10/27/2021 6:45:00 AM 11.48 52.664 0.097 6.98 44.65 9.15
10/27/2021 7:00:00 AM 11.47 52.646 0.096 6.95 54.97 9.15
10/27/2021 7:15:00 AM 11.46 52.628 0.096 6.97 51.32 9.15
10/27/2021 7:30:00 AM 11.44 52.592 0.099 6.95 57.53 9.15
10/27/2021 7:45:00 AM 11.43 52.574 0.101 6.98 49.64 9.16
10/27/2021 8:00:00 AM 11.42 52.556 0.1 6.96 44.87 9.15
10/27/2021 8:15:00 AM 11.4 52.52 0.101 7 46.39 9.17
10/27/2021 8:30:00 AM 11.38 52.484 0.104 6.99 33.52 9.17
10/27/2021 8:45:00 AM 11.36 52.448 0.106 7.01 35.47 9.18
10/27/2021 9:00:00 AM 11.35 52.43 0.092 7.02 36.22 9.17
10/27/2021 9:15:00 AM 11.33 52.394 0.106 7.02 32.61 9.18
10/27/2021 9:30:00 AM 11.32 52.376 0.108 6.93 41.17 9.18
10/27/2021 9:45:00 AM 11.31 52.358 0.109 6.99 38.98 9.19
10/27/2021 10:00:00 AM 11.3 52.34 0.114 7.03 40.54 9.2
10/27/2021 10:15:00 AM 11.29 52.322 0.107 7 10.56 9.22
10/27/2021 10:30:00 AM 11.29 52.322 0.117 7.02 34.41 9.22
10/27/2021 10:45:00 AM 11.29 52.322 0.119 7.05 37.39 9.23
10/27/2021 11:00:00 AM 11.3 52.34 0.11 7.07 31.62 9.24
10/27/2021 11:15:00 AM 11.31 52.358 0.102 7.05 51.68 9.25
10/27/2021 11:30:00 AM 11.33 52.394 0.115 7.08 34.51 9.26
10/27/2021 11:45:00 AM 11.35 52.43 0.103 7.08 29.67 9.27
10/27/2021 12:00:00 PM 11.37 52.466 0.105 7.05 35.46 9.27
10/27/2021 12:15:00 PM 11.41 52.538 0.107 7.1 35.36 9.29
10/27/2021 12:30:00 PM 11.45 52.61 0.108 7.06 30.27 9.31
10/27/2021 12:45:00 PM 11.49 52.682 0.109 7.09 29.15 9.31
10/27/2021 1:00:00 PM 11.54 52.772 0.109 7.12 30.37 9.31
10/27/2021 1:15:00 PM 11.59 52.862 0.107 7.13 48.42 9.32
10/27/2021 1:30:00 PM 11.65 52.97 0.113 7.15 35.34 9.32
10/27/2021 1:45:00 PM 11.71 53.078 0.115 7.13 32.1 9.33
10/27/2021 2:00:00 PM 11.76 53.168 0.117 7.16 26.35 9.34
10/27/2021 2:15:00 PM 11.82 53.276 0.121 7.16 29.02 9.34
10/27/2021 2:30:00 PM 11.88 53.384 0.118 7.17 25.54 9.35
10/27/2021 2:45:00 PM 11.94 53.492 0.124 7.18 38.51 9.36
10/27/2021 3:00:00 PM 11.99 53.582 0.131 7.17 29.02 9.35
10/27/2021 3:15:00 PM 12.04 53.672 0.134 7.18 25.31 9.35
10/27/2021 3:30:00 PM 12.09 53.762 0.135 7.18 45.68 9.35
10/27/2021 3:45:00 PM 12.13 53.834 0.146 7.2 27.16 9.34
10/27/2021 4:00:00 PM 12.16 53.888 0.118 7.17 25.43 9.34
10/27/2021 4:15:00 PM 12.18 53.924 0.136 7.2 29.39 9.34
10/27/2021 4:30:00 PM 12.19 53.942 0.126 7.17 27.67 9.32
10/27/2021 4:45:00 PM 12.19 53.942 0.135 7.17 27.32 9.32
10/27/2021 5:00:00 PM 12.19 53.942 0.132 7.2 27.53 9.32
10/27/2021 5:15:00 PM 12.17 53.906 0.148 7.21 30.57 9.31
10/27/2021 5:30:00 PM 12.16 53.888 0.142 7.19 29.94 9.3
10/27/2021 5:45:00 PM 12.14 53.852 0.15 7.2 24.56 9.29
10/27/2021 6:00:00 PM 12.11 53.798 0.154 7.2 26.45 9.28
10/27/2021 6:15:00 PM 12.08 53.744 0.133 7.21 27.82 9.26
10/27/2021 6:30:00 PM 12.04 53.672 0.153 7.22 34.48 9.26
10/27/2021 6:45:00 PM 12.01 53.618 0.15 7.22 25.48 9.25
10/27/2021 7:00:00 PM 11.97 53.546 0.148 7.19 26.07 9.24
10/27/2021 7:15:00 PM 11.93 53.474 0.158 7.21 23.8 9.22
10/27/2021 7:30:00 PM 11.88 53.384 0.153 7.21 24.1 9.23
10/27/2021 7:45:00 PM 11.83 53.294 0.154 7.19 26.16 9.23
10/27/2021 8:00:00 PM 11.78 53.204 0.154 7.14 33.1 9.22
10/27/2021 8:15:00 PM 11.73 53.114 0.162 7.21 22.88 9.21
10/27/2021 8:30:00 PM 11.68 53.024 0.138 7.22 22.46 9.22
10/27/2021 8:45:00 PM 11.63 52.934 0.158 7.21 23.58 9.22
10/27/2021 9:00:00 PM 11.57 52.826 0.162 7.19 25.47 9.23
10/27/2021 9:15:00 PM 11.52 52.736 0.168 7.23 24.81 9.22
10/27/2021 9:30:00 PM 11.46 52.628 0.165 7.19 36.05 9.22
10/27/2021 9:45:00 PM 11.41 52.538 0.166 7.21 19.42 9.24
10/27/2021 10:00:00 PM 11.35 52.43 0.144 7.11 25.12 9.24
10/27/2021 10:15:00 PM 11.3 52.34 0.162 7.2 27.89 9.24
10/27/2021 10:30:00 PM 11.25 52.25 0.166 7.21 22.55 9.27
10/27/2021 10:45:00 PM 11.2 52.16 0.165 7.21 23.03 9.27
10/27/2021 11:00:00 PM 11.14 52.052 0.165 7.21 18.51 9.27
10/27/2021 11:15:00 PM 11.09 51.962 0.161 7.21 25.15 9.29
10/27/2021 11:30:00 PM 11.04 51.872 0.09 7.19 23.86 9.29
10/27/2021 11:45:00 PM 10.99 51.782 0.162 7.2 25.04 9.3
10/28/2021 12:00:00 AM 10.94 51.692 0.169 7.19 22.85 9.31
10/28/2021 12:15:00 AM 10.89 51.602 0.173 7.19 22.98 9.31
10/28/2021 12:30:00 AM 10.84 51.512 0.167 7.21 21.64 9.34
10/28/2021 12:45:00 AM 10.79 51.422 0.169 7.2 21.77 9.37
10/28/2021 1:00:00 AM 10.74 51.332 0.172 7.2 22.26 9.37
10/28/2021 1:15:00 AM 10.68 51.224 0.163 7.19 21.85 9.37
10/28/2021 1:30:00 AM 10.64 51.152 0.168 7.22 16.02 9.38
10/28/2021 1:45:00 AM 10.58 51.044 0.174 7.21 22.87 9.4
10/28/2021 2:00:00 AM 10.53 50.954 0.172 7.2 24.04 9.4
10/28/2021 2:15:00 AM 10.49 50.882 0.177 7.19 21.79 9.41
10/28/2021 2:30:00 AM 10.44 50.792 0.176 7.21 23.07 9.42
10/28/2021 2:45:00 AM 10.39 50.702 0.173 7.19 27.33 9.42
10/28/2021 3:00:00 AM 10.34 50.612 0.177 7.19 21.85 9.45
10/28/2021 3:15:00 AM 10.3 50.54 0.177 7.19 22.84 9.45
10/28/2021 3:30:00 AM 10.26 50.468 0.178 7.19 21.6 9.46
10/28/2021 3:45:00 AM 10.21 50.378 0.179 7.19 20.98 9.47
10/28/2021 4:00:00 AM 10.17 50.306 0.183 7.19 21.47 9.47
10/28/2021 4:15:00 AM 10.12 50.216 0.18 7.19 19.28 9.48
10/28/2021 4:30:00 AM 10.08 50.144 0.181 7.2 20.9 9.49
10/28/2021 4:45:00 AM 10.04 50.072 0.183 7.23 16.27 9.51
10/28/2021 5:00:00 AM 10.01 50.018 0.182 7.22 20.54 9.49
10/28/2021 5:15:00 AM 9.98 49.964 0.187 7.21 19.92 9.51
10/28/2021 5:30:00 AM 9.94 49.892 0.181 7.23 20.42 9.54
10/28/2021 5:45:00 AM 9.89 49.802 0.184 7.22 20.82 9.57
10/28/2021 6:00:00 AM 9.85 49.73 0.183 7.19 22.9 9.59
10/28/2021 6:15:00 AM 9.81 49.658 0.182 7.24 18.78 9.57
10/28/2021 6:30:00 AM 9.79 49.622 0.169 7.24 20.21 9.56
10/28/2021 6:45:00 AM 9.74 49.532 0.168 7.23 19.72 9.59
10/28/2021 7:00:00 AM 9.69 49.442 0.165 7.24 19.78 9.61
10/28/2021 7:15:00 AM 9.67 49.406 0.172 7.17 17.1 9.57
10/28/2021 7:30:00 AM 9.62 49.316 0.189 7.22 19.46 9.6
10/28/2021 7:45:00 AM 9.58 49.244 0.188 7.22 21.55 9.64
10/28/2021 8:00:00 AM 9.55 49.19 0.17 7.24 20.53 9.63
10/28/2021 8:15:00 AM 9.53 49.154 0.182 7.23 20.32 9.64
10/28/2021 8:30:00 AM 9.49 49.082 0.171 7.24 19 9.65
10/28/2021 8:45:00 AM 9.48 49.064 0.192 7.24 18.1 9.67
10/28/2021 9:00:00 AM 9.46 49.028 0.175 7.25 22.69 9.67
10/28/2021 9:15:00 AM 9.47 49.046 0.189 7.24 17.98 9.67
10/28/2021 9:30:00 AM 9.46 49.028 0.184 7.21 5.7 9.7
10/28/2021 9:45:00 AM 9.44 48.992 0.189 7.27 18 9.74
10/28/2021 10:00:00 AM 9.47 49.046 0.197 7.26 17.9 9.7
10/28/2021 10:15:00 AM 9.45 49.01 0.175 7.27 18.37 9.8
10/28/2021 10:30:00 AM 9.47 49.046 0.176 7.27 15.85 9.8
10/28/2021 10:45:00 AM 9.52 49.136 0.204 7.26 17.63 9.76
10/28/2021 11:00:00 AM 9.54 49.172 0.196 7.28 17.41 9.87
10/28/2021 11:15:00 AM 9.59 49.262 0.18 7.28 16.95 9.9
10/28/2021 11:30:00 AM 9.66 49.388 0.193 7.3 16.15 9.89
10/28/2021 11:45:00 AM 9.75 49.55 0.2 7.29 16.91 9.86
10/28/2021 12:00:00 PM 9.82 49.676 0.176 7.3 15.99 9.92
10/28/2021 12:15:00 PM 9.91 49.838 0.194 7.32 16.04 9.92
10/28/2021 12:30:00 PM 10 50 0.197 7.32 14.82 9.95
10/28/2021 12:45:00 PM 10.09 50.162 0.196 7.33 16.14 9.96
10/28/2021 1:00:00 PM 10.19 50.342 0.186 7.34 15.46 9.97
10/28/2021 1:15:00 PM 10.27 50.486 0.184 7.34 15.62 9.99
10/28/2021 1:30:00 PM 10.37 50.666 0.203 7.32 15.82 9.97
10/28/2021 1:45:00 PM 10.46 50.828 0.208 7.28 15.3 9.93
10/28/2021 2:00:00 PM 10.55 50.99 0.189 7.35 14.74 9.95
10/28/2021 2:15:00 PM 10.64 51.152 0.185 7.36 14.33 9.96
10/28/2021 2:30:00 PM 10.73 51.314 0.204 7.35 14.48 9.92
10/28/2021 2:45:00 PM 10.82 51.476 0.2 7.36 14.44 9.96
10/28/2021 3:00:00 PM 10.9 51.62 0.204 7.38 15.63 9.94
10/28/2021 3:15:00 PM 10.99 51.782 0.189 7.37 17.1 9.91
10/28/2021 3:30:00 PM 11.06 51.908 0.198 7.35 16.17 9.84
10/28/2021 3:45:00 PM 11.13 52.034 0.199 7.36 15.89 9.79
10/28/2021 4:00:00 PM 11.19 52.142 0.199 7.35 15.1 9.81
10/28/2021 4:15:00 PM 11.25 52.25 0.2 7.36 15.14 9.72
10/28/2021 4:30:00 PM 11.29 52.322 0.122 7.36 16.12 9.76
10/28/2021 4:45:00 PM 11.31 52.358 0.197 7.35 14.12 9.66
10/28/2021 5:00:00 PM 11.33 52.394 0.183 7.37 14.73 9.74
10/28/2021 5:15:00 PM 11.34 52.412 0.19 7.36 13.82 9.64
10/28/2021 5:30:00 PM 11.35 52.43 0.192 7.35 14.88 9.66
10/28/2021 5:45:00 PM 11.35 52.43 0.187 7.36 15.34 9.58
10/28/2021 6:00:00 PM 11.35 52.43 0.188 7.33 14.08 9.49
10/28/2021 6:15:00 PM 11.34 52.412 0.192 7.35 15.12 9.55
10/28/2021 6:30:00 PM 11.32 52.376 0.184 7.36 15.32 9.55
10/28/2021 6:45:00 PM 11.3 52.34 0.193 7.35 15.92 9.52
10/28/2021 7:00:00 PM 11.28 52.304 0.206 7.32 13.89 9.45
10/28/2021 7:15:00 PM 11.26 52.268 0.178 7.34 26.5 9.43
10/28/2021 7:30:00 PM 11.24 52.232 0.217 7.34 13.96 9.41
10/28/2021 7:45:00 PM 11.21 52.178 0.182 7.34 14.22 9.43
10/28/2021 8:00:00 PM 11.18 52.124 0.21 7.36 15.52 9.45
10/28/2021 8:15:00 PM 11.15 52.07 0.211 7.35 15.1 9.42
10/28/2021 8:30:00 PM 11.11 51.998 0.212 7.36 17.21 9.41
10/28/2021 8:45:00 PM 11.07 51.926 0.207 7.36 14.12 9.41
10/28/2021 9:00:00 PM 11.03 51.854 0.148 7.35 14.82 9.39
10/28/2021 9:15:00 PM 10.98 51.764 0.212 7.33 14.75 9.38
10/28/2021 9:30:00 PM 10.93 51.674 0.208 7.34 14.39 9.4
10/28/2021 9:45:00 PM 10.89 51.602 0.203 7.34 14.15 9.4
10/28/2021 10:00:00 PM 10.84 51.512 0.203 7.33 14.53 9.36
10/28/2021 10:15:00 PM 10.79 51.422 0.208 7.31 16.4 9.35
10/28/2021 10:30:00 PM 10.74 51.332 0.203 7.34 15.29 9.38
10/28/2021 10:45:00 PM 10.7 51.26 0.21 7.34 14.1 9.39
10/28/2021 11:00:00 PM 10.65 51.17 0.213 7.32 14.2 9.4
10/28/2021 11:15:00 PM 10.61 51.098 0.214 7.34 13.79 9.41
10/28/2021 11:30:00 PM 10.57 51.026 0.215 7.33 14.19 9.41
10/28/2021 11:45:00 PM 10.53 50.954 0.197 7.32 13.49 9.42
10/29/2021 12:00:00 AM 10.48 50.864 0.215 7.34 13.63 9.43
10/29/2021 12:15:00 AM 10.45 50.81 0.22 7.33 13.23 9.44
10/29/2021 12:30:00 AM 10.41 50.738 0.213 7.33 13.33 9.43
10/29/2021 12:45:00 AM 10.38 50.684 0.216 7.34 13.12 9.44
10/29/2021 1:00:00 AM 10.35 50.63 0.203 7.33 13.64 9.42
10/29/2021 1:15:00 AM 10.33 50.594 0.219 7.33 13.13 9.46
10/29/2021 1:30:00 AM 10.32 50.576 0.219 7.32 13.24 9.44
10/29/2021 1:45:00 AM 10.3 50.54 0.218 7.31 13.51 9.46
10/29/2021 2:00:00 AM 10.29 50.522 0.217 7.33 13.66 9.46
10/29/2021 2:15:00 AM 10.29 50.522 0.221 7.32 13.61 9.46
10/29/2021 2:30:00 AM 10.29 50.522 0.218 7.33 11.56 9.44
10/29/2021 2:45:00 AM 10.29 50.522 0.215 7.33 13.51 9.47
10/29/2021 3:00:00 AM 10.29 50.522 0.194 7.35 12.85 9.47
10/29/2021 3:15:00 AM 10.29 50.522 0.2 7.35 14.46 9.47
10/29/2021 3:30:00 AM 10.3 50.54 0.212 7.34 13.92 9.46
10/29/2021 3:45:00 AM 10.29 50.522 0.217 7.35 12.24 9.45
10/29/2021 4:00:00 AM 10.3 50.54 0.208 7.34 12.5 9.42
10/29/2021 4:15:00 AM 10.28 50.504 0.204 7.34 13.24 9.45
10/29/2021 4:30:00 AM 10.27 50.486 0.219 7.33 13.89 9.46
10/29/2021 4:45:00 AM 10.26 50.468 0.204 7.34 13.48 9.46
10/29/2021 5:00:00 AM 10.25 50.45 0.207 7.34 12.99 9.45
10/29/2021 5:15:00 AM 10.24 50.432 0.21 7.35 13.42 9.44
10/29/2021 5:30:00 AM 10.23 50.414 0.207 7.35 12.05 9.45
10/29/2021 5:45:00 AM 10.22 50.396 0.202 7.35 13.76 9.44
10/29/2021 6:00:00 AM 10.21 50.378 0.209 7.35 12.15 9.47
10/29/2021 6:15:00 AM 10.2 50.36 0.194 7.35 11.93 9.45
10/29/2021 6:30:00 AM 10.19 50.342 0.222 7.35 12.86 9.46
10/29/2021 6:45:00 AM 10.19 50.342 0.224 7.35 12.84 9.47
10/29/2021 7:00:00 AM 10.2 50.36 0.222 7.34 10.57 9.39
10/29/2021 7:15:00 AM 10.2 50.36 0.223 7.35 12.19 9.32
10/29/2021 7:30:00 AM 10.19 50.342 0.231 7.35 11.01 9.39
10/29/2021 7:45:00 AM 10.2 50.36 0.23 7.32 11.59 9.27
10/29/2021 8:00:00 AM 10.2 50.36 0.229 7.32 11.61 9.31
10/29/2021 8:15:00 AM 10.2 50.36 0.235 7.31 11.08 9.33
10/29/2021 8:30:00 AM 10.21 50.378 0.236 7.32 12.32 9.32
10/29/2021 8:45:00 AM 10.21 50.378 0.21 7.33 11.05 9.31
10/29/2021 9:00:00 AM 10.2 50.36 0.242 7.34 10.38 9.36
10/29/2021 9:15:00 AM 10.22 50.396 0.236 7.39 11.43 9.31
10/29/2021 9:30:00 AM 10.23 50.414 0.241 7.34 10.92 9.43
10/29/2021 9:45:00 AM 10.23 50.414 0.241 7.36 10.82 9.42
10/29/2021 10:00:00 AM 10.27 50.486 0.24 7.34 9.45 9.37
10/29/2021 10:15:00 AM 10.29 50.522 0.252 7.32 9.03 9.38
10/29/2021 10:30:00 AM 10.32 50.576 0.248 7.34 10.17 9.38
10/29/2021 10:45:00 AM 10.32 50.576 0.238 7.36 9.45 9.49
10/29/2021 11:00:00 AM 10.36 50.648 0.235 7.36 8.97 9.5
10/29/2021 11:15:00 AM 10.38 50.684 0.16 7.37 9.21 9.56
10/29/2021 11:30:00 AM 10.41 50.738 0.213 7.34 9.18 9.56
10/29/2021 11:45:00 AM 10.5 50.9 0.249 7.35 9.33 9.5
10/29/2021 12:00:00 PM 10.55 50.99 0.225 7.39 9.03 9.73
10/29/2021 12:15:00 PM 10.6 51.08 0.231 7.41 8.61 9.83
10/29/2021 12:30:00 PM 10.65 51.17 0.228 7.44 8.58 9.86
10/29/2021 12:45:00 PM 10.69 51.242 0.245 7.43 8.79 9.96
10/29/2021 1:00:00 PM 10.72 51.296 0.246 7.43 8.05 9.9
10/29/2021 1:15:00 PM 10.76 51.368 0.248 7.46 7.89 10.01
10/29/2021 1:30:00 PM 10.85 51.53 0.242 7.45 7.67 10
10/29/2021 1:45:00 PM 10.9 51.62 0.245 7.45 7.72 10.02
10/29/2021 2:00:00 PM 10.97 51.746 0.227 7.45 8.39 10.01
10/29/2021 2:15:00 PM 11.03 51.854 0.241 7.47 8.22 10.05
10/29/2021 2:30:00 PM 11.06 51.908 0.252 7.46 8.65 10.02
10/29/2021 2:45:00 PM 11.07 51.926 0.235 7.47 7.77 9.99
10/29/2021 3:00:00 PM 11.07 51.926 0.238 7.47 8.35 10
10/29/2021 3:15:00 PM 11.07 51.926 0.251 7.47 8.24 9.93
10/29/2021 3:30:00 PM 11.09 51.962 0.244 7.46 9.12 9.93
10/29/2021 3:45:00 PM 11.11 51.998 0.247 7.48 7.89 9.89
10/29/2021 4:00:00 PM 11.14 52.052 0.244 7.48 7.6 9.86
10/29/2021 4:15:00 PM 11.15 52.07 0.249 7.49 8.11 9.82
10/29/2021 4:30:00 PM 11.15 52.07 0.254 7.48 8.21 9.76
10/29/2021 4:45:00 PM 11.14 52.052 0.254 7.47 7.86 9.73
10/29/2021 5:00:00 PM 11.12 52.016 0.24 7.47 8.4 9.7
10/29/2021 5:15:00 PM 11.1 51.98 0.259 7.46 8.28 9.67
10/29/2021 5:30:00 PM 11.09 51.962 0.25 7.47 8.79 9.62
10/29/2021 5:45:00 PM 11.08 51.944 0.202 7.45 8.37 9.6
10/29/2021 6:00:00 PM 11.07 51.926 0.243 7.46 8.11 9.55
10/29/2021 6:15:00 PM 11.07 51.926 0.25 7.45 7.49 9.47
10/29/2021 6:30:00 PM 11.06 51.908 0.235 7.43 7.8 9.43
10/29/2021 6:45:00 PM 11.06 51.908 0.258 7.44 8.23 9.43
10/29/2021 7:00:00 PM 11.05 51.89 0.239 7.42 8.36 9.38
10/29/2021 7:15:00 PM 11.04 51.872 0.258 7.43 8.59 9.37
10/29/2021 7:30:00 PM 11.03 51.854 0.249 7.41 8.35 9.37
10/29/2021 7:45:00 PM 11.01 51.818 0.262 7.39 8.21 9.33
10/29/2021 8:00:00 PM 10.99 51.782 0.245 7.44 8.56 9.32
10/29/2021 8:15:00 PM 10.98 51.764 0.25 7.42 8.36 9.31
10/29/2021 8:30:00 PM 10.96 51.728 0.266 7.41 8.4 9.27
10/29/2021 8:45:00 PM 10.94 51.692 0.247 7.4 9.26 9.25
10/29/2021 9:00:00 PM 10.91 51.638 0.258 7.42 8.67 9.27
10/29/2021 9:15:00 PM 10.89 51.602 0.225 7.4 8.57 9.29
10/29/2021 9:30:00 PM 10.86 51.548 0.264 7.41 9.33 9.25
10/29/2021 9:45:00 PM 10.83 51.494 0.255 7.4 9.3 9.27
10/29/2021 10:00:00 PM 10.78 51.404 0.261 7.41 11.31 9.33
10/29/2021 10:15:00 PM 10.75 51.35 0.256 7.38 11.24 9.28
10/29/2021 10:30:00 PM 10.72 51.296 0.255 7.39 12 9.3
10/29/2021 10:45:00 PM 10.69 51.242 0.256 7.39 12.18 9.3
10/29/2021 11:00:00 PM 10.66 51.188 0.258 7.38 11.82 9.26
10/29/2021 11:15:00 PM 10.62 51.116 0.257 7.36 13.07 9.31
10/29/2021 11:30:00 PM 10.59 51.062 0.265 7.36 12.82 9.27
10/29/2021 11:45:00 PM 10.56 51.008 0.272 7.37 12.69 9.34
10/30/2021 12:00:00 AM 10.54 50.972 0.282 7.36 13.09 9.34
10/30/2021 12:15:00 AM 10.53 50.954 0.174 7.36 14.49 9.38
10/30/2021 12:30:00 AM 10.51 50.918 0.279 7.36 14.46 9.37
10/30/2021 12:45:00 AM 10.51 50.918 0.273 7.34 14.24 9.28
10/30/2021 1:00:00 AM 10.49 50.882 0.255 7.31 15.95 9.34
10/30/2021 1:15:00 AM 10.45 50.81 0.228 7.34 19.86 9.45
10/30/2021 1:30:00 AM 10.4 50.72 0.214 7.31 21.17 9.57
10/30/2021 1:45:00 AM 10.35 50.63 0.19 7.32 29.74 9.69
10/30/2021 2:00:00 AM 10.3 50.54 0.166 7.29 31.11 9.8
10/30/2021 2:15:00 AM 10.25 50.45 0.152 7.27 32.04 9.87
10/30/2021 2:30:00 AM 10.2 50.36 0.113 7.21 40.76 9.92
10/30/2021 2:45:00 AM 10.15 50.27 0.127 7.2 40.72 9.98
10/30/2021 3:00:00 AM 10.1 50.18 0.13 7.19 46.45 10.03
10/30/2021 3:15:00 AM 10.06 50.108 0.122 7.14 49.56 10.05
10/30/2021 3:30:00 AM 10.02 50.036 0.114 7.12 54.64 10.08
10/30/2021 3:45:00 AM 9.98 49.964 0.113 7.12 46.73 10.1
10/30/2021 4:00:00 AM 9.96 49.928 0.114 7.1 72.68 10.09
10/30/2021 4:15:00 AM 9.93 49.874 0.11 7.06 59.68 10.09
10/30/2021 4:30:00 AM 9.91 49.838 0.109 7.07 54.22 10.08
10/30/2021 4:45:00 AM 9.9 49.82 0.107 7.05 20.98 10.07
10/30/2021 5:00:00 AM 9.88 49.784 0.085 7.06 49.79 10.06
10/30/2021 5:15:00 AM 9.87 49.766 0.095 7.05 61.42 10.03
10/30/2021 5:30:00 AM 9.85 49.73 0.101 7.04 56.62 10
10/30/2021 5:45:00 AM 9.84 49.712 0.107 7.03 53.04 9.97
10/30/2021 6:00:00 AM 9.83 49.694 0.088 7.04 43.09 9.94
10/30/2021 6:15:00 AM 9.82 49.676 0.101 7.05 48.82 9.91
10/30/2021 6:30:00 AM 9.82 49.676 0.115 7.05 48.05 9.86
10/30/2021 6:45:00 AM 9.82 49.676 0.115 7.06 41.52 9.82
10/30/2021 7:00:00 AM 9.82 49.676 0.099 7.05 37.68 9.76
10/30/2021 7:15:00 AM 9.82 49.676 0.115 7 49.86 9.74
10/30/2021 7:30:00 AM 9.82 49.676 0.125 7.07 35.49 9.7
10/30/2021 7:45:00 AM 9.83 49.694 0.119 7.07 36.86 9.67
10/30/2021 8:00:00 AM 9.83 49.694 0.118 7.06 37.91 9.66
10/30/2021 8:15:00 AM 9.84 49.712 0.109 7.06 32.97 9.64
10/30/2021 8:30:00 AM 9.84 49.712 0.127 7.05 43.34 9.63
10/30/2021 8:45:00 AM 9.85 49.73 0.132 7.07 40.6 9.62
10/30/2021 9:00:00 AM 9.86 49.748 0.117 7.07 33.43 9.61
10/30/2021 9:15:00 AM 9.87 49.766 0.115 7.08 25.88 9.61
10/30/2021 9:30:00 AM 9.88 49.784 0.127 7.08 22.05 9.61
10/30/2021 9:45:00 AM 9.9 49.82 0.133 7.09 28.84 9.6
10/30/2021 10:00:00 AM 9.92 49.856 0.135 7.1 26.78 9.61
10/30/2021 10:15:00 AM 9.94 49.892 0.135 7.09 33.89 9.6
10/30/2021 10:30:00 AM 9.97 49.946 0.146 7.11 27.18 9.6
10/30/2021 10:45:00 AM 10 50 0.143 7.12 25.69 9.62
10/30/2021 11:00:00 AM 10.03 50.054 0.125 7.13 33.44 9.63
10/30/2021 11:15:00 AM 10.05 50.09 0.136 7.13 24.27 9.64
10/30/2021 11:30:00 AM 10.08 50.144 0.14 7.09 21.92 9.65
10/30/2021 11:45:00 AM 10.11 50.198 0.148 7.13 20.99 9.65
10/30/2021 12:00:00 PM 10.14 50.252 0.144 7.12 22.3 9.66
10/30/2021 12:15:00 PM 10.18 50.324 0.142 7.15 20.65 9.67
10/30/2021 12:30:00 PM 10.21 50.378 0.124 7.14 19.73 9.68
10/30/2021 12:45:00 PM 10.24 50.432 0.143 7.12 19.16 9.69
10/30/2021 1:00:00 PM 10.27 50.486 0.145 7.15 19.02 9.7
10/30/2021 1:15:00 PM 10.3 50.54 0.14 7.13 17.25 9.71
10/30/2021 1:30:00 PM 10.33 50.594 0.145 7.15 15.84 9.71
10/30/2021 1:45:00 PM 10.36 50.648 0.143 7.15 19.72 9.7
10/30/2021 2:00:00 PM 10.39 50.702 0.142 7.18 16 9.7
10/30/2021 2:15:00 PM 10.42 50.756 0.137 7.17 13.31 9.7
10/30/2021 2:30:00 PM 10.45 50.81 0.14 7.17 15.41 9.68
10/30/2021 2:45:00 PM 10.48 50.864 0.149 7.16 14.98 9.69
10/30/2021 3:00:00 PM 10.5 50.9 0.128 7.15 14.92 9.69
10/30/2021 3:15:00 PM 10.53 50.954 0.143 7.18 15.26 9.66
10/30/2021 3:30:00 PM 10.55 50.99 0.129 7.18 14.31 9.67
10/30/2021 3:45:00 PM 10.58 51.044 0.143 7.18 14.74 9.63
10/30/2021 4:00:00 PM 10.59 51.062 0.141 7.17 14.45 9.65
10/30/2021 4:15:00 PM 10.62 51.116 0.15 7.15 13.42 9.63
10/30/2021 4:30:00 PM 10.64 51.152 0.142 7.14 14.48 9.64
10/30/2021 4:45:00 PM 10.66 51.188 0.149 7.18 13.72 9.62
10/30/2021 5:00:00 PM 10.68 51.224 0.129 7.17 13.91 9.59
10/30/2021 5:15:00 PM 10.7 51.26 0.14 7.19 14.35 9.6
10/30/2021 5:30:00 PM 10.72 51.296 0.139 7.18 13.99 9.6
10/30/2021 5:45:00 PM 10.74 51.332 0.134 7.19 13.56 9.57
10/30/2021 6:00:00 PM 10.76 51.368 0.15 7.19 12.84 9.56
10/30/2021 6:15:00 PM 10.77 51.386 0.152 7.08 13.22 9.54
10/30/2021 6:30:00 PM 10.79 51.422 0.158 7.16 13.63 9.51
10/30/2021 6:45:00 PM 10.8 51.44 0.159 7.18 13.28 9.51
10/30/2021 7:00:00 PM 10.81 51.458 0.138 7.19 13.31 9.52
10/30/2021 7:15:00 PM 10.82 51.476 0.154 7.18 13.19 9.49
10/30/2021 7:30:00 PM 10.83 51.494 0.089 7.17 12.56 9.45
10/30/2021 7:45:00 PM 10.83 51.494 0.154 7.14 13.5 9.47
10/30/2021 8:00:00 PM 10.83 51.494 0.166 7.2 12.88 9.45
10/30/2021 8:15:00 PM 10.84 51.512 0.155 7.18 13.06 9.42
10/30/2021 8:30:00 PM 10.84 51.512 0.15 7.2 12.77 9.42
10/30/2021 8:45:00 PM 10.84 51.512 0.155 7.2 12.8 9.41
10/30/2021 9:00:00 PM 10.84 51.512 0.159 7.2 13.16 9.41
10/30/2021 9:15:00 PM 10.84 51.512 0.154 7.2 13.25 9.42
10/30/2021 9:30:00 PM 10.84 51.512 0.151 7.18 12.97 9.37
10/30/2021 9:45:00 PM 10.85 51.53 0.162 7.17 14.3 9.34
10/30/2021 10:00:00 PM 10.84 51.512 0.158 7.18 13.14 9.38
10/30/2021 10:15:00 PM 10.85 51.53 0.164 7.18 12.58 9.37
10/30/2021 10:30:00 PM 10.84 51.512 0.164 7.1 12.91 9.36
10/30/2021 10:45:00 PM 10.84 51.512 0.166 7.18 12.81 9.34
10/30/2021 11:00:00 PM 10.84 51.512 0.164 7.2 12.4 9.31
10/30/2021 11:15:00 PM 10.83 51.494 0.149 7.19 11.86 9.32
10/30/2021 11:30:00 PM 10.82 51.476 0.158 7.21 12.03 9.34
10/30/2021 11:45:00 PM 10.82 51.476 0.149 7.21 12.06 9.32
10/31/2021 12:00:00 AM 10.82 51.476 0.147 7.21 11.92 9.34
10/31/2021 12:15:00 AM 10.81 51.458 0.148 7.2 12.32 9.33
10/31/2021 12:30:00 AM 10.81 51.458 0.156 7.19 11.49 9.31
10/31/2021 12:45:00 AM 10.8 51.44 0.151 7.19 12.07 9.33
10/31/2021 1:00:00 AM 10.79 51.422 0.152 7.19 12.06 9.31
10/31/2021 1:15:00 AM 10.79 51.422 0.149 7.21 12.18 9.32
10/31/2021 1:30:00 AM 10.78 51.404 0.149 7.2 12.13 9.31
10/31/2021 1:45:00 AM 10.78 51.404 0.153 7.22 11.51 9.3
10/31/2021 2:00:00 AM 10.78 51.404 0.162 7.22 11.56 9.32
10/31/2021 2:15:00 AM 10.77 51.386 0.154 7.21 11.57 9.29
10/31/2021 2:30:00 AM 10.77 51.386 0.164 7.2 11.24 9.25
10/31/2021 2:45:00 AM 10.77 51.386 0.173 7.23 11.26 9.27
10/31/2021 3:00:00 AM 10.76 51.368 0.17 7.23 10.96 9.28
10/31/2021 3:15:00 AM 10.76 51.368 0.169 7.23 11.06 9.27
10/31/2021 3:30:00 AM 10.75 51.35 0.17 7.21 11.27 9.26
10/31/2021 3:45:00 AM 10.74 51.332 0.173 7.22 10.93 9.27
10/31/2021 4:00:00 AM 10.73 51.314 0.178 7.17 11.08 9.26
10/31/2021 4:15:00 AM 10.73 51.314 0.183 7.22 10.65 9.25
10/31/2021 4:30:00 AM 10.73 51.314 0.187 7.24 10.72 9.26
10/31/2021 4:45:00 AM 10.72 51.296 0.167 7.24 10.41 9.27
10/31/2021 5:00:00 AM 10.71 51.278 0.18 7.24 10.8 9.27
10/31/2021 5:15:00 AM 10.7 51.26 0.183 7.24 10.32 9.28
10/31/2021 5:30:00 AM 10.69 51.242 0.177 7.25 10.74 9.29
10/31/2021 5:45:00 AM 10.69 51.242 0.169 7.25 10.73 9.24
10/31/2021 6:00:00 AM 10.68 51.224 0.192 7.25 11.08 9.25
10/31/2021 6:15:00 AM 10.67 51.206 0.185 7.25 10.54 9.27
10/31/2021 6:30:00 AM 10.67 51.206 0.193 7.25 10.53 9.25
10/31/2021 6:45:00 AM 10.66 51.188 0.18 7.25 10.02 9.24
10/31/2021 7:00:00 AM 10.64 51.152 0.176 7.23 10.58 9.24
10/31/2021 7:15:00 AM 10.63 51.134 0.175 7.27 10.78 9.28
10/31/2021 7:30:00 AM 10.62 51.116 0.183 7.25 10.49 9.26
10/31/2021 7:45:00 AM 10.61 51.098 0.192 7.25 9.99 9.27
10/31/2021 8:00:00 AM 10.6 51.08 0.177 7.23 11.11 9.24
10/31/2021 8:15:00 AM 10.59 51.062 0.182 7.27 10.69 9.28
10/31/2021 8:30:00 AM 10.59 51.062 0.178 7.27 9.62 9.28
10/31/2021 8:45:00 AM 10.59 51.062 0.176 7.27 9.68 9.27
10/31/2021 9:00:00 AM 10.58 51.044 0.174 7.25 9.84 9.29
10/31/2021 9:15:00 AM 10.58 51.044 0.189 7.27 9.94 9.32
10/31/2021 9:30:00 AM 10.58 51.044 0.184 7.28 9.31 9.33
10/31/2021 9:45:00 AM 10.59 51.062 0.179 7.28 9.38 9.32
10/31/2021 10:00:00 AM 10.6 51.08 0.182 7.28 8.66 9.33
10/31/2021 10:15:00 AM 10.61 51.098 0.187 7.28 8.6 9.33
10/31/2021 10:30:00 AM 10.62 51.116 0.178 7.28 8.9 9.37
10/31/2021 10:45:00 AM 10.64 51.152 0.188 7.26 9.65 9.38
10/31/2021 11:00:00 AM 10.67 51.206 0.195 7.2 8.47 9.43
10/31/2021 11:15:00 AM 10.7 51.26 0.197 7.28 8.65 9.47
10/31/2021 11:30:00 AM 10.75 51.35 0.203 7.28 8.22 9.47
10/31/2021 11:45:00 AM 10.79 51.422 0.183 7.31 8.77 9.52
10/31/2021 12:00:00 PM 10.85 51.53 0.201 7.29 8.02 9.54
10/31/2021 12:15:00 PM 10.91 51.638 0.193 7.29 8.75 9.59
10/31/2021 12:30:00 PM 10.95 51.71 0.197 7.32 7.88 9.65
10/31/2021 12:45:00 PM 11.01 51.818 0.196 7.33 7.73 9.66
10/31/2021 1:00:00 PM 11.05 51.89 0.183 7.34 7.84 9.67
10/31/2021 1:15:00 PM 11.09 51.962 0.192 7.33 8.49 9.68
10/31/2021 1:30:00 PM 11.14 52.052 0.206 7.33 7.91 9.69
10/31/2021 1:45:00 PM 11.16 52.088 0.189 7.35 7.81 9.7
10/31/2021 2:00:00 PM 11.19 52.142 0.203 7.33 7.65 9.7
10/31/2021 2:15:00 PM 11.22 52.196 0.198 7.35 7.87 9.68
10/31/2021 2:30:00 PM 11.25 52.25 0.205 7.35 8.06 9.66
10/31/2021 2:45:00 PM 11.29 52.322 0.203 7.35 9.18 9.73
10/31/2021 3:00:00 PM 11.33 52.394 0.202 7.35 7.49 9.66
10/31/2021 3:15:00 PM 11.37 52.466 0.194 7.36 8.59 9.69
10/31/2021 3:30:00 PM 11.39 52.502 0.194 7.34 7.87 9.65
10/31/2021 3:45:00 PM 11.42 52.556 0.196 7.36 7.32 9.64
10/31/2021 4:00:00 PM 11.45 52.61 0.198 7.34 8.46 9.63
10/31/2021 4:15:00 PM 11.47 52.646 0.196 7.35 7.81 9.6
10/31/2021 4:30:00 PM 11.49 52.682 0.201 7.35 7.57 9.6
10/31/2021 4:45:00 PM 11.5 52.7 0.2 7.3 9.78 9.55
10/31/2021 5:00:00 PM 11.51 52.718 0.199 7.33 7.22 9.52
10/31/2021 5:15:00 PM 11.52 52.736 0.197 7.33 9.14 9.52
10/31/2021 5:30:00 PM 11.52 52.736 0.199 7.36 7.81 9.51
10/31/2021 5:45:00 PM 11.52 52.736 0.194 7.37 7.61 9.45
10/31/2021 6:00:00 PM 11.52 52.736 0.203 7.33 8.98 9.43
10/31/2021 6:15:00 PM 11.51 52.718 0.203 7.35 8.48 9.4
10/31/2021 6:30:00 PM 11.51 52.718 0.191 7.33 7.99 9.39
10/31/2021 6:45:00 PM 11.51 52.718 0.202 7.32 8.87 9.36
10/31/2021 7:00:00 PM 11.5 52.7 0.198 7.34 8.71 9.35
10/31/2021 7:15:00 PM 11.5 52.7 0.2 7.34 8.05 9.31
10/31/2021 7:30:00 PM 11.48 52.664 0.211 7.33 8.27 9.34
10/31/2021 7:45:00 PM 11.46 52.628 0.206 7.33 9.75 9.32
10/31/2021 8:00:00 PM 11.44 52.592 0.213 7.33 8.5 9.3
10/31/2021 8:15:00 PM 11.42 52.556 0.209 7.33 8.94 9.28
10/31/2021 8:30:00 PM 11.39 52.502 0.201 7.32 9.51 9.27
10/31/2021 8:45:00 PM 11.36 52.448 0.205 7.33 8.46 9.3
10/31/2021 9:00:00 PM 11.32 52.376 0.206 7.34 8.29 9.27
10/31/2021 9:15:00 PM 11.29 52.322 0.205 7.34 9.4 9.28
10/31/2021 9:30:00 PM 11.25 52.25 0.202 7.34 8.59 9.3
10/31/2021 9:45:00 PM 11.21 52.178 0.187 7.34 8.55 9.28
10/31/2021 10:00:00 PM 11.19 52.142 0.195 7.32 12.82 9.26
10/31/2021 10:15:00 PM 11.16 52.088 0.204 7.33 8.44 9.29
10/31/2021 10:30:00 PM 11.14 52.052 0.202 7.32 8.78 9.29
10/31/2021 10:45:00 PM 11.13 52.034 0.211 7.31 8.74 9.27
10/31/2021 11:00:00 PM 11.1 51.98 0.181 7.34 8.65 9.31
10/31/2021 11:15:00 PM 11.08 51.944 0.208 7.34 8.42 9.27
10/31/2021 11:30:00 PM 11.06 51.908 0.213 7.3 9.23 9.31
10/31/2021 11:45:00 PM 11.04 51.872 0.213 7.33 9.46 9.29
11/1/2021 12:00:00 AM 11.03 51.854 0.21 7.35 8.73 9.31
11/1/2021 12:15:00 AM 11.01 51.818 0.219 7.33 8.51 9.29
11/1/2021 12:30:00 AM 10.99 51.782 0.215 7.35 8.2 9.32
11/1/2021 12:45:00 AM 10.98 51.764 0.193 7.32 8.83 9.32
11/1/2021 1:00:00 AM 10.97 51.746 0.215 7.33 9.03 9.31
11/1/2021 1:15:00 AM 10.95 51.71 0.217 7.34 8.44 9.32
11/1/2021 1:30:00 AM 10.94 51.692 0.198 7.33 8.96 9.32
11/1/2021 1:45:00 AM 10.93 51.674 0.218 7.35 8.56 9.31
11/1/2021 2:00:00 AM 10.93 51.674 0.201 7.35 8.2 9.31
11/1/2021 2:15:00 AM 10.91 51.638 0.204 7.35 8.75 9.32
11/1/2021 2:30:00 AM 10.9 51.62 0.221 7.35 8.54 9.33
11/1/2021 2:45:00 AM 10.89 51.602 0.217 7.35 8.27 9.33
11/1/2021 3:00:00 AM 10.87 51.566 0.213 7.35 8.52 9.32
11/1/2021 3:15:00 AM 10.86 51.548 0.224 7.35 8.35 9.33
11/1/2021 3:30:00 AM 10.85 51.53 0.223 7.36 8.53 9.34
11/1/2021 3:45:00 AM 10.84 51.512 0.206 7.36 8.94 9.34
11/1/2021 4:00:00 AM 10.83 51.494 0.215 7.36 8.86 9.34
11/1/2021 4:15:00 AM 10.81 51.458 0.225 7.35 8.67 9.34
11/1/2021 4:30:00 AM 10.79 51.422 0.223 7.33 8.65 9.33
11/1/2021 4:45:00 AM 10.77 51.386 0.23 7.35 8.1 9.36
11/1/2021 5:00:00 AM 10.75 51.35 0.228 7.32 8.71 9.35
11/1/2021 5:15:00 AM 10.74 51.332 0.223 7.35 7.92 9.36
11/1/2021 5:30:00 AM 10.72 51.296 0.224 7.36 8.26 9.36
11/1/2021 5:45:00 AM 10.7 51.26 0.23 7.33 8.31 9.37
11/1/2021 6:00:00 AM 10.66 51.188 0.224 7.33 9.82 9.37
11/1/2021 6:15:00 AM 10.62 51.116 0.228 7.34 8.02 9.38
11/1/2021 6:30:00 AM 10.58 51.044 0.201 7.36 7.87 9.39
11/1/2021 6:45:00 AM 10.54 50.972 0.218 7.35 8.33 9.39
11/1/2021 7:00:00 AM 10.5 50.9 0.225 7.35 8.34 9.4
11/1/2021 7:15:00 AM 10.46 50.828 0.227 7.34 9.3 9.41
11/1/2021 7:30:00 AM 10.42 50.756 0.226 7.35 8.49 9.43
11/1/2021 7:45:00 AM 10.38 50.684 0.219 7.37 7.39 9.45
11/1/2021 8:00:00 AM 10.33 50.594 0.23 7.36 7.86 9.45
11/1/2021 8:15:00 AM 10.29 50.522 0.224 7.35 7.27 9.48
11/1/2021 8:30:00 AM 10.24 50.432 0.23 7.36 7.59 9.5
11/1/2021 8:45:00 AM 10.21 50.378 0.219 7.37 7.58 9.52
11/1/2021 9:00:00 AM 10.2 50.36 0.215 7.37 7.51 9.55
11/1/2021 9:15:00 AM 10.2 50.36 0.221 7.36 7.3 9.6
11/1/2021 9:30:00 AM 10.2 50.36 0.236 7.34 7.94 9.63
11/1/2021 9:45:00 AM 10.2 50.36 0.23 7.37 7.59 9.67
11/1/2021 10:00:00 AM 10.18 50.324 0.221 7.37 6.68 9.71
11/1/2021 10:15:00 AM 10.17 50.306 0.224 7.38 6.68 9.76
11/1/2021 10:30:00 AM 10.18 50.324 0.238 7.4 6.72 9.81
11/1/2021 10:45:00 AM 10.2 50.36 0.221 7.41 7.35 9.86
11/1/2021 11:00:00 AM 10.23 50.414 0.216 7.4 7.98 9.91
11/1/2021 11:15:00 AM 10.24 50.432 0.233 7.41 6.91 9.97
11/1/2021 11:30:00 AM 10.26 50.468 0.243 7.42 6.47 10
11/1/2021 11:45:00 AM 10.28 50.504 0.225 7.41 6.49 10.03
11/1/2021 12:00:00 PM 10.35 50.63 0.243 7.44 6.34 10.08
11/1/2021 12:15:00 PM 10.41 50.738 0.241 7.44 6.54 10.11
11/1/2021 12:30:00 PM 10.47 50.846 0.23 7.47 7.2 10.16
11/1/2021 12:45:00 PM 10.52 50.936 0.215 7.46 6.16 10.18
11/1/2021 1:00:00 PM 10.53 50.954 0.236 7.47 6.33 10.2
11/1/2021 1:15:00 PM 10.58 51.044 0.231 7.48 6.26 10.24
11/1/2021 1:30:00 PM 10.62 51.116 0.232 7.45 6.95 10.25
11/1/2021 1:45:00 PM 10.67 51.206 0.23 7.48 6.19 10.27
11/1/2021 2:00:00 PM 10.72 51.296 0.166 7.46 5.94 10.29
11/1/2021 2:15:00 PM 10.74 51.332 0.234 7.46 6.92 10.28
11/1/2021 2:30:00 PM 10.78 51.404 0.236 7.47 5.98 10.28
11/1/2021 2:45:00 PM 10.81 51.458 0.211 7.47 6.17 10.28
11/1/2021 3:00:00 PM 10.88 51.584 0.231 7.47 6.04 10.27
11/1/2021 3:15:00 PM 10.93 51.674 0.224 7.48 7.01 10.29
11/1/2021 3:30:00 PM 10.98 51.764 0.123 7.49 5.66 10.29
11/1/2021 3:45:00 PM 11 51.8 0.229 7.49 6.67 10.25
11/1/2021 4:00:00 PM 11.01 51.818 0.235 7.47 6.01 10.24
11/1/2021 4:15:00 PM 11.02 51.836 0.239 7.49 7.15 10.24
11/1/2021 4:30:00 PM 11.04 51.872 0.245 7.46 6.55 10.2
11/1/2021 4:45:00 PM 11.03 51.854 0.215 7.48 7.52 10.16
11/1/2021 5:00:00 PM 10.99 51.782 0.238 7.47 5.92 10.13
11/1/2021 5:15:00 PM 10.94 51.692 0.238 7.46 7.21 10.08
11/1/2021 5:30:00 PM 10.9 51.62 0.242 7.47 6.06 10.04
11/1/2021 5:45:00 PM 10.85 51.53 0.24 7.45 6.61 10
11/1/2021 6:00:00 PM 10.83 51.494 0.216 7.47 5.93 9.99
11/1/2021 6:15:00 PM 10.81 51.458 0.249 7.44 7.27 9.94
11/1/2021 6:30:00 PM 10.78 51.404 0.244 7.46 5.8 9.88
11/1/2021 6:45:00 PM 10.74 51.332 0.238 7.46 6.94 9.84
11/1/2021 7:00:00 PM 10.69 51.242 0.248 7.43 7.16 9.83
11/1/2021 7:15:00 PM 10.64 51.152 0.24 7.45 6.75 9.8
11/1/2021 7:30:00 PM 10.59 51.062 0.248 7.46 6.79 9.77
11/1/2021 7:45:00 PM 10.54 50.972 0.24 7.44 6.14 9.72
11/1/2021 8:00:00 PM 10.48 50.864 0.244 7.43 6.8 9.72
11/1/2021 8:15:00 PM 10.44 50.792 0.235 7.43 6.24 9.69
11/1/2021 8:30:00 PM 10.39 50.702 0.251 7.4 7.12 9.66
11/1/2021 8:45:00 PM 10.34 50.612 0.225 7.43 6.89 9.67
11/1/2021 9:00:00 PM 10.29 50.522 0.24 7.4 7.42 9.65
11/1/2021 9:15:00 PM 10.23 50.414 0.234 7.42 7.67 9.65
11/1/2021 9:30:00 PM 10.17 50.306 0.234 7.42 7.21 9.66
11/1/2021 9:45:00 PM 10.11 50.198 0.244 7.42 7.17 9.68
11/1/2021 10:00:00 PM 10.05 50.09 0.243 7.42 7.05 9.67
11/1/2021 10:15:00 PM 9.98 49.964 0.242 7.43 7.26 9.67
11/1/2021 10:30:00 PM 9.91 49.838 0.248 7.4 7.14 9.68
11/1/2021 10:45:00 PM 9.84 49.712 0.242 7.42 6.47 9.69
11/1/2021 11:00:00 PM 9.78 49.604 0.227 7.36 7.29 9.7
11/1/2021 11:15:00 PM 9.73 49.514 0.247 7.43 6.79 9.7
11/1/2021 11:30:00 PM 9.68 49.424 0.23 7.42 6.55 9.69
11/1/2021 11:45:00 PM 9.63 49.334 0.241 7.43 6.54 9.72
11/2/2021 12:00:00 AM 9.59 49.262 0.245 7.42 6.42 9.71
11/2/2021 12:15:00 AM 9.56 49.208 0.262 7.29 6.61 9.73
11/2/2021 12:30:00 AM 9.51 49.118 0.264 7.4 6.35 9.74
11/2/2021 12:45:00 AM 9.45 49.01 0.247 7.42 6.39 9.75
11/2/2021 1:00:00 AM 9.41 48.938 0.247 7.37 8.75 9.76
11/2/2021 1:15:00 AM 9.37 48.866 0.263 7.4 6.44 9.76
11/2/2021 1:30:00 AM 9.33 48.794 0.259 7.36 8.48 9.77
11/2/2021 1:45:00 AM 9.31 48.758 0.264 7.38 6.86 9.78
11/2/2021 2:00:00 AM 9.28 48.704 0.251 7.34 6.72 9.79
11/2/2021 2:15:00 AM 9.24 48.632 0.246 7.39 6.4 9.79
11/2/2021 2:30:00 AM 9.22 48.596 0.259 7.39 6.38 9.78
11/2/2021 2:45:00 AM 9.18 48.524 0.259 7.39 6.27 9.81
11/2/2021 3:00:00 AM 9.15 48.47 0.255 7.39 6.23 9.81
11/2/2021 3:15:00 AM 9.12 48.416 0.256 7.4 6.31 9.82
11/2/2021 3:30:00 AM 9.09 48.362 0.252 7.39 6.11 9.83
11/2/2021 3:45:00 AM 9.06 48.308 0.259 7.36 7.67 9.84
11/2/2021 4:00:00 AM 9.04 48.272 0.258 7.38 7.5 9.84
11/2/2021 4:15:00 AM 9.02 48.236 0.173 7.39 7.01 9.85
11/2/2021 4:30:00 AM 8.99 48.182 0.265 7.39 5.96 9.83
11/2/2021 4:45:00 AM 8.97 48.146 0.246 7.38 6.52 9.85
11/2/2021 5:00:00 AM 8.94 48.092 0.25 7.38 6.36 9.86
11/2/2021 5:15:00 AM 8.91 48.038 0.256 7.37 6.28 9.86
11/2/2021 5:30:00 AM 8.88 47.984 0.262 7.36 7.93 9.87
11/2/2021 5:45:00 AM 8.86 47.948 0.257 7.39 6.79 9.85
11/2/2021 6:00:00 AM 8.83 47.894 0.235 7.39 7.24 9.88
11/2/2021 6:15:00 AM 8.8 47.84 0.249 7.39 6.91 9.9
11/2/2021 6:30:00 AM 8.78 47.804 0.254 7.41 6.54 9.9
11/2/2021 6:45:00 AM 8.75 47.75 0.241 7.41 5.99 9.91
11/2/2021 7:00:00 AM 8.72 47.696 0.23 7.4 7.75 9.91
11/2/2021 7:15:00 AM 8.69 47.642 0.256 7.39 7.22 9.89
11/2/2021 7:30:00 AM 8.66 47.588 0.262 7.37 7.52 9.9
11/2/2021 7:45:00 AM 8.65 47.57 0.252 7.38 6.88 9.91
11/2/2021 8:00:00 AM 8.61 47.498 0.239 7.37 8.03 9.94
11/2/2021 8:15:00 AM 8.59 47.462 0.257 7.4 6.18 9.93
11/2/2021 8:30:00 AM 8.57 47.426 0.263 7.38 6.01 9.97
11/2/2021 8:45:00 AM 8.56 47.408 0.263 7.38 7.16 10
11/2/2021 9:00:00 AM 8.56 47.408 0.261 7.41 6.37 9.89
11/2/2021 9:15:00 AM 8.56 47.408 0.257 7.41 6.74 10.05
11/2/2021 9:30:00 AM 8.56 47.408 0.256 7.42 6.29 10.1
11/2/2021 9:45:00 AM 8.6 47.48 0.26 7.41 5.26 10.09
11/2/2021 10:00:00 AM 8.58 47.444 0.264 7.43 6.05 10.18
11/2/2021 10:15:00 AM 8.63 47.534 0.274 7.41 5.03 10.2
11/2/2021 10:30:00 AM 8.66 47.588 0.263 7.43 5.66 10.26
11/2/2021 10:45:00 AM 8.69 47.642 0.259 7.45 6.53 10.32
11/2/2021 11:00:00 AM 8.74 47.732 0.269 7.44 6.29 10.4
11/2/2021 11:15:00 AM 8.8 47.84 0.255 7.48 5.12 10.48
11/2/2021 11:30:00 AM 8.85 47.93 0.238 7.48 5.42 10.52
11/2/2021 11:45:00 AM 8.94 48.092 0.261 7.48 5.2 10.52
11/2/2021 12:00:00 PM 8.99 48.182 0.269 7.49 4.85 10.56
11/2/2021 12:15:00 PM 9.01 48.218 0.253 7.49 4.76 10.58
11/2/2021 12:30:00 PM 9.01 48.218 0.255 7.51 4.96 10.61
11/2/2021 12:45:00 PM 9.08 48.344 0.261 7.51 5.19 10.65
11/2/2021 1:00:00 PM 9.18 48.524 0.259 7.52 6.29 10.68
11/2/2021 1:15:00 PM 9.29 48.722 0.27 7.54 4.9 10.64
11/2/2021 1:30:00 PM 9.38 48.884 0.242 7.52 5.05 10.71
11/2/2021 1:45:00 PM 9.44 48.992 0.248 7.54 4.77 10.72
11/2/2021 2:00:00 PM 9.5 49.1 0.265 7.51 5.39 10.68
11/2/2021 2:15:00 PM 9.48 49.064 0.264 7.52 5.04 10.53
11/2/2021 2:30:00 PM 9.48 49.064 0.273 7.54 5.23 10.69
11/2/2021 2:45:00 PM 9.5 49.1 0.245 7.54 4.78 10.68
11/2/2021 3:00:00 PM 9.49 49.082 0.245 7.52 4.55 10.62
11/2/2021 3:15:00 PM 9.52 49.136 0.266 7.51 6.26 10.59
11/2/2021 3:30:00 PM 9.53 49.154 0.264 7.53 4.56 10.6
11/2/2021 3:45:00 PM 9.56 49.208 0.263 7.54 4.32 10.61
11/2/2021 4:00:00 PM 9.57 49.226 0.266 7.5 6.21 10.54
11/2/2021 4:15:00 PM 9.59 49.262 0.272 7.51 4.88 10.53
11/2/2021 4:30:00 PM 9.58 49.244 0.274 7.51 4.83 10.49
11/2/2021 4:45:00 PM 9.52 49.136 0.268 7.52 5.49 10.51
11/2/2021 5:00:00 PM 9.48 49.064 0.27 7.53 4.67 10.49
11/2/2021 5:15:00 PM 9.46 49.028 0.268 7.53 5.48 10.45
11/2/2021 5:30:00 PM 9.44 48.992 0.277 7.49 4.57 10.41
11/2/2021 5:45:00 PM 9.44 48.992 0.264 7.52 4.61 10.38
11/2/2021 6:00:00 PM 9.43 48.974 0.268 7.5 4.77 10.35
11/2/2021 6:15:00 PM 9.41 48.938 0.273 7.54 5.03 10.32
11/2/2021 6:30:00 PM 9.4 48.92 0.259 7.51 5.25 10.25
11/2/2021 6:45:00 PM 9.38 48.884 0.251 7.49 4.54 10.22
11/2/2021 7:00:00 PM 9.35 48.83 0.276 7.49 5.73 10.19
11/2/2021 7:15:00 PM 9.31 48.758 0.273 7.5 5.35 10.13
11/2/2021 7:30:00 PM 9.27 48.686 0.271 7.49 5.88 10.11
11/2/2021 7:45:00 PM 9.24 48.632 0.277 7.48 5.7 10.08
11/2/2021 8:00:00 PM 9.21 48.578 0.211 7.48 5.43 10.05
11/2/2021 8:15:00 PM 9.18 48.524 0.274 7.46 5.89 10.03
11/2/2021 8:30:00 PM 9.15 48.47 0.281 7.46 5.54 10.01
11/2/2021 8:45:00 PM 9.12 48.416 0.278 7.48 5.52 9.96
11/2/2021 9:00:00 PM 9.09 48.362 0.281 7.47 6.47 9.97
11/2/2021 9:15:00 PM 9.07 48.326 0.281 7.45 5.48 9.95
11/2/2021 9:30:00 PM 9.05 48.29 0.283 7.44 5.65 9.94
11/2/2021 9:45:00 PM 9.02 48.236 0.271 7.47 5.91 9.94
11/2/2021 10:00:00 PM 9.01 48.218 0.278 7.46 5.83 9.92
11/2/2021 10:15:00 PM 8.97 48.146 0.282 7.46 6.12 9.92
11/2/2021 10:30:00 PM 8.93 48.074 0.265 7.46 5.46 9.94
11/2/2021 10:45:00 PM 8.89 48.002 0.275 7.44 6.8 9.93
11/2/2021 11:00:00 PM 8.84 47.912 0.275 7.46 5.98 9.94
11/2/2021 11:15:00 PM 8.8 47.84 0.262 7.44 5.55 9.93
11/2/2021 11:30:00 PM 8.76 47.768 0.278 7.44 6.22 9.96
11/2/2021 11:45:00 PM 8.73 47.714 0.282 7.44 6.57 9.94
11/3/2021 12:00:00 AM 8.71 47.678 0.275 7.46 5.21 9.93
11/3/2021 12:15:00 AM 8.67 47.606 0.273 7.47 5.2 9.94
11/3/2021 12:30:00 AM 8.66 47.588 0.292 7.46 5.34 9.95
11/3/2021 12:45:00 AM 8.62 47.516 0.287 7.46 6.24 9.92
11/3/2021 1:00:00 AM 8.6 47.48 0.289 7.45 5.19 9.89
11/3/2021 1:15:00 AM 8.6 47.48 0.297 7.43 5.08 9.93
11/3/2021 1:30:00 AM 8.55 47.39 0.29 7.46 5.4 9.91
11/3/2021 1:45:00 AM 8.5 47.3 0.286 7.46 5.53 9.93
11/3/2021 2:00:00 AM 8.46 47.228 0.271 7.44 5.9 9.94
11/3/2021 2:15:00 AM 8.44 47.192 0.294 7.45 5.5 9.93
11/3/2021 2:30:00 AM 8.43 47.174 0.28 7.43 5.2 9.94
11/3/2021 2:45:00 AM 8.42 47.156 0.281 7.43 5.38 9.89
11/3/2021 3:00:00 AM 8.35 47.03 0.28 7.43 5.11 9.95
11/3/2021 3:15:00 AM 8.31 46.958 0.279 7.41 5.27 9.99
11/3/2021 3:30:00 AM 8.29 46.922 0.301 7.42 5.59 9.95
11/3/2021 3:45:00 AM 8.2 46.76 0.27 7.43 5.06 10.02
11/3/2021 4:00:00 AM 8.16 46.688 0.165 7.39 6.61 10.03
11/3/2021 4:15:00 AM 8.17 46.706 0.287 7.42 5.36 10
11/3/2021 4:30:00 AM 8.11 46.598 0.284 7.41 5.73 10.02
11/3/2021 4:45:00 AM 8.15 46.67 0.298 7.41 5.66 9.92
11/3/2021 5:00:00 AM 8.06 46.508 0.291 7.44 5.66 10.02
11/3/2021 5:15:00 AM 8.07 46.526 0.283 7.44 5.26 10.02
11/3/2021 5:30:00 AM 8.03 46.454 0.3 7.44 5.7 10.02
11/3/2021 5:45:00 AM 8.02 46.436 0.29 7.42 7.73 9.99
11/3/2021 6:00:00 AM 8.03 46.454 0.289 7.45 5.92 10.03
11/3/2021 6:15:00 AM 7.98 46.364 0.279 7.44 5.68 10.06
11/3/2021 6:30:00 AM 7.96 46.328 0.259 7.45 5.65 10.1
11/3/2021 6:45:00 AM 7.96 46.328 0.301 7.44 5.36 10.02
11/3/2021 7:00:00 AM 7.96 46.328 0.265 7.46 6.03 10.05
11/3/2021 7:15:00 AM 7.95 46.31 0.283 7.45 5.49 10.08
11/3/2021 7:30:00 AM 7.96 46.328 0.311 7.44 5.43 10.1
11/3/2021 7:45:00 AM 7.93 46.274 0.282 7.45 6.62 10.04
11/3/2021 8:00:00 AM 7.88 46.184 0.289 7.46 5.19 10.12
11/3/2021 8:15:00 AM 7.89 46.202 0.284 7.46 7.9 10.01
11/3/2021 8:30:00 AM 7.92 46.256 0.283 7.46 5.8 10.09
11/3/2021 8:45:00 AM 7.87 46.166 0.293 7.47 11.86 10.14
11/3/2021 9:00:00 AM 7.85 46.13 0.297 7.45 10.18 10.19
11/3/2021 9:15:00 AM 7.87 46.166 0.301 7.47 4.95 10.2
11/3/2021 9:30:00 AM 7.84 46.112 0.295 7.49 4.89 10.26
11/3/2021 9:45:00 AM 7.87 46.166 0.287 7.49 5.1 10.32
11/3/2021 10:00:00 AM 7.9 46.22 0.291 7.49 6.24 10.36
11/3/2021 10:15:00 AM 7.92 46.256 0.293 7.49 5.2 10.4
11/3/2021 10:30:00 AM 7.94 46.292 0.261 7.49 4.73 10.48
11/3/2021 10:45:00 AM 7.99 46.382 0.294 7.5 4.57 10.53
11/3/2021 11:00:00 AM 8.03 46.454 0.293 7.5 4.77 10.57
11/3/2021 11:15:00 AM 8.05 46.49 0.297 7.53 4.41 10.59
11/3/2021 11:30:00 AM 8.08 46.544 0.306 7.52 4.76 10.64
11/3/2021 11:45:00 AM 8.09 46.562 0.293 7.55 4.96 10.68
11/3/2021 12:00:00 PM 8.11 46.598 0.297 7.55 4.69 10.71
11/3/2021 12:15:00 PM 8.13 46.634 0.283 7.57 5.23 10.76
11/3/2021 12:30:00 PM 8.17 46.706 0.267 7.56 4.65 10.79
11/3/2021 12:45:00 PM 8.22 46.796 0.284 7.57 5 10.84
11/3/2021 1:00:00 PM 8.35 47.03 0.305 7.56 4.47 10.87
11/3/2021 1:15:00 PM 8.42 47.156 0.294 7.54 6.91 10.89
11/3/2021 1:30:00 PM 8.47 47.246 0.291 7.58 4.28 10.91
11/3/2021 1:45:00 PM 8.55 47.39 0.304 7.58 4.44 10.94
11/3/2021 2:00:00 PM 8.6 47.48 0.295 7.6 4.53 10.94
11/3/2021 2:15:00 PM 8.63 47.534 0.303 7.59 4.24 10.95
11/3/2021 2:30:00 PM 8.67 47.606 0.304 7.59 4.21 11
11/3/2021 2:45:00 PM 8.71 47.678 0.304 7.58 5.83 11.01
11/3/2021 3:00:00 PM 8.73 47.714 0.296 7.6 4.19 10.99
11/3/2021 3:15:00 PM 8.72 47.696 0.296 7.6 4.19 11.02
11/3/2021 3:30:00 PM 8.74 47.732 0.306 7.62 4.12 11.04
11/3/2021 3:45:00 PM 8.75 47.75 0.3 7.61 4.74 11.01
11/3/2021 4:00:00 PM 8.75 47.75 0.312 7.61 3.87 10.97
11/3/2021 4:15:00 PM 8.75 47.75 0.275 7.61 5.47 10.97
11/3/2021 4:30:00 PM 8.73 47.714 0.297 7.59 4.07 10.93
11/3/2021 4:45:00 PM 8.71 47.678 0.305 7.6 3.88 10.88
11/3/2021 5:00:00 PM 8.7 47.66 0.289 7.59 4.04 10.87
11/3/2021 5:15:00 PM 8.7 47.66 0.301 7.58 3.95 10.82
11/3/2021 5:30:00 PM 8.68 47.624 0.278 7.56 5.16 10.81
11/3/2021 5:45:00 PM 8.68 47.624 0.309 7.59 4.21 10.74
11/3/2021 6:00:00 PM 8.66 47.588 0.276 7.57 4.1 10.71
11/3/2021 6:15:00 PM 8.66 47.588 0.303 7.58 5.92 10.64
11/3/2021 6:30:00 PM 8.65 47.57 0.303 7.58 4.07 10.59
11/3/2021 6:45:00 PM 8.62 47.516 0.301 7.57 4.33 10.53
11/3/2021 7:00:00 PM 8.59 47.462 0.294 7.57 4.87 10.48
11/3/2021 7:15:00 PM 8.57 47.426 0.306 7.56 4.78 10.44
11/3/2021 7:30:00 PM 8.54 47.372 0.295 7.56 4.29 10.4
11/3/2021 7:45:00 PM 8.51 47.318 0.314 7.55 4.3 10.38
11/3/2021 8:00:00 PM 8.49 47.282 0.297 7.54 4.48 10.36
11/3/2021 8:15:00 PM 8.46 47.228 0.308 7.56 4.54 10.29
11/3/2021 8:30:00 PM 8.43 47.174 0.259 7.54 4.65 10.28
11/3/2021 8:45:00 PM 8.4 47.12 0.294 7.53 4.86 10.23
11/3/2021 9:00:00 PM 8.34 47.012 0.305 7.54 4.69 10.21
11/3/2021 9:15:00 PM 8.31 46.958 0.29 7.54 4.93 10.19
11/3/2021 9:30:00 PM 8.26 46.868 0.27 7.54 5.36 10.18
11/3/2021 9:45:00 PM 8.22 46.796 0.297 7.52 4.79 10.17
11/3/2021 10:00:00 PM 8.18 46.724 0.316 7.51 5.21 10.18
11/3/2021 10:15:00 PM 8.13 46.634 0.303 7.52 4.82 10.17
11/3/2021 10:30:00 PM 8.08 46.544 0.314 7.52 4.79 10.17
11/3/2021 10:45:00 PM 8.03 46.454 0.316 7.52 5.21 10.17
11/3/2021 11:00:00 PM 7.98 46.364 0.311 7.53 5.36 10.19
11/3/2021 11:15:00 PM 7.94 46.292 0.296 7.51 5.25 10.19
11/3/2021 11:30:00 PM 7.9 46.22 0.316 7.51 4.99 10.2
11/3/2021 11:45:00 PM 7.86 46.148 0.291 7.52 4.69 10.2
11/4/2021 12:00:00 AM 7.82 46.076 0.317 7.42 4.9 10.23
11/4/2021 12:15:00 AM 7.78 46.004 0.305 7.52 5 10.22
11/4/2021 12:30:00 AM 7.73 45.914 0.301 7.52 4.94 10.24
11/4/2021 12:45:00 AM 7.69 45.842 0.308 7.52 5.17 10.23
11/4/2021 1:00:00 AM 7.64 45.752 0.305 7.51 4.93 10.24
11/4/2021 1:15:00 AM 7.58 45.644 0.293 7.49 5.88 10.26
11/4/2021 1:30:00 AM 7.53 45.554 0.326 7.46 6.94 10.27
11/4/2021 1:45:00 AM 7.49 45.482 0.327 7.5 5.6 10.27
11/4/2021 2:00:00 AM 7.43 45.374 0.299 7.5 5.31 10.27
11/4/2021 2:15:00 AM 7.39 45.302 0.299 7.49 6.16 10.29
11/4/2021 2:30:00 AM 7.35 45.23 0.3 7.49 5.35 10.29
11/4/2021 2:45:00 AM 7.29 45.122 0.319 7.49 5.24 10.29
11/4/2021 3:00:00 AM 7.26 45.068 0.302 7.48 5.82 10.29
11/4/2021 3:15:00 AM 7.22 44.996 0.307 7.47 5.84 10.33
11/4/2021 3:30:00 AM 7.15 44.87 0.307 7.48 5.69 10.33
11/4/2021 3:45:00 AM 7.13 44.834 0.306 7.47 5.3 10.35
11/4/2021 4:00:00 AM 7.06 44.708 0.312 7.48 5.17 10.35
11/4/2021 4:15:00 AM 7.01 44.618 0.322 7.48 4.99 10.36
11/4/2021 4:30:00 AM 6.98 44.564 0.29 7.48 4.89 10.37
11/4/2021 4:45:00 AM 6.93 44.474 0.31 7.48 4.83 10.36
11/4/2021 5:00:00 AM 6.89 44.402 0.319 7.48 5.43 10.38
11/4/2021 5:15:00 AM 6.85 44.33 0.324 7.47 5.12 10.4
11/4/2021 5:30:00 AM 6.8 44.24 0.272 7.48 6.18 10.42
11/4/2021 5:45:00 AM 6.79 44.222 0.306 7.46 5.24 10.4
11/4/2021 6:00:00 AM 6.74 44.132 0.325 7.48 5.21 10.43
11/4/2021 6:15:00 AM 6.73 44.114 0.302 7.48 4.87 10.42
11/4/2021 6:30:00 AM 6.7 44.06 0.304 7.48 4.67 10.44
11/4/2021 6:45:00 AM 6.68 44.024 0.304 7.48 4.91 10.45
11/4/2021 7:00:00 AM 6.65 43.97 0.322 7.5 5.06 10.45
11/4/2021 7:15:00 AM 6.64 43.952 0.299 7.48 4.89 10.44
11/4/2021 7:30:00 AM 6.6 43.88 0.314 7.49 4.49 10.47
11/4/2021 7:45:00 AM 6.59 43.862 0.313 7.48 4.66 10.48
11/4/2021 8:00:00 AM 6.57 43.826 0.304 7.47 5.84 10.49
11/4/2021 8:15:00 AM 6.55 43.79 0.327 7.49 4.41 10.47
11/4/2021 8:30:00 AM 6.54 43.772 0.322 7.49 4.27 10.52
11/4/2021 8:45:00 AM 6.53 43.754 0.303 7.51 4.39 10.56
11/4/2021 9:00:00 AM 6.52 43.736 0.198 7.49 5.1 10.61
11/4/2021 9:15:00 AM 6.54 43.772 0.314 7.49 4.45 10.61
11/4/2021 9:30:00 AM 6.54 43.772 0.298 7.52 4.18 10.67
11/4/2021 9:45:00 AM 6.59 43.862 0.313 7.51 4.16 10.69
11/4/2021 10:00:00 AM 6.59 43.862 0.3 7.51 6.34 10.73
11/4/2021 10:15:00 AM 6.58 43.844 0.31 7.53 4.21 10.8
11/4/2021 10:30:00 AM 6.66 43.988 0.303 7.53 4.03 10.78
11/4/2021 10:45:00 AM 6.74 44.132 0.322 7.51 3.99 10.87
11/4/2021 11:00:00 AM 6.74 44.132 0.316 7.54 4.15 10.94
11/4/2021 11:15:00 AM 6.8 44.24 0.293 7.56 3.98 11.02
11/4/2021 11:30:00 AM 6.9 44.42 0.218 7.56 5.21 11.06
11/4/2021 11:45:00 AM 6.93 44.474 0.316 7.58 4.09 11.15
11/4/2021 12:00:00 PM 7.03 44.654 0.316 7.59 3.83 11.19
11/4/2021 12:15:00 PM 7.06 44.708 0.308 7.6 4 11.25
11/4/2021 12:30:00 PM 7.09 44.762 0.324 7.59 4.01 11.25
11/4/2021 12:45:00 PM 7.12 44.816 0.304 7.61 4.02 11.24
11/4/2021 1:00:00 PM 7.17 44.906 0.31 7.6 3.95 11.27
11/4/2021 1:15:00 PM 7.23 45.014 0.303 7.59 5.08 11.32
11/4/2021 1:30:00 PM 7.3 45.14 0.321 7.63 3.75 11.35
11/4/2021 1:45:00 PM 7.38 45.284 0.317 7.63 3.9 11.33
11/4/2021 2:00:00 PM 7.5 45.5 0.31 7.61 3.97 11.32
11/4/2021 2:15:00 PM 7.7 45.86 0.322 7.6 3.78 11.28
11/4/2021 2:30:00 PM 7.76 45.968 0.29 7.61 3.83 11.13
11/4/2021 2:45:00 PM 7.78 46.004 0.318 7.62 3.65 11.27
11/4/2021 3:00:00 PM 7.83 46.094 0.317 7.63 3.73 11.32
11/4/2021 3:15:00 PM 7.91 46.238 0.318 7.62 3.44 11.1
11/4/2021 3:30:00 PM 7.95 46.31 0.321 7.62 3.7 11.17
11/4/2021 3:45:00 PM 8 46.4 0.32 7.63 3.83 11.21
11/4/2021 4:00:00 PM 8.06 46.508 0.321 7.6 4.02 11.08
11/4/2021 4:15:00 PM 8.09 46.562 0.324 7.62 4.02 11.14
11/4/2021 4:30:00 PM 8.11 46.598 0.308 7.62 3.8 11.09
11/4/2021 4:45:00 PM 8.16 46.688 0.324 7.62 3.66 11.07
11/4/2021 5:00:00 PM 8.17 46.706 0.307 7.65 3.74 11.12
11/4/2021 5:15:00 PM 8.22 46.796 0.316 7.63 3.59 10.92
11/4/2021 5:30:00 PM 8.26 46.868 0.326 7.62 3.65 10.89
11/4/2021 5:45:00 PM 8.32 46.976 0.319 7.58 3.73 10.66
11/4/2021 6:00:00 PM 8.21 46.778 0.314 7.63 3.88 10.88
11/4/2021 6:15:00 PM 8.2 46.76 0.32 7.64 3.67 10.8
11/4/2021 6:30:00 PM 8.18 46.724 0.315 7.61 3.88 10.7
11/4/2021 6:45:00 PM 8.18 46.724 0.323 7.61 3.74 10.64
11/4/2021 7:00:00 PM 8.14 46.652 0.32 7.62 3.95 10.61
11/4/2021 7:15:00 PM 8.11 46.598 0.321 7.6 3.94 10.56
11/4/2021 7:30:00 PM 8.08 46.544 0.309 7.58 4.23 10.52
11/4/2021 7:45:00 PM 8.05 46.49 0.32 7.56 6.26 10.43
11/4/2021 8:00:00 PM 8 46.4 0.314 7.58 5.78 10.44
11/4/2021 8:15:00 PM 7.97 46.346 0.338 7.59 4.21 10.44
11/4/2021 8:30:00 PM 7.92 46.256 0.316 7.58 4.46 10.36
11/4/2021 8:45:00 PM 7.89 46.202 0.328 7.57 4.28 10.36
11/4/2021 9:00:00 PM 7.84 46.112 0.32 7.56 4.1 10.3
11/4/2021 9:15:00 PM 7.78 46.004 0.322 7.54 5.47 10.31
11/4/2021 9:30:00 PM 7.73 45.914 0.33 7.56 4.27 10.28
11/4/2021 9:45:00 PM 7.68 45.824 0.323 7.56 4.3 10.28
11/4/2021 10:00:00 PM 7.63 45.734 0.329 7.55 4.19 10.27
11/4/2021 10:15:00 PM 7.57 45.626 0.312 7.52 5.3 10.27
11/4/2021 10:30:00 PM 7.53 45.554 0.329 7.54 4.18 10.27
11/4/2021 10:45:00 PM 7.46 45.428 0.287 7.55 4.21 10.28
11/4/2021 11:00:00 PM 7.4 45.32 0.326 7.54 4.17 10.31
11/4/2021 11:15:00 PM 7.35 45.23 0.321 7.54 4.22 10.3
11/4/2021 11:30:00 PM 7.3 45.14 0.304 7.52 5.6 10.32
11/4/2021 11:45:00 PM 7.26 45.068 0.331 7.51 6 10.33
11/5/2021 12:00:00 AM 7.21 44.978 0.329 7.54 4.34 10.33
11/5/2021 12:15:00 AM 7.17 44.906 0.325 7.52 4.29 10.31
11/5/2021 12:30:00 AM 7.12 44.816 0.335 7.53 4.84 10.34
11/5/2021 12:45:00 AM 7.07 44.726 0.324 7.52 6.24 10.35
11/5/2021 1:00:00 AM 7.04 44.672 0.34 7.54 4.45 10.33
11/5/2021 1:15:00 AM 6.99 44.582 0.335 7.53 4.83 10.36
11/5/2021 1:30:00 AM 6.94 44.492 0.324 7.54 4.55 10.36
11/5/2021 1:45:00 AM 6.89 44.402 0.335 7.54 4.35 10.38
11/5/2021 2:00:00 AM 6.84 44.312 0.332 7.54 5.11 10.39
11/5/2021 2:15:00 AM 6.82 44.276 0.336 7.51 5.02 10.39
11/5/2021 2:30:00 AM 6.76 44.168 0.335 7.53 4.18 10.41
11/5/2021 2:45:00 AM 6.69 44.042 0.332 7.53 4.33 10.42
11/5/2021 3:00:00 AM 6.65 43.97 0.312 7.53 4.09 10.44
11/5/2021 3:15:00 AM 6.59 43.862 0.329 7.54 4.46 10.44
11/5/2021 3:30:00 AM 6.56 43.808 0.324 7.53 4.48 10.46
11/5/2021 3:45:00 AM 6.52 43.736 0.333 7.51 4.17 10.47
11/5/2021 4:00:00 AM 6.47 43.646 0.322 7.5 4.52 10.48
11/5/2021 4:15:00 AM 6.43 43.574 0.334 7.51 4.22 10.51
11/5/2021 4:30:00 AM 6.38 43.484 0.332 7.52 4.88 10.49
11/5/2021 4:45:00 AM 6.34 43.412 0.337 7.51 5.33 10.5
11/5/2021 5:00:00 AM 6.29 43.322 0.326 7.5 5.52 10.5
11/5/2021 5:15:00 AM 6.26 43.268 0.327 7.49 6.14 10.49
11/5/2021 5:30:00 AM 6.2 43.16 0.342 7.51 5.45 10.55
11/5/2021 5:45:00 AM 6.14 43.052 0.32 7.52 5.78 10.57
11/5/2021 6:00:00 AM 6.13 43.034 0.34 7.49 5.11 10.55
11/5/2021 6:15:00 AM 6.06 42.908 0.34 7.52 4.33 10.59
11/5/2021 6:30:00 AM 6.01 42.818 0.327 7.51 5.48 10.6
11/5/2021 6:45:00 AM 5.99 42.782 0.33 7.51 5.49 10.59
11/5/2021 7:00:00 AM 5.94 42.692 0.33 7.5 5.35 10.62
11/5/2021 7:15:00 AM 5.9 42.62 0.332 7.49 12.16 10.61
11/5/2021 7:30:00 AM 5.86 42.548 0.331 7.49 5.74 10.66
11/5/2021 7:45:00 AM 5.8 42.44 0.331 7.5 5.4 10.68
11/5/2021 8:00:00 AM 5.77 42.386 0.323 7.49 4.94 10.67
11/5/2021 8:15:00 AM 5.72 42.296 0.329 7.51 6.91 10.7
11/5/2021 8:30:00 AM 5.69 42.242 0.297 7.5 4.67 10.74
11/5/2021 8:45:00 AM 5.68 42.224 0.318 7.49 5.38 10.75
11/5/2021 9:00:00 AM 5.65 42.17 0.297 7.51 4.92 10.79
11/5/2021 9:15:00 AM 5.62 42.116 0.327 7.51 4.66 10.85
11/5/2021 9:30:00 AM 5.63 42.134 0.325 7.51 7.97 10.89
11/5/2021 9:45:00 AM 5.63 42.134 0.323 7.52 4.46 10.95
11/5/2021 10:00:00 AM 5.69 42.242 0.32 7.53 4.21 10.99
11/5/2021 10:15:00 AM 5.68 42.224 0.319 7.54 4.43 11.07
11/5/2021 10:30:00 AM 5.71 42.278 0.328 7.54 4.94 11.11
11/5/2021 10:45:00 AM 5.78 42.404 0.348 7.56 3.79 11.17
11/5/2021 11:00:00 AM 5.84 42.512 0.324 7.55 4.25 11.21
11/5/2021 11:15:00 AM 5.88 42.584 0.336 7.55 5.23 11.27
11/5/2021 11:30:00 AM 5.96 42.728 0.347 7.57 3.56 11.34
11/5/2021 11:45:00 AM 6.04 42.872 0.343 7.59 3.87 11.39
11/5/2021 12:00:00 PM 6.14 43.052 0.311 7.6 3.88 11.44
11/5/2021 12:15:00 PM 6.28 43.304 0.344 7.61 4 11.39
11/5/2021 12:30:00 PM 6.39 43.502 0.302 7.63 3.89 11.52
11/5/2021 12:45:00 PM 6.52 43.736 0.326 7.63 4.08 11.55
11/5/2021 1:00:00 PM 6.61 43.898 0.321 7.62 5.52 11.57
11/5/2021 1:15:00 PM 6.72 44.096 0.342 7.65 3.9 11.59
11/5/2021 1:30:00 PM 6.92 44.456 0.322 7.65 3.84 11.61
11/5/2021 1:45:00 PM 7.05 44.69 0.324 7.66 4.08 11.64
11/5/2021 2:00:00 PM 7.2 44.96 0.33 7.63 4.31 11.55
11/5/2021 2:15:00 PM 7.39 45.302 0.35 7.65 3.74 11.37
11/5/2021 2:30:00 PM 7.46 45.428 0.34 7.68 3.4 11.57
11/5/2021 2:45:00 PM 7.61 45.698 0.322 7.64 4.35 11.48
11/5/2021 3:00:00 PM 7.68 45.824 0.337 7.66 3.95 11.49
11/5/2021 3:15:00 PM 7.8 46.04 0.336 7.65 5.32 11.39
11/5/2021 3:30:00 PM 7.88 46.184 0.35 7.66 5.23 11.43
11/5/2021 3:45:00 PM 7.91 46.238 0.338 7.65 3.65 11.36
11/5/2021 4:00:00 PM 7.85 46.13 0.342 7.68 4.77 11.47
11/5/2021 4:15:00 PM 7.89 46.202 0.347 7.63 5.51 11.18
11/5/2021 4:30:00 PM 7.86 46.148 0.343 7.64 5.18 11.08
11/5/2021 4:45:00 PM 7.75 45.95 0.342 7.64 5.68 11.3
11/5/2021 5:00:00 PM 7.68 45.824 0.34 7.66 4.88 11.24
11/5/2021 5:15:00 PM 7.62 45.716 0.339 7.65 6.41 11.22
11/5/2021 5:30:00 PM 7.59 45.662 0.302 7.67 4.77 11.2
11/5/2021 5:45:00 PM 7.61 45.698 0.334 7.65 5.24 11.09
11/5/2021 6:00:00 PM 7.55 45.59 0.347 7.64 4.38 11.04
11/5/2021 6:15:00 PM 7.55 45.59 0.345 7.63 3.84 10.95
11/5/2021 6:30:00 PM 7.52 45.536 0.346 7.64 4.63 10.91
11/5/2021 6:45:00 PM 7.47 45.446 0.333 7.61 4.6 10.89
11/5/2021 7:00:00 PM 7.46 45.428 0.334 7.64 3.44 10.83
11/5/2021 7:15:00 PM 7.43 45.374 0.336 7.62 3.55 10.77
11/5/2021 7:30:00 PM 7.4 45.32 0.332 7.62 3.53 10.69
11/5/2021 7:45:00 PM 7.37 45.266 0.334 7.6 3.49 10.68
11/5/2021 8:00:00 PM 7.33 45.194 0.332 7.61 3.47 10.66
11/5/2021 8:15:00 PM 7.34 45.212 0.342 7.6 3.71 10.57
11/5/2021 8:30:00 PM 7.31 45.158 0.334 7.59 3.6 10.54
11/5/2021 8:45:00 PM 7.22 44.996 0.325 7.6 3.99 10.57
11/5/2021 9:00:00 PM 7.19 44.942 0.331 7.57 3.69 10.5
11/5/2021 9:15:00 PM 7.12 44.816 0.249 7.56 5.01 10.48
11/5/2021 9:30:00 PM 7.08 44.744 0.328 7.57 3.57 10.46
11/5/2021 9:45:00 PM 7.02 44.636 0.336 7.57 3.55 10.45
11/5/2021 10:00:00 PM 6.95 44.51 0.329 7.57 3.95 10.43
11/5/2021 10:15:00 PM 6.89 44.402 0.326 7.56 3.8 10.5
11/5/2021 10:30:00 PM 6.84 44.312 0.339 7.56 4.28 10.46
11/5/2021 10:45:00 PM 6.82 44.276 0.327 7.56 4.43 10.42
11/5/2021 11:00:00 PM 6.77 44.186 0.327 7.55 3.93 10.45
11/5/2021 11:15:00 PM 6.73 44.114 0.342 7.55 5.37 10.45
11/5/2021 11:30:00 PM 6.65 43.97 0.323 7.56 4.13 10.5
11/5/2021 11:45:00 PM 6.64 43.952 0.329 7.52 4.67 10.47
11/6/2021 12:00:00 AM 6.59 43.862 0.329 7.56 4.28 10.45
11/6/2021 12:15:00 AM 6.56 43.808 0.344 7.54 4.42 10.48
11/6/2021 12:30:00 AM 6.53 43.754 0.335 7.54 4.2 10.46
11/6/2021 12:45:00 AM 6.48 43.664 0.329 7.54 4.07 10.48
11/6/2021 1:00:00 AM 6.43 43.574 0.344 7.55 3.75 10.5
11/6/2021 1:15:00 AM 6.39 43.502 0.328 7.56 3.75 10.47
11/6/2021 1:30:00 AM 6.36 43.448 0.335 7.56 3.95 10.5
11/6/2021 1:45:00 AM 6.32 43.376 0.33 7.55 3.82 10.53
11/6/2021 2:00:00 AM 6.29 43.322 0.342 7.54 5.29 10.51
11/6/2021 2:15:00 AM 6.24 43.232 0.335 7.54 5.04 10.55
11/6/2021 2:30:00 AM 6.23 43.214 0.334 7.55 3.82 10.53
11/6/2021 2:45:00 AM 6.16 43.088 0.339 7.56 4.02 10.55
11/6/2021 3:00:00 AM 6.12 43.016 0.331 7.55 3.76 10.55
11/6/2021 3:15:00 AM 6.11 42.998 0.335 7.54 5.07 10.53
11/6/2021 3:30:00 AM 6.03 42.854 0.35 7.55 3.82 10.59
11/6/2021 3:45:00 AM 6.02 42.836 0.332 7.56 4.44 10.58
11/6/2021 4:00:00 AM 5.95 42.71 0.333 7.55 4.3 10.62
11/6/2021 4:15:00 AM 6 42.8 0.333 7.53 4.38 10.55
11/6/2021 4:30:00 AM 5.89 42.602 0.337 7.51 6.12 10.57
11/6/2021 4:45:00 AM 5.88 42.584 0.334 7.53 4.27 10.6
11/6/2021 5:00:00 AM 5.83 42.494 0.331 7.54 4.59 10.63
11/6/2021 5:15:00 AM 5.78 42.404 0.332 7.55 4.1 10.63
11/6/2021 5:30:00 AM 5.74 42.332 0.334 7.54 3.97 10.66
11/6/2021 5:45:00 AM 5.68 42.224 0.332 7.54 4.1 10.7
11/6/2021 6:00:00 AM 5.64 42.152 0.344 7.55 3.83 10.7
11/6/2021 6:15:00 AM 5.64 42.152 0.335 7.53 4.56 10.69
11/6/2021 6:30:00 AM 5.58 42.044 0.333 7.53 4.01 10.71
11/6/2021 6:45:00 AM 5.57 42.026 0.314 7.5 5.1 10.73
11/6/2021 7:00:00 AM 5.53 41.954 0.335 7.53 4.04 10.69
11/6/2021 7:15:00 AM 5.47 41.846 0.336 7.53 3.77 10.74
11/6/2021 7:30:00 AM 5.42 41.756 0.334 7.54 4.17 10.76
11/6/2021 7:45:00 AM 5.38 41.684 0.335 7.52 3.56 10.77
11/6/2021 8:00:00 AM 5.35 41.63 0.334 7.54 4 10.79
11/6/2021 8:15:00 AM 5.32 41.576 0.342 7.52 5.76 10.82
11/6/2021 8:30:00 AM 5.31 41.558 0.234 7.52 5.35 10.79
11/6/2021 8:45:00 AM 5.24 41.432 0.337 7.53 4.81 10.87
11/6/2021 9:00:00 AM 5.22 41.396 0.336 7.54 4.18 10.91
11/6/2021 9:15:00 AM 5.24 41.432 0.344 7.55 5.11 10.93
11/6/2021 9:30:00 AM 5.19 41.342 0.337 7.54 4.8 11.01
11/6/2021 9:45:00 AM 5.25 41.45 0.335 7.55 4.34 11.03
11/6/2021 10:00:00 AM 5.23 41.414 0.334 7.58 3.74 11.1
11/6/2021 10:15:00 AM 5.25 41.45 0.335 7.59 3.95 11.17
11/6/2021 10:30:00 AM 5.28 41.504 0.354 7.57 4.14 11.23
11/6/2021 10:45:00 AM 5.33 41.594 0.349 7.59 3.95 11.23
11/6/2021 11:00:00 AM 5.38 41.684 0.336 7.6 4.03 11.34
11/6/2021 11:15:00 AM 5.46 41.828 0.347 7.61 4.05 11.38
11/6/2021 11:30:00 AM 5.55 41.99 0.336 7.6 3.4 11.43
11/6/2021 11:45:00 AM 5.63 42.134 0.34 7.62 3.2 11.46
11/6/2021 12:00:00 PM 5.76 42.368 0.344 7.58 3.41 11.54
11/6/2021 12:15:00 PM 5.84 42.512 0.347 7.63 3.66 11.57
11/6/2021 12:30:00 PM 5.95 42.71 0.334 7.63 3.24 11.6
11/6/2021 12:45:00 PM 6.14 43.052 0.353 7.63 3.28 11.62
11/6/2021 1:00:00 PM 6.22 43.196 0.351 7.65 3.6 11.66
11/6/2021 1:15:00 PM 6.36 43.448 0.336 7.65 3.69 11.69
11/6/2021 1:30:00 PM 6.49 43.682 0.34 7.67 3.25 11.68
11/6/2021 1:45:00 PM 6.62 43.916 0.351 7.67 3.22 11.67
11/6/2021 2:00:00 PM 6.71 44.078 0.347 7.68 3.45 11.7
11/6/2021 2:15:00 PM 6.85 44.33 0.348 7.68 3.52 11.65
11/6/2021 2:30:00 PM 6.92 44.456 0.335 7.68 3.56 11.66
11/6/2021 2:45:00 PM 7.01 44.618 0.352 7.7 3.54 11.66
11/6/2021 3:00:00 PM 7.17 44.906 0.339 7.68 3.27 11.49
11/6/2021 3:15:00 PM 7.16 44.888 0.34 7.71 3.13 11.64
11/6/2021 3:30:00 PM 7.24 45.032 0.34 7.71 2.95 11.58
11/6/2021 3:45:00 PM 7.27 45.086 0.351 7.71 3.14 11.57
11/6/2021 4:00:00 PM 7.33 45.194 0.348 7.7 3.35 11.51
11/6/2021 4:15:00 PM 7.36 45.248 0.354 7.7 4.11 11.48
11/6/2021 4:30:00 PM 7.41 45.338 0.339 7.69 3.65 11.36
11/6/2021 4:45:00 PM 7.42 45.356 0.341 7.71 3.35 11.33
11/6/2021 5:00:00 PM 7.43 45.374 0.341 7.69 3.2 11.31
11/6/2021 5:15:00 PM 7.46 45.428 0.364 7.68 3.78 11.29
11/6/2021 5:30:00 PM 7.46 45.428 0.34 7.7 3.14 11.22
11/6/2021 5:45:00 PM 7.46 45.428 0.34 7.69 3.01 11.12
11/6/2021 6:00:00 PM 7.44 45.392 0.339 7.69 3.21 11.07
11/6/2021 6:15:00 PM 7.44 45.392 0.34 7.68 3.15 11
11/6/2021 6:30:00 PM 7.46 45.428 0.343 7.66 3.07 10.86
11/6/2021 6:45:00 PM 7.43 45.374 0.339 7.67 3.14 10.85
11/6/2021 7:00:00 PM 7.43 45.374 0.36 7.64 3.79 10.64
11/6/2021 7:15:00 PM 7.4 45.32 0.34 7.65 4.13 10.67
11/6/2021 7:30:00 PM 7.32 45.176 0.34 7.65 3.31 10.68
11/6/2021 7:45:00 PM 7.27 45.086 0.34 7.63 4.19 10.66
11/6/2021 8:00:00 PM 7.24 45.032 0.338 7.64 3.18 10.6
11/6/2021 8:15:00 PM 7.22 44.996 0.366 7.62 4.4 10.56
11/6/2021 8:30:00 PM 7.17 44.906 0.336 7.63 3.77 10.54
11/6/2021 8:45:00 PM 7.13 44.834 0.344 7.62 4 10.5
11/6/2021 9:00:00 PM 7.06 44.708 0.34 7.63 3.62 10.5
11/6/2021 9:15:00 PM 7.01 44.618 0.339 7.62 3.94 10.48
11/6/2021 9:30:00 PM 6.95 44.51 0.337 7.61 3.72 10.45
11/6/2021 9:45:00 PM 6.9 44.42 0.362 7.6 4.54 10.41
11/6/2021 10:00:00 PM 6.85 44.33 0.344 7.6 4.39 10.42
11/6/2021 10:15:00 PM 6.8 44.24 0.336 7.59 4.65 10.4
11/6/2021 10:30:00 PM 6.75 44.15 0.344 7.58 5.57 10.42
11/6/2021 10:45:00 PM 6.7 44.06 0.341 7.6 4.52 10.43
11/6/2021 11:00:00 PM 6.67 44.006 0.353 7.57 7.16 10.42
11/6/2021 11:15:00 PM 6.63 43.934 0.341 7.6 4.3 10.42
11/6/2021 11:30:00 PM 6.58 43.844 0.341 7.59 4.86 10.44
11/6/2021 11:45:00 PM 6.54 43.772 0.346 7.57 4.84 10.42
11/7/2021 12:00:00 AM 6.49 43.682 0.344 7.58 4.21 10.45
11/7/2021 12:15:00 AM 6.43 43.574 0.27 7.59 3.45 10.46
11/7/2021 12:30:00 AM 6.37 43.466 0.356 7.58 4.9 10.47
11/7/2021 12:45:00 AM 6.32 43.376 0.354 7.59 3.51 10.5
11/7/2021 1:00:00 AM 6.27 43.286 0.348 7.58 3.65 10.49
11/7/2021 1:15:00 AM 6.21 43.178 0.346 7.57 4.68 10.52
11/7/2021 1:30:00 AM 6.15 43.07 0.345 7.56 4.7 10.53
11/7/2021 1:45:00 AM 6.07 42.926 0.337 7.57 4.35 10.56
11/7/2021 2:00:00 AM 6.01 42.818 0.338 7.56 5.01 10.58
11/7/2021 2:15:00 AM 5.96 42.728 0.359 7.57 4.29 10.59
11/7/2021 2:30:00 AM 5.91 42.638 0.352 7.55 5.1 10.58
11/7/2021 2:45:00 AM 5.86 42.548 0.338 7.57 3.91 10.59
11/7/2021 3:00:00 AM 5.81 42.458 0.351 7.58 3.75 10.61
11/7/2021 3:15:00 AM 5.79 42.422 0.34 7.56 3.92 10.62
11/7/2021 3:30:00 AM 5.73 42.314 0.297 7.57 3.73 10.62
11/7/2021 3:45:00 AM 5.69 42.242 0.337 7.56 3.86 10.65
11/7/2021 4:00:00 AM 5.65 42.17 0.348 7.56 3.84 10.65
11/7/2021 4:15:00 AM 5.62 42.116 0.357 7.57 3.86 10.66
11/7/2021 4:30:00 AM 5.59 42.062 0.336 7.56 4.53 10.67
11/7/2021 4:45:00 AM 5.53 41.954 0.336 7.56 4.1 10.7
11/7/2021 5:00:00 AM 5.5 41.9 0.339 7.56 4.08 10.68
11/7/2021 5:15:00 AM 5.45 41.81 0.341 7.55 4.06 10.72
11/7/2021 5:30:00 AM 5.42 41.756 0.351 7.56 4.05 10.72
11/7/2021 5:45:00 AM 5.38 41.684 0.348 7.55 5.23 10.72
11/7/2021 6:00:00 AM 5.32 41.576 0.334 7.57 4.04 10.77
11/7/2021 6:15:00 AM 5.3 41.54 0.353 7.55 4.89 10.75
11/7/2021 6:30:00 AM 5.27 41.486 0.337 7.56 3.74 10.76
11/7/2021 6:45:00 AM 5.25 41.45 0.343 7.53 4.13 10.74
11/7/2021 7:00:00 AM 5.2 41.36 0.345 7.53 5.57 10.77
11/7/2021 7:15:00 AM 5.17 41.306 0.343 7.55 4.08 10.77
11/7/2021 7:30:00 AM 5.12 41.216 0.359 7.55 4.29 10.8
11/7/2021 7:45:00 AM 5.08 41.144 0.359 7.55 4.99 10.82
11/7/2021 8:00:00 AM 5.05 41.09 0.349 7.54 3.57 10.83
11/7/2021 8:15:00 AM 5.02 41.036 0.318 7.55 5.58 10.84
11/7/2021 8:30:00 AM 4.99 40.982 0.341 7.55 3.48 10.87
11/7/2021 8:45:00 AM 4.96 40.928 0.341 7.53 4.13 10.91
11/7/2021 9:00:00 AM 4.95 40.91 0.344 7.55 4.91 10.94
11/7/2021 9:15:00 AM 4.95 40.91 0.341 7.56 3.64 10.99
11/7/2021 9:30:00 AM 4.96 40.928 0.341 7.57 4.27 11.03
11/7/2021 9:45:00 AM 4.97 40.946 0.369 7.57 4.41 11.09
11/7/2021 10:00:00 AM 5 41 0.349 7.58 3.27 11.11
11/7/2021 10:15:00 AM 5.03 41.054 0.349 7.59 3.15 11.18
11/7/2021 10:30:00 AM 5.08 41.144 0.307 7.58 4.42 11.24
11/7/2021 10:45:00 AM 5.13 41.234 0.346 7.59 3.87 11.3
11/7/2021 11:00:00 AM 5.19 41.342 0.343 7.61 3.27 11.36
11/7/2021 11:15:00 AM 5.27 41.486 0.344 7.61 3.09 11.42
11/7/2021 11:30:00 AM 5.36 41.648 0.362 7.62 3.21 11.46
11/7/2021 11:45:00 AM 5.46 41.828 0.363 7.63 3.22 11.49
11/7/2021 12:00:00 PM 5.57 42.026 0.361 7.63 3.17 11.53
11/7/2021 12:15:00 PM 5.68 42.224 0.345 7.65 3.23 11.59
11/7/2021 12:30:00 PM 5.82 42.476 0.347 7.65 3.1 11.65
11/7/2021 12:45:00 PM 5.95 42.71 0.348 7.66 3.05 11.71
11/7/2021 1:00:00 PM 6.09 42.962 0.345 7.66 3.04 11.72
11/7/2021 1:15:00 PM 6.23 43.214 0.346 7.68 3.05 11.73
11/7/2021 1:30:00 PM 6.38 43.484 0.36 7.67 5.58 11.74
11/7/2021 1:45:00 PM 6.51 43.718 0.352 7.7 3.06 11.76
11/7/2021 2:00:00 PM 6.65 43.97 0.364 7.69 3.08 11.77
11/7/2021 2:15:00 PM 6.78 44.204 0.364 7.7 3.23 11.74
11/7/2021 2:30:00 PM 6.88 44.384 0.361 7.7 3.07 11.75
11/7/2021 2:45:00 PM 7.01 44.618 0.345 7.72 3.34 11.72
11/7/2021 3:00:00 PM 7.1 44.78 0.345 7.73 3.41 11.7
11/7/2021 3:15:00 PM 7.19 44.942 0.345 7.72 3.51 11.67
11/7/2021 3:30:00 PM 7.26 45.068 0.348 7.72 3.34 11.64
11/7/2021 3:45:00 PM 7.32 45.176 0.349 7.72 4.99 11.6
11/7/2021 4:00:00 PM 7.37 45.266 0.346 7.72 3.07 11.56
11/7/2021 4:15:00 PM 7.41 45.338 0.367 7.7 4.09 11.52
11/7/2021 4:30:00 PM 7.44 45.392 0.357 7.72 4.18 11.49
11/7/2021 4:45:00 PM 7.47 45.446 0.352 7.72 3.13 11.43
11/7/2021 5:00:00 PM 7.49 45.482 0.367 7.7 3.65 11.36
11/7/2021 5:15:00 PM 7.53 45.554 0.353 7.7 3.73 11.29
11/7/2021 5:30:00 PM 7.53 45.554 0.351 7.71 2.94 11.23
11/7/2021 5:45:00 PM 7.54 45.572 0.351 7.71 2.97 11.16
11/7/2021 6:00:00 PM 7.55 45.59 0.354 7.7 3.61 11.06
11/7/2021 6:15:00 PM 7.55 45.59 0.35 7.69 5.19 10.98
11/7/2021 6:30:00 PM 7.54 45.572 0.351 7.7 2.82 10.93
11/7/2021 6:45:00 PM 7.55 45.59 0.36 7.7 2.82 10.83
11/7/2021 7:00:00 PM 7.53 45.554 0.361 7.68 2.96 10.76
11/7/2021 7:15:00 PM 7.51 45.518 0.357 7.68 3.02 10.71
11/7/2021 7:30:00 PM 7.48 45.464 0.362 7.67 3.05 10.66
11/7/2021 7:45:00 PM 7.47 45.446 0.351 7.67 3.02 10.6
11/7/2021 8:00:00 PM 7.44 45.392 0.351 7.64 5.56 10.56
11/7/2021 8:15:00 PM 7.42 45.356 0.349 7.66 3.38 10.51
11/7/2021 8:30:00 PM 7.38 45.284 0.353 7.65 3.23 10.47
11/7/2021 8:45:00 PM 7.35 45.23 0.348 7.64 3.29 10.43
11/7/2021 9:00:00 PM 7.32 45.176 0.352 7.63 5.63 10.39
11/7/2021 9:15:00 PM 7.27 45.086 0.352 7.61 4.44 10.38
11/7/2021 9:30:00 PM 7.22 44.996 0.362 7.63 4.38 10.35
11/7/2021 9:45:00 PM 7.17 44.906 0.363 7.6 4.57 10.35
11/7/2021 10:00:00 PM 7.13 44.834 0.361 7.62 5.18 10.33
11/7/2021 10:15:00 PM 7.08 44.744 0.356 7.6 6.34 10.32
11/7/2021 10:30:00 PM 7.03 44.654 0.348 7.62 4.23 10.32
11/7/2021 10:45:00 PM 7 44.6 0.35 7.6 4.16 10.31
11/7/2021 11:00:00 PM 6.95 44.51 0.353 7.58 4.85 10.32
11/7/2021 11:15:00 PM 6.9 44.42 0.348 7.6 3.56 10.33
11/7/2021 11:30:00 PM 6.86 44.348 0.368 7.58 4.5 10.34
11/7/2021 11:45:00 PM 6.82 44.276 0.348 7.6 4.42 10.35
11/8/2021 12:00:00 AM 6.78 44.204 0.344 7.59 5.28 10.35
11/8/2021 12:15:00 AM 6.74 44.132 0.345 7.56 3.8 10.36
11/8/2021 12:30:00 AM 6.69 44.042 0.349 7.58 4.85 10.37
11/8/2021 12:45:00 AM 6.65 43.97 0.356 7.56 3.45 10.39
11/8/2021 1:00:00 AM 6.62 43.916 0.354 7.59 4.4 10.39
11/8/2021 1:15:00 AM 6.57 43.826 0.355 7.59 3.34 10.4
11/8/2021 1:30:00 AM 6.53 43.754 0.349 7.58 4.11 10.41
11/8/2021 1:45:00 AM 6.49 43.682 0.344 7.59 3.22 10.41
11/8/2021 2:00:00 AM 6.46 43.628 0.348 7.58 3.46 10.43
11/8/2021 2:15:00 AM 6.4 43.52 0.349 7.57 3.87 10.44
11/8/2021 2:30:00 AM 6.36 43.448 0.355 7.58 3.6 10.45
11/8/2021 2:45:00 AM 6.33 43.394 0.362 7.58 3.58 10.45
11/8/2021 3:00:00 AM 6.29 43.322 0.359 7.58 4.05 10.47
11/8/2021 3:15:00 AM 6.25 43.25 0.353 7.56 5.23 10.47
11/8/2021 3:30:00 AM 6.21 43.178 0.35 7.58 4.4 10.49
11/8/2021 3:45:00 AM 6.18 43.124 0.209 7.56 4.69 10.51
11/8/2021 4:00:00 AM 6.15 43.07 0.351 7.58 3.58 10.5
11/8/2021 4:15:00 AM 6.11 42.998 0.361 7.58 4.56 10.5
11/8/2021 4:30:00 AM 6.07 42.926 0.355 7.59 5 10.52
11/8/2021 4:45:00 AM 6.04 42.872 0.362 7.57 5.41 10.53
11/8/2021 5:00:00 AM 6.02 42.836 0.351 7.58 3.82 10.52
11/8/2021 5:15:00 AM 6 42.8 0.348 7.57 4.59 10.52
11/8/2021 5:30:00 AM 5.95 42.71 0.198 7.57 3.67 10.54
11/8/2021 5:45:00 AM 5.93 42.674 0.352 7.58 4.55 10.54
11/8/2021 6:00:00 AM 5.9 42.62 0.352 7.57 4.9 10.55
11/8/2021 6:15:00 AM 5.87 42.566 0.363 7.58 4.14 10.56
11/8/2021 6:30:00 AM 5.83 42.494 0.362 7.58 3.49 10.58
11/8/2021 6:45:00 AM 5.81 42.458 0.348 7.58 4.99 10.57
11/8/2021 7:00:00 AM 5.78 42.404 0.348 7.59 3.73 10.58
11/8/2021 7:15:00 AM 5.75 42.35 0.349 7.58 3.41 10.58
11/8/2021 7:30:00 AM 5.74 42.332 0.35 7.58 3.41 10.59
11/8/2021 7:45:00 AM 5.69 42.242 0.349 7.57 3.27 10.62
11/8/2021 8:00:00 AM 5.66 42.188 0.359 7.59 3.39 10.63
11/8/2021 8:15:00 AM 5.65 42.17 0.364 7.58 3.17 10.64
11/8/2021 8:30:00 AM 5.62 42.116 0.367 7.57 3.4 10.67
11/8/2021 8:45:00 AM 5.6 42.08 0.347 7.58 3.23 10.7
11/8/2021 9:00:00 AM 5.6 42.08 0.351 7.59 3.13 10.73
11/8/2021 9:15:00 AM 5.59 42.062 0.35 7.59 3.18 10.77
11/8/2021 9:30:00 AM 5.6 42.08 0.351 7.59 3.04 10.83
11/8/2021 9:45:00 AM 5.62 42.116 0.366 7.58 3.73 10.9
11/8/2021 10:00:00 AM 5.66 42.188 0.369 7.6 2.99 10.95
11/8/2021 10:15:00 AM 5.69 42.242 0.364 7.61 2.99 11.02
11/8/2021 10:30:00 AM 5.75 42.35 0.358 7.62 3.53 11.08
11/8/2021 10:45:00 AM 5.8 42.44 0.351 7.62 2.98 11.15
11/8/2021 11:00:00 AM 5.88 42.584 0.354 7.63 2.98 11.21
11/8/2021 11:15:00 AM 5.96 42.728 0.349 7.64 3.21 11.25
11/8/2021 11:30:00 AM 6.05 42.89 0.353 7.64 3.62 11.32
11/8/2021 11:45:00 AM 6.15 43.07 0.358 7.64 3.43 11.38
11/8/2021 12:00:00 PM 6.26 43.268 0.353 7.65 4.44 11.42
11/8/2021 12:15:00 PM 6.38 43.484 0.371 7.64 5.72 11.49
11/8/2021 12:30:00 PM 6.51 43.718 0.364 7.67 3.95 11.53
11/8/2021 12:45:00 PM 6.66 43.988 0.353 7.67 3.6 11.58
11/8/2021 1:00:00 PM 6.81 44.258 0.357 7.69 3.61 11.61
11/8/2021 1:15:00 PM 6.96 44.528 0.356 7.7 2.76 11.64
11/8/2021 1:30:00 PM 7.13 44.834 0.351 7.71 2.79 11.65
11/8/2021 1:45:00 PM 7.28 45.104 0.35 7.71 2.72 11.66
11/8/2021 2:00:00 PM 7.42 45.356 0.354 7.7 2.68 11.65
11/8/2021 2:15:00 PM 7.56 45.608 0.374 7.71 2.74 11.64
11/8/2021 2:30:00 PM 7.68 45.824 0.333 7.71 3.69 11.66
11/8/2021 2:45:00 PM 7.81 46.058 0.373 7.71 2.92 11.63
11/8/2021 3:00:00 PM 7.91 46.238 0.37 7.73 2.84 11.6
11/8/2021 3:15:00 PM 8.01 46.418 0.37 7.71 3.96 11.59
11/8/2021 3:30:00 PM 8.11 46.598 0.355 7.73 2.76 11.55
11/8/2021 3:45:00 PM 8.18 46.724 0.358 7.72 3.5 11.49
11/8/2021 4:00:00 PM 8.24 46.832 0.356 7.72 2.8 11.46
11/8/2021 4:15:00 PM 8.29 46.922 0.356 7.73 2.84 11.42
11/8/2021 4:30:00 PM 8.34 47.012 0.373 7.73 3.26 11.36
11/8/2021 4:45:00 PM 8.37 47.066 0.375 7.73 4.18 11.28
11/8/2021 5:00:00 PM 8.41 47.138 0.354 7.74 3.54 11.23
11/8/2021 5:15:00 PM 8.42 47.156 0.364 7.73 2.78 11.17
11/8/2021 5:30:00 PM 8.43 47.174 0.362 7.72 3.56 11.1
11/8/2021 5:45:00 PM 8.44 47.192 0.356 7.72 2.79 11.01
11/8/2021 6:00:00 PM 8.42 47.156 0.358 7.71 2.82 10.92
11/8/2021 6:15:00 PM 8.41 47.138 0.357 7.7 2.79 10.84
11/8/2021 6:30:00 PM 8.4 47.12 0.379 7.68 3.45 10.75
11/8/2021 6:45:00 PM 8.38 47.084 0.373 7.69 2.82 10.69
11/8/2021 7:00:00 PM 8.36 47.048 0.368 7.67 2.73 10.61
11/8/2021 7:15:00 PM 8.35 47.03 0.364 7.68 2.87 10.52
11/8/2021 7:30:00 PM 8.33 46.994 0.361 7.66 3.1 10.46
11/8/2021 7:45:00 PM 8.32 46.976 0.354 7.67 3.02 10.39
11/8/2021 8:00:00 PM 8.29 46.922 0.355 7.65 3.05 10.35
11/8/2021 8:15:00 PM 8.26 46.868 0.358 7.63 3.7 10.29
11/8/2021 8:30:00 PM 8.24 46.832 0.378 7.64 3.19 10.24
11/8/2021 8:45:00 PM 8.21 46.778 0.377 7.64 3.23 10.2
11/8/2021 9:00:00 PM 8.18 46.724 0.375 7.62 4.16 10.15
11/8/2021 9:15:00 PM 8.15 46.67 0.368 7.62 3.31 10.11
11/8/2021 9:30:00 PM 8.11 46.598 0.364 7.6 5.83 10.1
11/8/2021 9:45:00 PM 8.07 46.526 0.356 7.61 3.28 10.06
11/8/2021 10:00:00 PM 8.03 46.454 0.356 7.6 3.12 10.06
11/8/2021 10:15:00 PM 8 46.4 0.356 7.61 3.13 10
11/8/2021 10:30:00 PM 7.95 46.31 0.359 7.61 3.08 10.03
11/8/2021 10:45:00 PM 7.91 46.238 0.385 7.58 3.8 10.02
11/8/2021 11:00:00 PM 7.87 46.166 0.374 7.6 3.25 10.02
11/8/2021 11:15:00 PM 7.85 46.13 0.312 7.58 4.32 10.02
11/8/2021 11:30:00 PM 7.82 46.076 0.361 7.6 4.87 10
11/8/2021 11:45:00 PM 7.79 46.022 0.361 7.58 4.91 10
11/9/2021 12:00:00 AM 7.76 45.968 0.359 7.59 4.44 10.01
11/9/2021 12:15:00 AM 7.74 45.932 0.359 7.59 4.43 10.01
11/9/2021 12:30:00 AM 7.7 45.86 0.366 7.59 4.17 10.02
11/9/2021 12:45:00 AM 7.68 45.824 0.372 7.59 3.97 10.02
11/9/2021 1:00:00 AM 7.65 45.77 0.37 7.59 3.95 10.01
11/9/2021 1:15:00 AM 7.61 45.698 0.374 7.6 3.54 10.03
11/9/2021 1:30:00 AM 7.57 45.626 0.365 7.6 3.97 10.04
11/9/2021 1:45:00 AM 7.54 45.572 0.358 7.6 3.32 10.04
11/9/2021 2:00:00 AM 7.5 45.5 0.361 7.59 3.17 10.04
11/9/2021 2:15:00 AM 7.46 45.428 0.357 7.59 3.21 10.05
11/9/2021 2:30:00 AM 7.43 45.374 0.356 7.58 3.39 10.08
11/9/2021 2:45:00 AM 7.37 45.266 0.383 7.59 3.35 10.1
11/9/2021 3:00:00 AM 7.35 45.23 0.359 7.6 3.19 10.08
11/9/2021 3:15:00 AM 7.3 45.14 0.37 7.59 3.23 10.11
11/9/2021 3:30:00 AM 7.29 45.122 0.368 7.59 3.35 10.08
11/9/2021 3:45:00 AM 7.23 45.014 0.373 7.59 3.47 10.1
11/9/2021 4:00:00 AM 7.19 44.942 0.364 7.57 3.72 10.12
11/9/2021 4:15:00 AM 7.16 44.888 0.357 7.59 3.16 10.13
11/9/2021 4:30:00 AM 7.14 44.852 0.363 7.59 3.3 10.13
11/9/2021 4:45:00 AM 7.09 44.762 0.362 7.47 3.92 10.15
11/9/2021 5:00:00 AM 7.05 44.69 0.376 7.58 4.12 10.16
11/9/2021 5:15:00 AM 7.03 44.654 0.38 7.57 4.45 10.16
11/9/2021 5:30:00 AM 6.99 44.582 0.375 7.58 3.78 10.17
11/9/2021 5:45:00 AM 6.95 44.51 0.372 7.57 4.19 10.18
11/9/2021 6:00:00 AM 6.92 44.456 0.363 7.55 5.11 10.19
11/9/2021 6:15:00 AM 6.9 44.42 0.36 7.57 3.74 10.19
11/9/2021 6:30:00 AM 6.87 44.366 0.358 7.58 3.81 10.2
11/9/2021 6:45:00 AM 6.84 44.312 0.385 7.58 3.67 10.21
11/9/2021 7:00:00 AM 6.8 44.24 0.345 7.59 4.48 10.21
11/9/2021 7:15:00 AM 6.78 44.204 0.372 7.57 4.73 10.22
11/9/2021 7:30:00 AM 6.77 44.186 0.362 7.57 3.53 10.21
11/9/2021 7:45:00 AM 6.73 44.114 0.367 7.54 449.23 10.23
11/9/2021 8:00:00 AM 6.71 44.078 0.364 7.58 7.35 10.23
11/9/2021 8:15:00 AM 6.7 44.06 0.361 7.58 5.75 10.27
11/9/2021 8:30:00 AM 6.68 44.024 0.375 7.58 4.5 10.29
11/9/2021 8:45:00 AM 6.67 44.006 0.268 7.58 3.19 10.32
11/9/2021 9:00:00 AM 6.67 44.006 0.373 7.58 3.04 10.35
11/9/2021 9:15:00 AM 6.67 44.006 0.236 7.59 3.75 10.4
11/9/2021 9:30:00 AM 6.7 44.06 0.364 7.6 3.19 10.5
11/9/2021 9:45:00 AM 6.74 44.132 0.363 7.61 3.75 10.58
11/9/2021 10:00:00 AM 6.82 44.276 0.361 7.6 2.97 10.66
11/9/2021 10:15:00 AM 6.88 44.384 0.36 7.63 2.88 10.75
11/9/2021 10:30:00 AM 6.94 44.492 0.388 7.63 2.98 10.77
11/9/2021 10:45:00 AM 7.02 44.636 0.386 7.65 2.94 10.88
11/9/2021 11:00:00 AM 7.08 44.744 0.39 7.64 2.85 10.96
11/9/2021 11:15:00 AM 7.19 44.942 0.375 7.66 2.86 11.04
11/9/2021 11:30:00 AM 7.3 45.14 0.38 7.67 2.74 11.13
11/9/2021 11:45:00 AM 7.41 45.338 0.364 7.68 2.9 11.19
11/9/2021 12:00:00 PM 7.52 45.536 0.366 7.68 2.88 11.23
11/9/2021 12:15:00 PM 7.62 45.716 0.361 7.69 2.91 11.3
11/9/2021 12:30:00 PM 7.73 45.914 0.363 7.69 4.33 11.36
11/9/2021 12:45:00 PM 7.86 46.148 0.359 7.71 2.78 11.41
11/9/2021 1:00:00 PM 7.99 46.382 0.381 7.72 2.81 11.46
11/9/2021 1:15:00 PM 8.12 46.616 0.383 7.72 2.8 11.49
11/9/2021 1:30:00 PM 8.24 46.832 0.343 7.74 2.7 11.55
11/9/2021 1:45:00 PM 8.38 47.084 0.37 7.74 2.77 11.58
11/9/2021 2:00:00 PM 8.53 47.354 0.206 7.74 3.42 11.61
11/9/2021 2:15:00 PM 8.65 47.57 0.364 7.76 2.86 11.62
11/9/2021 2:30:00 PM 8.75 47.75 0.36 7.77 2.75 11.59
11/9/2021 2:45:00 PM 8.89 48.002 0.36 7.78 2.75 11.61
11/9/2021 3:00:00 PM 8.98 48.164 0.383 7.78 2.67 11.6
11/9/2021 3:15:00 PM 9.07 48.326 0.385 7.79 2.67 11.61
11/9/2021 3:30:00 PM 9.14 48.452 0.385 7.78 2.85 11.54
11/9/2021 3:45:00 PM 9.18 48.524 0.374 7.78 5.72 11.49
11/9/2021 4:00:00 PM 9.21 48.578 0.371 7.76 3.31 11.43
11/9/2021 4:15:00 PM 9.25 48.65 0.364 7.76 4.29 11.4
11/9/2021 4:30:00 PM 9.28 48.704 0.361 7.77 3.24 11.31
11/9/2021 4:45:00 PM 9.3 48.74 0.363 7.76 4.37 11.2
11/9/2021 5:00:00 PM 9.3 48.74 0.36 7.76 2.69 11.11
11/9/2021 5:15:00 PM 9.31 48.758 0.382 7.74 3.7 11
11/9/2021 5:30:00 PM 9.31 48.758 0.263 7.75 2.92 10.91
11/9/2021 5:45:00 PM 9.31 48.758 0.384 7.73 2.78 10.83
11/9/2021 6:00:00 PM 9.31 48.758 0.372 7.73 2.66 10.74
11/9/2021 6:15:00 PM 9.3 48.74 0.374 7.71 2.78 10.62
11/9/2021 6:30:00 PM 9.29 48.722 0.209 7.7 3.53 10.56
11/9/2021 6:45:00 PM 9.28 48.704 0.362 7.7 2.72 10.47
11/9/2021 7:00:00 PM 9.29 48.722 0.362 7.66 2.68 10.36
11/9/2021 7:15:00 PM 9.29 48.722 0.366 7.68 2.9 10.29
11/9/2021 7:30:00 PM 9.29 48.722 0.297 7.68 2.9 10.22
11/9/2021 7:45:00 PM 9.3 48.74 0.386 7.66 2.83 10.15
11/9/2021 8:00:00 PM 9.3 48.74 0.384 7.65 2.95 10.08
11/9/2021 8:15:00 PM 9.31 48.758 0.378 7.65 2.92 10.02
11/9/2021 8:30:00 PM 9.33 48.794 0.368 7.62 4.13 9.93
11/9/2021 8:45:00 PM 9.34 48.812 0.359 7.64 3.07 9.88
11/9/2021 9:00:00 PM 9.34 48.812 0.363 7.63 3.03 9.84
11/9/2021 9:15:00 PM 9.35 48.83 0.365 7.61 3.07 9.78
11/9/2021 9:30:00 PM 9.35 48.83 0.364 7.62 3.44 9.75
11/9/2021 9:45:00 PM 9.36 48.848 0.384 7.61 3.93 9.71
11/9/2021 10:00:00 PM 9.37 48.866 0.386 7.6 3.54 9.63
11/9/2021 10:15:00 PM 9.37 48.866 0.385 7.58 3.46 9.62
11/9/2021 10:30:00 PM 9.38 48.884 0.382 7.6 3.17 9.61
11/9/2021 10:45:00 PM 9.38 48.884 0.368 7.59 3.77 9.59
11/9/2021 11:00:00 PM 9.39 48.902 0.373 7.57 4.04 9.57
11/9/2021 11:15:00 PM 9.4 48.92 0.366 7.56 3.77 9.56
11/9/2021 11:30:00 PM 9.4 48.92 0.365 7.57 3.45 9.55
11/9/2021 11:45:00 PM 9.4 48.92 0.36 7.57 4.17 9.53
11/10/2021 12:00:00 AM 9.39 48.902 0.359 7.57 3.4 9.53
11/10/2021 12:15:00 AM 9.39 48.902 0.394 7.55 4.32 9.5
11/10/2021 12:30:00 AM 9.39 48.902 0.348 7.58 3.56 9.51
11/10/2021 12:45:00 AM 9.39 48.902 0.348 7.58 3.29 9.47
11/10/2021 1:00:00 AM 9.38 48.884 0.374 7.57 4.7 9.49
11/10/2021 1:15:00 AM 9.37 48.866 0.374 7.55 4.35 9.49
11/10/2021 1:30:00 AM 9.36 48.848 0.37 7.58 3.43 9.5
11/10/2021 1:45:00 AM 9.35 48.83 0.365 7.57 3.65 9.48
11/10/2021 2:00:00 AM 9.34 48.812 0.365 7.57 3.56 9.48
11/10/2021 2:15:00 AM 9.32 48.776 0.365 7.57 4.05 9.48
11/10/2021 2:30:00 AM 9.32 48.776 0.368 7.57 3.75 9.46
11/10/2021 2:45:00 AM 9.3 48.74 0.394 7.56 3.38 9.48
11/10/2021 3:00:00 AM 9.29 48.722 0.397 7.57 4.1 9.47
11/10/2021 3:15:00 AM 9.28 48.704 0.39 7.57 3.42 9.48
11/10/2021 3:30:00 AM 9.29 48.722 0.386 7.57 3.5 9.44
11/10/2021 3:45:00 AM 9.29 48.722 0.379 7.56 5.77 9.47
11/10/2021 4:00:00 AM 9.3 48.74 0.369 7.56 3.76 9.41
11/10/2021 4:15:00 AM 9.27 48.686 0.368 7.57 4.26 9.49
11/10/2021 4:30:00 AM 9.27 48.686 0.366 7.57 4.17 9.47
11/10/2021 4:45:00 AM 9.28 48.704 0.367 7.57 4.25 9.44
11/10/2021 5:00:00 AM 9.26 48.668 0.371 7.58 4.49 9.47
11/10/2021 5:15:00 AM 9.27 48.686 0.392 7.56 4.73 9.45
11/10/2021 5:30:00 AM 9.27 48.686 0.393 7.56 4.76 9.45
11/10/2021 5:45:00 AM 9.26 48.668 0.377 7.57 3.64 9.44
11/10/2021 6:00:00 AM 9.27 48.686 0.38 7.58 3.77 9.46
11/10/2021 6:15:00 AM 9.27 48.686 0.371 7.57 4.68 9.43
11/10/2021 6:30:00 AM 9.26 48.668 0.368 7.57 4.12 9.44
11/10/2021 6:45:00 AM 9.26 48.668 0.364 7.58 3.83 9.42
11/10/2021 7:00:00 AM 9.26 48.668 0.366 7.56 3.69 9.45
11/10/2021 7:15:00 AM 9.26 48.668 0.366 7.58 3.85 9.44
11/10/2021 7:30:00 AM 9.26 48.668 0.258 7.56 4.18 9.44
11/10/2021 7:45:00 AM 9.25 48.65 0.392 7.57 3.7 9.44
11/10/2021 8:00:00 AM 9.26 48.668 0.386 7.58 3.3 9.43
11/10/2021 8:15:00 AM 9.25 48.65 0.371 7.58 5.52 9.43
11/10/2021 8:30:00 AM 9.25 48.65 0.382 7.56 3.17 9.46
11/10/2021 8:45:00 AM 9.25 48.65 0.281 7.57 4.09 9.47
11/10/2021 9:00:00 AM 9.25 48.65 0.37 7.58 3.23 9.49
11/10/2021 9:15:00 AM 9.25 48.65 0.364 7.57 5.7 9.55
11/10/2021 9:30:00 AM 9.28 48.704 0.366 7.58 3.13 9.66
11/10/2021 9:45:00 AM 9.3 48.74 0.365 7.61 3.07 9.73
11/10/2021 10:00:00 AM 9.32 48.776 0.393 7.6 3.89 9.84
11/10/2021 10:15:00 AM 9.34 48.812 0.399 7.6 5.33 9.86
11/10/2021 10:30:00 AM 9.37 48.866 0.388 7.62 3.13 9.98
11/10/2021 10:45:00 AM 9.41 48.938 0.382 7.63 3.6 10.1
11/10/2021 11:00:00 AM 9.47 49.046 0.374 7.64 3.14 10.22
11/10/2021 11:15:00 AM 9.52 49.136 0.369 7.64 3.11 10.31
11/10/2021 11:30:00 AM 9.58 49.244 0.366 7.65 4.02 10.38
11/10/2021 11:45:00 AM 9.64 49.352 0.299 7.65 3.61 10.47
11/10/2021 12:00:00 PM 9.71 49.478 0.363 7.66 3.18 10.5
11/10/2021 12:15:00 PM 9.79 49.622 0.362 7.68 3.05 10.63
11/10/2021 12:30:00 PM 9.85 49.73 0.39 7.7 3.05 10.72
11/10/2021 12:45:00 PM 9.93 49.874 0.399 7.69 4.27 10.77
11/10/2021 1:00:00 PM 10 50 0.391 7.71 3.03 10.85
11/10/2021 1:15:00 PM 10.07 50.126 0.38 7.73 3.88 10.91
11/10/2021 1:30:00 PM 10.14 50.252 0.387 7.73 2.91 10.99
11/10/2021 1:45:00 PM 10.2 50.36 0.381 7.74 3.95 11.05
11/10/2021 2:00:00 PM 10.27 50.486 0.382 7.77 3.84 11.1
11/10/2021 2:15:00 PM 10.34 50.612 0.373 7.77 3.47 11.1
11/10/2021 2:30:00 PM 10.41 50.738 0.368 7.78 4.2 11.13
11/10/2021 2:45:00 PM 10.48 50.864 0.364 7.79 3.71 11.15
11/10/2021 3:00:00 PM 10.53 50.954 0.366 7.78 3.86 11.16
11/10/2021 3:15:00 PM 10.57 51.026 0.366 7.79 3.87 11.16
11/10/2021 3:30:00 PM 10.59 51.062 0.387 7.79 4.53 11.18
11/10/2021 3:45:00 PM 10.6 51.08 0.384 7.8 3.77 11.12
11/10/2021 4:00:00 PM 10.59 51.062 0.394 7.78 3.97 11.07
11/10/2021 4:15:00 PM 10.55 50.99 0.356 7.8 4.1 11.05
11/10/2021 4:30:00 PM 10.52 50.936 0.375 7.79 3.54 10.96
11/10/2021 4:45:00 PM 10.48 50.864 0.382 7.79 3.71 10.97
11/10/2021 5:00:00 PM 10.44 50.792 0.368 7.79 3.49 10.87
11/10/2021 5:15:00 PM 10.4 50.72 0.367 7.79 4.17 10.82
11/10/2021 5:30:00 PM 10.36 50.648 0.364 7.77 4.07 10.73
11/10/2021 5:45:00 PM 10.32 50.576 0.367 7.77 5.66 10.64
11/10/2021 6:00:00 PM 10.27 50.486 0.28 7.74 10.66 10.53
11/10/2021 6:15:00 PM 10.2 50.36 0.386 7.76 4 10.46
11/10/2021 6:30:00 PM 10.15 50.27 0.393 7.74 3.76 10.38
11/10/2021 6:45:00 PM 10.09 50.162 0.388 7.72 3.38 10.27
11/10/2021 7:00:00 PM 10.03 50.054 0.379 7.73 2.84 10.19
11/10/2021 7:15:00 PM 9.96 49.928 0.385 7.72 2.98 10.13
11/10/2021 7:30:00 PM 9.89 49.802 0.321 7.67 4.2 10.06
11/10/2021 7:45:00 PM 9.82 49.676 0.37 7.69 3.01 9.98
11/10/2021 8:00:00 PM 9.75 49.55 0.367 7.68 2.99 9.94
11/10/2021 8:15:00 PM 9.69 49.442 0.366 7.68 3.03 9.86
11/10/2021 8:30:00 PM 9.62 49.316 0.37 7.67 3.3 9.83
11/10/2021 8:45:00 PM 9.56 49.208 0.369 7.64 3.92 9.78
11/10/2021 9:00:00 PM 9.49 49.082 0.366 7.66 3.01 9.75
11/10/2021 9:15:00 PM 9.43 48.974 0.369 7.64 3.41 9.71
11/10/2021 9:30:00 PM 9.38 48.884 0.392 7.65 3.05 9.66
11/10/2021 9:45:00 PM 9.31 48.758 0.359 7.65 3.07 9.65
11/10/2021 10:00:00 PM 9.25 48.65 0.391 7.62 3.02 9.64
11/10/2021 10:15:00 PM 9.16 48.488 0.386 7.61 3.25 9.62
11/10/2021 10:30:00 PM 9.1 48.38 0.38 7.62 3.09 9.6
11/10/2021 10:45:00 PM 9.04 48.272 0.38 7.62 3.06 9.61
11/10/2021 11:00:00 PM 8.97 48.146 0.384 7.62 3.32 9.59
11/10/2021 11:15:00 PM 8.91 48.038 0.374 7.61 4.82 9.59
11/10/2021 11:30:00 PM 8.85 47.93 0.371 7.61 3.16 9.59
11/10/2021 11:45:00 PM 8.81 47.858 0.37 7.61 3.39 9.59
11/11/2021 12:00:00 AM 8.75 47.75 0.372 7.59 4.81 9.6
11/11/2021 12:15:00 AM 8.7 47.66 0.393 7.6 3.16 9.61
11/11/2021 12:30:00 AM 8.65 47.57 0.298 7.59 3.94 9.63
11/11/2021 12:45:00 AM 8.6 47.48 0.386 7.6 3.89 9.63
11/11/2021 1:00:00 AM 8.55 47.39 0.385 7.58 3.77 9.64
11/11/2021 1:15:00 AM 8.49 47.282 0.379 7.61 4.46 9.65
11/11/2021 1:30:00 AM 8.43 47.174 0.37 7.59 4.08 9.65
11/11/2021 1:45:00 AM 8.38 47.084 0.372 7.58 4.58 9.68
11/11/2021 2:00:00 AM 8.32 46.976 0.37 7.59 4.13 9.71
11/11/2021 2:15:00 AM 8.26 46.868 0.368 7.58 3.14 9.71
11/11/2021 2:30:00 AM 8.21 46.778 0.371 7.6 6.46 9.71
11/11/2021 2:45:00 AM 8.15 46.67 0.394 7.6 3.1 9.75
11/11/2021 3:00:00 AM 8.1 46.58 0.402 7.58 2.99 9.74
11/11/2021 3:15:00 AM 8.03 46.454 0.384 7.6 3.98 9.79
11/11/2021 3:30:00 AM 7.98 46.364 0.393 7.58 4.59 9.78
11/11/2021 3:45:00 AM 7.92 46.256 0.386 7.58 4.38 9.81
11/11/2021 4:00:00 AM 7.86 46.148 0.377 7.6 4.38 9.8
11/11/2021 4:15:00 AM 7.8 46.04 0.375 7.49 3.62 9.85
11/11/2021 4:30:00 AM 7.75 45.95 0.375 7.59 3.72 9.85
11/11/2021 4:45:00 AM 7.69 45.842 0.315 7.58 4.3 9.88
11/11/2021 5:00:00 AM 7.63 45.734 0.377 7.58 4.56 9.9
11/11/2021 5:15:00 AM 7.58 45.644 0.406 7.59 4.15 9.92
11/11/2021 5:30:00 AM 7.53 45.554 0.338 7.59 3.27 9.93
11/11/2021 5:45:00 AM 7.47 45.446 0.399 7.59 4.4 9.95
11/11/2021 6:00:00 AM 7.42 45.356 0.394 7.6 3.99 9.96
11/11/2021 6:15:00 AM 7.38 45.284 0.386 7.6 4.66 9.96
11/11/2021 6:30:00 AM 7.34 45.212 0.382 7.58 3.72 9.97
11/11/2021 6:45:00 AM 7.29 45.122 0.376 7.59 3.32 10.01
11/11/2021 7:00:00 AM 7.26 45.068 0.375 7.58 3.91 10.03
11/11/2021 7:15:00 AM 7.23 45.014 0.375 7.58 4.99 10.02
11/11/2021 7:30:00 AM 7.2 44.96 0.365 7.57 4.73 10.05
11/11/2021 7:45:00 AM 7.17 44.906 0.408 7.57 4.72 10.06
11/11/2021 8:00:00 AM 7.16 44.888 0.39 7.57 4.36 10.07
11/11/2021 8:15:00 AM 7.14 44.852 0.398 7.56 3.8 10.09
11/11/2021 8:30:00 AM 7.12 44.816 0.395 7.57 9.17 10.13
11/11/2021 8:45:00 AM 7.12 44.816 0.378 7.59 4.12 10.16
11/11/2021 9:00:00 AM 7.12 44.816 0.375 7.58 3.44 10.23
11/11/2021 9:15:00 AM 7.11 44.798 0.371 7.6 3.44 10.28
11/11/2021 9:30:00 AM 7.11 44.798 0.371 7.6 4.36 10.37
11/11/2021 9:45:00 AM 7.1 44.78 0.374 7.61 3.13 10.45
11/11/2021 10:00:00 AM 7.1 44.78 0.2 7.63 3.02 10.53
11/11/2021 10:15:00 AM 7.12 44.816 0.403 7.63 3.58 10.62
11/11/2021 10:30:00 AM 7.14 44.852 0.359 7.64 2.99 10.72
11/11/2021 10:45:00 AM 7.18 44.924 0.387 7.65 2.93 10.81
11/11/2021 11:00:00 AM 7.22 44.996 0.39 7.66 2.9 10.89
11/11/2021 11:15:00 AM 7.28 45.104 0.39 7.67 2.82 10.99
11/11/2021 11:30:00 AM 7.34 45.212 0.286 7.69 2.85 11.07
11/11/2021 11:45:00 AM 7.43 45.374 0.381 7.7 2.76 11.15
11/11/2021 12:00:00 PM 7.51 45.518 0.35 7.7 4.1 11.26
11/11/2021 12:15:00 PM 7.61 45.698 0.374 7.72 2.91 11.36
11/11/2021 12:30:00 PM 7.69 45.842 0.374 7.66 3.48 11.44
11/11/2021 12:45:00 PM 7.76 45.968 0.377 7.73 2.86 11.51
11/11/2021 1:00:00 PM 7.86 46.148 0.21 7.75 2.93 11.6
11/11/2021 1:15:00 PM 7.93 46.274 0.395 7.77 2.79 11.66
11/11/2021 1:30:00 PM 8.02 46.436 0.4 7.77 2.79 11.7
11/11/2021 1:45:00 PM 8.08 46.544 0.392 7.8 2.75 11.77
11/11/2021 2:00:00 PM 8.16 46.688 0.382 7.81 2.72 11.82
11/11/2021 2:15:00 PM 8.22 46.796 0.39 7.82 2.8 11.83
11/11/2021 2:30:00 PM 8.29 46.922 0.313 7.82 2.7 11.86
11/11/2021 2:45:00 PM 8.37 47.066 0.377 7.83 2.67 11.87
11/11/2021 3:00:00 PM 8.43 47.174 0.374 7.83 2.64 11.87
11/11/2021 3:15:00 PM 8.49 47.282 0.374 7.85 2.68 11.89
11/11/2021 3:30:00 PM 8.55 47.39 0.374 7.85 2.61 11.87
11/11/2021 3:45:00 PM 8.61 47.498 0.374 7.85 2.63 11.86
11/11/2021 4:00:00 PM 8.65 47.57 0.374 7.86 2.5 11.8
11/11/2021 4:15:00 PM 8.7 47.66 0.376 7.86 2.56 11.76
11/11/2021 4:30:00 PM 8.74 47.732 0.386 7.86 2.54 11.71
11/11/2021 4:45:00 PM 8.77 47.786 0.406 7.84 2.56 11.65
11/11/2021 5:00:00 PM 8.77 47.786 0.393 7.85 2.56 11.54
11/11/2021 5:15:00 PM 8.77 47.786 0.39 7.84 3.16 11.46
11/11/2021 5:30:00 PM 8.77 47.786 0.381 7.83 2.49 11.35
11/11/2021 5:45:00 PM 8.77 47.786 0.378 7.81 8.13 11.24
11/11/2021 6:00:00 PM 8.77 47.786 0.377 7.79 3.26 11.13
11/11/2021 6:15:00 PM 8.77 47.786 0.372 7.79 8.27 11.01
11/11/2021 6:30:00 PM 8.77 47.786 0.373 7.77 3.78 10.93
11/11/2021 6:45:00 PM 8.78 47.804 0.386 7.79 2.66 10.82
11/11/2021 7:00:00 PM 8.78 47.804 0.273 7.75 3.83 10.71
11/11/2021 7:15:00 PM 8.78 47.804 0.404 7.75 4.32 10.61
11/11/2021 7:30:00 PM 8.78 47.804 0.402 7.76 4.08 10.51
11/11/2021 7:45:00 PM 8.79 47.822 0.395 7.73 2.99 10.43
11/11/2021 8:00:00 PM 8.79 47.822 0.383 7.74 4.43 10.35
11/11/2021 8:15:00 PM 8.79 47.822 0.386 7.73 3.36 10.29
11/11/2021 8:30:00 PM 8.79 47.822 0.382 7.71 3.63 10.21
11/11/2021 8:45:00 PM 8.8 47.84 0.382 7.7 3.21 10.13
11/11/2021 9:00:00 PM 8.8 47.84 0.381 7.7 4.78 10.07
11/11/2021 9:15:00 PM 8.81 47.858 0.386 7.69 4.1 10
11/11/2021 9:30:00 PM 8.81 47.858 0.403 7.69 4.34 9.94
11/11/2021 9:45:00 PM 8.81 47.858 0.411 7.67 3.75 9.9
11/11/2021 10:00:00 PM 8.81 47.858 0.405 7.68 4.42 9.86
11/11/2021 10:15:00 PM 8.83 47.894 0.318 7.66 3.3 9.82
11/11/2021 10:30:00 PM 8.84 47.912 0.395 7.65 5.68 9.78
11/11/2021 10:45:00 PM 8.86 47.948 0.39 7.65 5.01 9.74
11/11/2021 11:00:00 PM 8.88 47.984 0.384 7.65 5.14 9.72
11/11/2021 11:15:00 PM 8.9 48.02 0.382 7.65 3.87 9.7
11/11/2021 11:30:00 PM 8.92 48.056 0.383 7.65 3.79 9.69
11/11/2021 11:45:00 PM 8.94 48.092 0.383 7.66 3.04 9.65
11/12/2021 12:00:00 AM 8.97 48.146 0.383 7.65 3.9 9.63
11/12/2021 12:15:00 AM 9 48.2 0.416 7.65 3.01 9.62
11/12/2021 12:30:00 AM 9.02 48.236 0.421 7.66 3.76 9.6
11/12/2021 12:45:00 AM 9.04 48.272 0.414 7.64 3.77 9.59
11/12/2021 1:00:00 AM 9.07 48.326 0.418 7.66 3.67 9.57
11/12/2021 1:15:00 AM 9.08 48.344 0.41 7.66 3.55 9.57
11/12/2021 1:30:00 AM 9.1 48.38 0.398 7.65 3.08 9.56
11/12/2021 1:45:00 AM 9.13 48.434 0.4 7.66 4.11 9.56
11/12/2021 2:00:00 AM 9.15 48.47 0.392 7.64 3.97 9.53
11/12/2021 2:15:00 AM 9.18 48.524 0.392 7.63 3.55 9.52
11/12/2021 2:30:00 AM 9.19 48.542 0.39 7.63 4.58 9.52
11/12/2021 2:45:00 AM 9.21 48.578 0.39 7.64 3.19 9.5
11/12/2021 3:00:00 AM 9.24 48.632 0.389 7.63 3.34 9.49
11/12/2021 3:15:00 AM 9.27 48.686 0.4 7.62 3.87 9.5
11/12/2021 3:30:00 AM 9.29 48.722 0.417 7.63 3.13 9.47
11/12/2021 3:45:00 AM 9.31 48.758 0.416 7.62 4.6 9.46
11/12/2021 4:00:00 AM 9.33 48.794 0.406 7.63 4.07 9.45
11/12/2021 4:15:00 AM 9.35 48.83 0.411 7.62 4.18 9.42
11/12/2021 4:30:00 AM 9.38 48.884 0.4 7.61 4.87 9.42
11/12/2021 4:45:00 AM 9.41 48.938 0.4 7.62 4.27 9.42
11/12/2021 5:00:00 AM 9.44 48.992 0.392 7.62 4 9.43
11/12/2021 5:15:00 AM 9.47 49.046 0.383 7.61 5.14 9.44
11/12/2021 5:30:00 AM 9.51 49.118 0.382 7.63 4.49 9.45
11/12/2021 5:45:00 AM 9.56 49.208 0.378 7.62 4.37 9.45
11/12/2021 6:00:00 AM 9.61 49.298 0.377 7.61 5.42 9.44
11/12/2021 6:15:00 AM 9.66 49.388 0.353 7.61 6.52 9.44
11/12/2021 6:30:00 AM 9.7 49.46 0.385 7.62 6.34 9.43
11/12/2021 6:45:00 AM 9.78 49.604 0.397 7.61 9.06 9.44
11/12/2021 7:00:00 AM 9.89 49.802 0.39 7.62 13.69 9.5
11/12/2021 7:15:00 AM 9.94 49.892 0.379 7.59 15.12 9.44
11/12/2021 7:30:00 AM 9.98 49.964 0.363 7.58 18.99 9.38
11/12/2021 7:45:00 AM 10.03 50.054 0.353 7.55 20.7 9.33
11/12/2021 8:00:00 AM 10.09 50.162 0.353 7.54 22.41 9.25
11/12/2021 8:15:00 AM 10.1 50.18 0.345 7.54 20.47 9.19
11/12/2021 8:30:00 AM 10.1 50.18 0.379 7.52 18.45 9.16
11/12/2021 8:45:00 AM 10.1 50.18 0.492 7.51 16.36 9.13
11/12/2021 9:00:00 AM 10.13 50.234 0.524 7.51 15.87 9.18
11/12/2021 9:15:00 AM 10.13 50.234 0.459 7.51 75.05 9.27
11/12/2021 9:30:00 AM 10.04 50.072 0.379 7.56 22.26 9.49
11/12/2021 9:45:00 AM 9.9 49.82 0.329 7.6 21.32 9.72
11/12/2021 10:00:00 AM 9.8 49.64 0.28 7.58 32.48 9.84
11/12/2021 10:15:00 AM 9.8 49.64 0.204 7.51 75.59 10
11/12/2021 10:30:00 AM 9.86 49.748 0.149 7.37 150.86 10.09
11/12/2021 10:45:00 AM 9.84 49.712 0.135 7.34 136.68 10.13
11/12/2021 11:00:00 AM 9.82 49.676 0.124 7.15 117.41 10.17
11/12/2021 11:15:00 AM 9.81 49.658 0.121 7.27 213.8 10.22
11/12/2021 11:30:00 AM 9.81 49.658 0.123 7.27 113.04 10.24
11/12/2021 11:45:00 AM 9.81 49.658 0.126 7.23 109.7 10.23
11/12/2021 12:00:00 PM 9.8 49.64 0.116 7.21 134.33 10.24
11/12/2021 12:15:00 PM 9.8 49.64 0.113 7.19 100.33 10.23
11/12/2021 12:30:00 PM 9.82 49.676 0.105 7.06 132.42 10.27
11/12/2021 12:45:00 PM 9.87 49.766 0.103 7.13 129.91 10.23
11/12/2021 1:00:00 PM 9.93 49.874 0.1 7.12 104.35 10.2
11/12/2021 1:15:00 PM 10 50 0.096 7.12 121.37 10.16
11/12/2021 1:30:00 PM 10.07 50.126 0.093 7.07 96.4 10.13
11/12/2021 1:45:00 PM 10.15 50.27 0.093 7.06 117.52 10.09
11/12/2021 2:00:00 PM 10.21 50.378 0.097 7 104.06 10.05
11/12/2021 2:15:00 PM 10.27 50.486 0.096 7.05 96.37 10.01
11/12/2021 2:30:00 PM 10.32 50.576 0.096 7.06 116.12 9.99
11/12/2021 2:45:00 PM 10.38 50.684 0.097 7.07 80.22 9.95
11/12/2021 3:00:00 PM 10.43 50.774 0.099 6.97 76.13 9.9
11/12/2021 3:15:00 PM 10.47 50.846 0.101 7.08 61.63 9.86
11/12/2021 3:30:00 PM 10.5 50.9 0.105 7.07 71.42 9.82
11/12/2021 3:45:00 PM 10.53 50.954 0.108 6.88 51.04 9.78
11/12/2021 4:00:00 PM 10.54 50.972 0.11 7.09 56.06 9.75
11/12/2021 4:15:00 PM 10.55 50.99 0.109 7.08 57.31 9.72
11/12/2021 4:30:00 PM 10.54 50.972 0.108 7.08 62.2 9.7
11/12/2021 4:45:00 PM 10.52 50.936 0.112 7.11 55.45 9.67
11/12/2021 5:00:00 PM 10.49 50.882 0.114 7.12 41.55 9.65
11/12/2021 5:15:00 PM 10.46 50.828 0.115 7.13 44.37 9.63
11/12/2021 5:30:00 PM 10.43 50.774 0.117 7.12 47.56 9.62
11/12/2021 5:45:00 PM 10.4 50.72 0.118 7.13 62.82 9.61
11/12/2021 6:00:00 PM 10.36 50.648 0.122 7.12 34.54 9.58
11/12/2021 6:15:00 PM 10.32 50.576 0.12 7.1 49.72 9.58
11/12/2021 6:30:00 PM 10.27 50.486 0.126 7.14 43.99 9.54
11/12/2021 6:45:00 PM 10.22 50.396 0.125 7.12 34.26 9.54
11/12/2021 7:00:00 PM 10.16 50.288 0.128 7.14 38.76 9.53
11/12/2021 7:15:00 PM 10.1 50.18 0.13 7.15 35.1 9.53
11/12/2021 7:30:00 PM 10.03 50.054 0.131 7.14 40.47 9.53
11/12/2021 7:45:00 PM 9.97 49.946 0.133 7.18 39.03 9.53
11/12/2021 8:00:00 PM 9.9 49.82 0.136 7.15 28.92 9.54
11/12/2021 8:15:00 PM 9.84 49.712 0.136 7.18 31.45 9.52
11/12/2021 8:30:00 PM 9.77 49.586 0.137 7.16 28.89 9.56
11/12/2021 8:45:00 PM 9.71 49.478 0.135 7.17 35.18 9.52
11/12/2021 9:00:00 PM 9.65 49.37 0.139 7.14 37.29 9.54
11/12/2021 9:15:00 PM 9.57 49.226 0.138 7.18 28.58 9.57
11/12/2021 9:30:00 PM 9.51 49.118 0.14 7.19 31.52 9.57
11/12/2021 9:45:00 PM 9.44 48.992 0.143 7.17 26.29 9.57
11/12/2021 10:00:00 PM 9.37 48.866 0.141 7.17 27.59 9.61
11/12/2021 10:15:00 PM 9.3 48.74 0.144 7.17 30.8 9.61
11/12/2021 10:30:00 PM 9.23 48.614 0.145 7.15 25.98 9.64
11/12/2021 10:45:00 PM 9.16 48.488 0.147 7.2 27.95 9.67
11/12/2021 11:00:00 PM 9.09 48.362 0.149 7.16 29.12 9.69
11/12/2021 11:15:00 PM 9.02 48.236 0.149 7.18 22.02 9.7
11/12/2021 11:30:00 PM 8.94 48.092 0.152 7.17 26.55 9.73
11/12/2021 11:45:00 PM 8.87 47.966 0.154 7.19 27.21 9.77
11/13/2021 12:00:00 AM 8.8 47.84 0.157 7.21 19.95 9.8
11/13/2021 12:15:00 AM 8.74 47.732 0.16 7.21 26.43 9.81
11/13/2021 12:30:00 AM 8.67 47.606 0.16 7.24 24.83 9.83
11/13/2021 12:45:00 AM 8.6 47.48 0.163 7.22 21.86 9.84
11/13/2021 1:00:00 AM 8.55 47.39 0.165 7.24 22.33 9.86
11/13/2021 1:15:00 AM 8.49 47.282 0.169 7.24 24.59 9.88
11/13/2021 1:30:00 AM 8.43 47.174 0.169 7.25 25.76 9.91
11/13/2021 1:45:00 AM 8.37 47.066 0.17 7.26 21.73 9.92
11/13/2021 2:00:00 AM 8.32 46.976 0.173 7.25 17.64 9.93
11/13/2021 2:15:00 AM 8.26 46.868 0.171 7.26 21.78 9.95
11/13/2021 2:30:00 AM 8.21 46.778 0.178 7.27 16.91 9.97
11/13/2021 2:45:00 AM 8.16 46.688 0.176 7.28 18.68 9.98
11/13/2021 3:00:00 AM 8.11 46.598 0.178 7.28 20.06 9.99
11/13/2021 3:15:00 AM 8.06 46.508 0.179 7.27 20.96 10.01
11/13/2021 3:30:00 AM 8.02 46.436 0.185 7.3 17.99 10.03
11/13/2021 3:45:00 AM 7.97 46.346 0.185 7.29 17.65 10.04
11/13/2021 4:00:00 AM 7.92 46.256 0.188 7.29 18.51 10.04
11/13/2021 4:15:00 AM 7.88 46.184 0.195 7.26 14.98 10.07
11/13/2021 4:30:00 AM 7.84 46.112 0.189 7.31 16.41 10.07
11/13/2021 4:45:00 AM 7.8 46.04 0.199 7.32 15.81 10.09
11/13/2021 5:00:00 AM 7.77 45.986 0.2 7.28 16.63 10.1
11/13/2021 5:15:00 AM 7.74 45.932 0.194 7.27 18.52 10.12
11/13/2021 5:30:00 AM 7.7 45.86 0.2 7.29 14.52 10.12
11/13/2021 5:45:00 AM 7.69 45.842 0.201 7.31 13.88 10.1
11/13/2021 6:00:00 AM 7.64 45.752 0.201 7.29 14.05 10.15
11/13/2021 6:15:00 AM 7.62 45.716 0.2 7.31 13.94 10.15
11/13/2021 6:30:00 AM 7.59 45.662 0.205 7.18 14.73 10.16
11/13/2021 6:45:00 AM 7.57 45.626 0.204 7.28 12.83 10.18
11/13/2021 7:00:00 AM 7.54 45.572 0.209 7.33 13.75 10.18
11/13/2021 7:15:00 AM 7.52 45.536 0.204 7.32 13.45 10.19
11/13/2021 7:30:00 AM 7.5 45.5 0.204 7.31 14 10.2
11/13/2021 7:45:00 AM 7.48 45.464 0.209 7.33 12.42 10.21
11/13/2021 8:00:00 AM 7.46 45.428 0.21 7.33 12.6 10.21
11/13/2021 8:15:00 AM 7.44 45.392 0.213 7.33 13.09 10.24
11/13/2021 8:30:00 AM 7.42 45.356 0.211 7.32 12.19 10.24
11/13/2021 8:45:00 AM 7.41 45.338 0.214 7.35 11.66 10.26
11/13/2021 9:00:00 AM 7.42 45.356 0.216 7.33 11.24 10.27
11/13/2021 9:15:00 AM 7.42 45.356 0.219 7.36 10.87 10.3
11/13/2021 9:30:00 AM 7.43 45.374 0.214 7.36 10.39 10.32
11/13/2021 9:45:00 AM 7.44 45.392 0.222 7.37 10.34 10.34
11/13/2021 10:00:00 AM 7.45 45.41 0.224 7.38 9.68 10.35
11/13/2021 10:15:00 AM 7.45 45.41 0.217 7.38 9.59 10.36
11/13/2021 10:30:00 AM 7.47 45.446 0.22 7.38 9.38 10.36
11/13/2021 10:45:00 AM 7.47 45.446 0.225 7.39 9.12 10.39
11/13/2021 11:00:00 AM 7.49 45.482 0.219 7.4 9.11 10.41
11/13/2021 11:15:00 AM 7.5 45.5 0.218 7.41 8.66 10.43
11/13/2021 11:30:00 AM 7.51 45.518 0.22 7.41 8.45 10.45
11/13/2021 11:45:00 AM 7.54 45.572 0.221 7.42 8.88 10.48
11/13/2021 12:00:00 PM 7.55 45.59 0.22 7.41 8.94 10.49
11/13/2021 12:15:00 PM 7.57 45.626 0.226 7.42 8.76 10.52
11/13/2021 12:30:00 PM 7.58 45.644 0.22 7.43 8.11 10.53
11/13/2021 12:45:00 PM 7.6 45.68 0.23 7.43 8.68 10.55
11/13/2021 1:00:00 PM 7.61 45.698 0.225 7.41 9.88 10.55
11/13/2021 1:15:00 PM 7.61 45.698 0.227 7.44 7.87 10.56
11/13/2021 1:30:00 PM 7.61 45.698 0.225 7.43 8.03 10.59
11/13/2021 1:45:00 PM 7.63 45.734 0.131 7.42 8.26 10.6
11/13/2021 2:00:00 PM 7.64 45.752 0.223 7.44 9.22 10.62
11/13/2021 2:15:00 PM 7.66 45.788 0.234 7.43 8.67 10.63
11/13/2021 2:30:00 PM 7.67 45.806 0.237 7.45 8.63 10.64
11/13/2021 2:45:00 PM 7.69 45.842 0.236 7.45 7.89 10.63
11/13/2021 3:00:00 PM 7.71 45.878 0.235 7.44 7.95 10.64
11/13/2021 3:15:00 PM 7.72 45.896 0.237 7.42 8.61 10.65
11/13/2021 3:30:00 PM 7.73 45.914 0.222 7.46 7.88 10.69
11/13/2021 3:45:00 PM 7.76 45.968 0.228 7.46 9.39 10.73
11/13/2021 4:00:00 PM 7.76 45.968 0.231 7.48 6.88 10.73
11/13/2021 4:15:00 PM 7.77 45.986 0.228 7.46 7.81 10.73
11/13/2021 4:30:00 PM 7.78 46.004 0.227 7.47 7.66 10.75
11/13/2021 4:45:00 PM 7.78 46.004 0.232 7.46 8.17 10.72
11/13/2021 5:00:00 PM 7.79 46.022 0.234 7.49 7.61 10.71
11/13/2021 5:15:00 PM 7.78 46.004 0.235 7.49 7.2 10.68
11/13/2021 5:30:00 PM 7.77 45.986 0.236 7.49 7.59 10.67
11/13/2021 5:45:00 PM 7.75 45.95 0.238 7.49 7.58 10.66
11/13/2021 6:00:00 PM 7.74 45.932 0.229 7.48 7.77 10.62
11/13/2021 6:15:00 PM 7.71 45.878 0.238 7.48 7.72 10.59
11/13/2021 6:30:00 PM 7.68 45.824 0.226 7.47 7.97 10.56
11/13/2021 6:45:00 PM 7.65 45.77 0.241 7.45 7.2 10.54
11/13/2021 7:00:00 PM 7.61 45.698 0.234 7.45 6.89 10.51
11/13/2021 7:15:00 PM 7.57 45.626 0.226 7.45 7.8 10.5
11/13/2021 7:30:00 PM 7.53 45.554 0.227 7.45 7.46 10.49
11/13/2021 7:45:00 PM 7.52 45.536 0.243 7.45 7.29 10.45
11/13/2021 8:00:00 PM 7.48 45.464 0.24 7.44 7.48 10.44
11/13/2021 8:15:00 PM 7.46 45.428 0.234 7.42 7.62 10.42
11/13/2021 8:30:00 PM 7.43 45.374 0.239 7.44 7.29 10.4
11/13/2021 8:45:00 PM 7.41 45.338 0.236 7.43 7.65 10.41
11/13/2021 9:00:00 PM 7.38 45.284 0.237 7.44 7.76 10.38
11/13/2021 9:15:00 PM 7.35 45.23 0.237 7.43 7.35 10.39
11/13/2021 9:30:00 PM 7.32 45.176 0.23 7.38 7.76 10.39
11/13/2021 9:45:00 PM 7.29 45.122 0.204 7.4 8.21 10.39
11/13/2021 10:00:00 PM 7.27 45.086 0.23 7.42 7.49 10.4
11/13/2021 10:15:00 PM 7.25 45.05 0.234 7.42 7.5 10.39
11/13/2021 10:30:00 PM 7.24 45.032 0.218 7.42 7.23 10.39
11/13/2021 10:45:00 PM 7.21 44.978 0.234 7.43 7.01 10.4
11/13/2021 11:00:00 PM 7.18 44.924 0.224 7.41 7.61 10.41
11/13/2021 11:15:00 PM 7.15 44.87 0.224 7.41 7.38 10.42
11/13/2021 11:30:00 PM 7.12 44.816 0.23 7.42 7.71 10.42
11/13/2021 11:45:00 PM 7.09 44.762 0.234 7.41 7.92 10.43
11/14/2021 12:00:00 AM 7.08 44.744 0.233 7.4 7.97 10.43
11/14/2021 12:15:00 AM 7.05 44.69 0.235 7.42 7.21 10.44
11/14/2021 12:30:00 AM 7.04 44.672 0.232 7.43 8.13 10.44
11/14/2021 12:45:00 AM 7.04 44.672 0.237 7.44 7.65 10.44
11/14/2021 1:00:00 AM 7.03 44.654 0.238 7.43 7.56 10.43
11/14/2021 1:15:00 AM 7.01 44.618 0.242 7.44 7.23 10.44
11/14/2021 1:30:00 AM 7 44.6 0.241 7.4 8.91 10.44
11/14/2021 1:45:00 AM 6.99 44.582 0.242 7.41 7.28 10.44
11/14/2021 2:00:00 AM 6.97 44.546 0.233 7.41 8.39 10.45
11/14/2021 2:15:00 AM 6.95 44.51 0.24 7.41 7.78 10.45
11/14/2021 2:30:00 AM 6.92 44.456 0.244 7.42 8.21 10.46
11/14/2021 2:45:00 AM 6.91 44.438 0.236 7.42 8.06 10.46
11/14/2021 3:00:00 AM 6.9 44.42 0.24 7.42 7.23 10.47
11/14/2021 3:15:00 AM 6.89 44.402 0.23 7.44 6.8 10.46
11/14/2021 3:30:00 AM 6.89 44.402 0.248 7.44 6.75 10.47
11/14/2021 3:45:00 AM 6.88 44.384 0.248 7.43 6.55 10.47
11/14/2021 4:00:00 AM 6.88 44.384 0.246 7.42 6.63 10.47
11/14/2021 4:15:00 AM 6.86 44.348 0.25 7.43 6.98 10.47
11/14/2021 4:30:00 AM 6.85 44.33 0.249 7.44 6.84 10.47
11/14/2021 4:45:00 AM 6.85 44.33 0.235 7.42 6.65 10.48
11/14/2021 5:00:00 AM 6.85 44.33 0.248 7.43 6.39 10.44
11/14/2021 5:15:00 AM 6.82 44.276 0.249 7.43 6.8 10.49
11/14/2021 5:30:00 AM 6.83 44.294 0.239 7.41 6.62 10.5
11/14/2021 5:45:00 AM 6.81 44.258 0.245 7.43 6.93 10.51
11/14/2021 6:00:00 AM 6.83 44.294 0.242 7.44 6.42 10.49
11/14/2021 6:15:00 AM 6.81 44.258 0.252 7.44 6.2 10.49
11/14/2021 6:30:00 AM 6.82 44.276 0.251 7.45 6.43 10.49
11/14/2021 6:45:00 AM 6.81 44.258 0.254 7.45 6.37 10.49
11/14/2021 7:00:00 AM 6.81 44.258 0.234 7.44 6.51 10.49
11/14/2021 7:15:00 AM 6.81 44.258 0.255 7.45 6.3 10.48
11/14/2021 7:30:00 AM 6.8 44.24 0.246 7.45 7.02 10.5
11/14/2021 7:45:00 AM 6.8 44.24 0.253 7.45 6.6 10.49
11/14/2021 8:00:00 AM 6.79 44.222 0.255 7.44 6.81 10.49
11/14/2021 8:15:00 AM 6.8 44.24 0.251 7.45 6.33 10.5
11/14/2021 8:30:00 AM 6.8 44.24 0.236 7.45 6.29 10.49
11/14/2021 8:45:00 AM 6.8 44.24 0.253 7.45 6.24 10.5
11/14/2021 9:00:00 AM 6.8 44.24 0.248 7.46 6.52 10.51
11/14/2021 9:15:00 AM 6.81 44.258 0.249 7.45 5.88 10.51
11/14/2021 9:30:00 AM 6.81 44.258 0.248 7.46 6.19 10.55
11/14/2021 9:45:00 AM 6.81 44.258 0.256 7.46 5.89 10.58
11/14/2021 10:00:00 AM 6.82 44.276 0.24 7.47 5.63 10.63
11/14/2021 10:15:00 AM 6.83 44.294 0.256 7.48 5.56 10.66
11/14/2021 10:30:00 AM 6.84 44.312 0.243 7.47 5.57 10.72
11/14/2021 10:45:00 AM 6.86 44.348 0.247 7.48 5.8 10.75
11/14/2021 11:00:00 AM 6.86 44.348 0.244 7.49 5.4 10.79
11/14/2021 11:15:00 AM 6.88 44.384 0.245 7.47 5.54 10.84
11/14/2021 11:30:00 AM 6.89 44.402 0.243 7.48 5.56 10.9
11/14/2021 11:45:00 AM 6.91 44.438 0.245 7.51 5.46 10.95
11/14/2021 12:00:00 PM 6.94 44.492 0.244 7.47 7.86 11.01
11/14/2021 12:15:00 PM 6.98 44.564 0.246 7.51 5.87 11.08
11/14/2021 12:30:00 PM 7.03 44.654 0.245 7.52 5.4 11.14
11/14/2021 12:45:00 PM 7.07 44.726 0.246 7.53 5.6 11.18
11/14/2021 1:00:00 PM 7.12 44.816 0.243 7.51 5.16 11.24
11/14/2021 1:15:00 PM 7.17 44.906 0.234 7.54 5.28 11.27
11/14/2021 1:30:00 PM 7.22 44.996 0.251 7.55 5.22 11.31
11/14/2021 1:45:00 PM 7.27 45.086 0.242 7.55 5.98 11.35
11/14/2021 2:00:00 PM 7.31 45.158 0.25 7.57 5.15 11.37
11/14/2021 2:15:00 PM 7.35 45.23 0.246 7.57 5.9 11.39
11/14/2021 2:30:00 PM 7.38 45.284 0.232 7.59 4.94 11.37
11/14/2021 2:45:00 PM 7.4 45.32 0.234 7.58 5.47 11.38
11/14/2021 3:00:00 PM 7.42 45.356 0.23 7.59 5.02 11.36
11/14/2021 3:15:00 PM 7.45 45.41 0.234 7.59 5 11.36
11/14/2021 3:30:00 PM 7.47 45.446 0.239 7.59 5.06 11.35
11/14/2021 3:45:00 PM 7.5 45.5 0.237 7.59 5.26 11.32
11/14/2021 4:00:00 PM 7.51 45.518 0.236 7.59 4.78 11.32
11/14/2021 4:15:00 PM 7.51 45.518 0.238 7.57 4.92 11.28
11/14/2021 4:30:00 PM 7.51 45.518 0.238 7.56 5.81 11.23
11/14/2021 4:45:00 PM 7.49 45.482 0.235 7.58 4.64 11.16
11/14/2021 5:00:00 PM 7.48 45.464 0.236 7.57 5.37 11.11
11/14/2021 5:15:00 PM 7.46 45.428 0.235 7.57 4.93 11.05
11/14/2021 5:30:00 PM 7.46 45.428 0.242 7.55 6.36 11
11/14/2021 5:45:00 PM 7.45 45.41 0.241 7.56 4.76 10.95
11/14/2021 6:00:00 PM 7.45 45.41 0.236 7.56 5.13 10.89
11/14/2021 6:15:00 PM 7.45 45.41 0.241 7.54 4.72 10.83
11/14/2021 6:30:00 PM 7.43 45.374 0.245 7.53 5.79 10.79
11/14/2021 6:45:00 PM 7.42 45.356 0.244 7.53 4.81 10.72
11/14/2021 7:00:00 PM 7.4 45.32 0.24 7.53 4.84 10.67
11/14/2021 7:15:00 PM 7.37 45.266 0.242 7.53 5.73 10.63
11/14/2021 7:30:00 PM 7.34 45.212 0.245 7.5 6.57 10.59
11/14/2021 7:45:00 PM 7.3 45.14 0.248 7.5 5.87 10.56
11/14/2021 8:00:00 PM 7.27 45.086 0.247 7.51 5.79 10.51
11/14/2021 8:15:00 PM 7.25 45.05 0.247 7.49 5.16 10.49
11/14/2021 8:30:00 PM 7.21 44.978 0.248 7.48 6 10.48
11/14/2021 8:45:00 PM 7.18 44.924 0.249 7.48 5.66 10.46
11/14/2021 9:00:00 PM 7.12 44.816 0.244 7.5 5.41 10.44
11/14/2021 9:15:00 PM 7.07 44.726 0.249 7.49 5.23 10.44
11/14/2021 9:30:00 PM 7.04 44.672 0.245 7.5 5.32 10.41
11/14/2021 9:45:00 PM 7.01 44.618 0.246 7.5 4.95 10.43
11/14/2021 10:00:00 PM 6.99 44.582 0.244 7.49 5.04 10.41
11/14/2021 10:15:00 PM 6.96 44.528 0.247 7.46 6.26 10.41
11/14/2021 10:30:00 PM 6.93 44.474 0.239 7.5 5.27 10.41
11/14/2021 10:45:00 PM 6.91 44.438 0.25 7.44 5.27 10.4
11/14/2021 11:00:00 PM 6.88 44.384 0.242 7.49 5.3 10.42
11/14/2021 11:15:00 PM 6.87 44.366 0.239 7.46 5.45 10.4
11/14/2021 11:30:00 PM 6.84 44.312 0.244 7.43 6.94 10.4
11/14/2021 11:45:00 PM 6.82 44.276 0.239 7.48 5.24 10.41
11/15/2021 12:00:00 AM 6.79 44.222 0.239 7.46 5.42 10.42
11/15/2021 12:15:00 AM 6.76 44.168 0.241 7.46 5.71 10.42
11/15/2021 12:30:00 AM 6.75 44.15 0.244 7.47 5.33 10.41
11/15/2021 12:45:00 AM 6.72 44.096 0.247 7.46 5.76 10.43
11/15/2021 1:00:00 AM 6.7 44.06 0.251 7.47 6.08 10.42
11/15/2021 1:15:00 AM 6.68 44.024 0.256 7.48 8.41 10.42
11/15/2021 1:30:00 AM 6.65 43.97 0.263 7.42 6.79 10.44
11/15/2021 1:45:00 AM 6.63 43.934 0.262 7.46 6.89 10.44
11/15/2021 2:00:00 AM 6.6 43.88 0.258 7.47 5.51 10.45
11/15/2021 2:15:00 AM 6.58 43.844 0.26 7.44 6.79 10.45
11/15/2021 2:30:00 AM 6.56 43.808 0.256 7.44 6.41 10.47
11/15/2021 2:45:00 AM 6.53 43.754 0.255 7.45 6.62 10.47
11/15/2021 3:00:00 AM 6.52 43.736 0.249 7.46 6.49 10.46
11/15/2021 3:15:00 AM 6.49 43.682 0.25 7.46 5.97 10.49
11/15/2021 3:30:00 AM 6.48 43.664 0.248 7.45 6.03 10.5
11/15/2021 3:45:00 AM 6.46 43.628 0.244 7.46 5.55 10.51
11/15/2021 4:00:00 AM 6.44 43.592 0.244 7.44 5.49 10.51
11/15/2021 4:15:00 AM 6.44 43.592 0.141 7.42 6.64 10.52
11/15/2021 4:30:00 AM 6.41 43.538 0.237 7.45 6.62 10.52
11/15/2021 4:45:00 AM 6.41 43.538 0.24 7.45 5.22 10.53
11/15/2021 5:00:00 AM 6.39 43.502 0.238 7.46 5.29 10.52
11/15/2021 5:15:00 AM 6.37 43.466 0.237 7.46 6.09 10.53
11/15/2021 5:30:00 AM 6.36 43.448 0.237 7.45 6.84 10.53
11/15/2021 5:45:00 AM 6.35 43.43 0.236 7.45 6.37 10.54
11/15/2021 6:00:00 AM 6.33 43.394 0.245 7.42 7.74 10.54
11/15/2021 6:15:00 AM 6.33 43.394 0.234 7.45 6.4 10.54
11/15/2021 6:30:00 AM 6.32 43.376 0.234 7.43 6.46 10.55
11/15/2021 6:45:00 AM 6.32 43.376 0.234 7.46 5.32 10.54
11/15/2021 7:00:00 AM 6.31 43.358 0.234 7.45 5.81 10.55
11/15/2021 7:15:00 AM 6.3 43.34 0.238 7.45 5.42 10.56
11/15/2021 7:30:00 AM 6.28 43.304 0.24 7.46 5.11 10.56
11/15/2021 7:45:00 AM 6.28 43.304 0.232 7.46 5.39 10.56
11/15/2021 8:00:00 AM 6.27 43.286 0.234 7.46 5.37 10.57
11/15/2021 8:15:00 AM 6.26 43.268 0.236 7.46 5.53 10.58
11/15/2021 8:30:00 AM 6.25 43.25 0.231 7.45 5.73 10.6
11/15/2021 8:45:00 AM 6.25 43.25 0.231 7.45 5.16 10.63
11/15/2021 9:00:00 AM 6.26 43.268 0.231 7.46 5.34 10.65
11/15/2021 9:15:00 AM 6.26 43.268 0.233 7.47